<?xml version="1.0" encoding="UTF-8" standalone="no" ?>
<gpx xmlns="http://www.topografix.com/GPX/1/1" xmlns:xsi="http://www.w3.org/2001/XMLSchema-instance" xsi:schemaLocation="http://www.topografix.com/GPX/1/1 http://www.topografix.com/GPX/1/1/gpx.xsd" version="1.1" creator="VisuGPX - https://www.visugpx.com">
  <metadata>
    <name>d\'Estaing a Campagnac</name>
    <desc><![CDATA[Trace AlpineQuest 15/09/2012, 08:26:34]]></desc>
  </metadata>
  <wpt lat="44.54463" lon="2.67152">
    <ele>523</ele>
    <name><![CDATA[en haut du gr6 vue sur Estaing]]></name>
  </wpt>
  <trk>
    <name><![CDATA[de Estaing a Campagnac]]></name>
    <trkseg>
      <trkpt lat="44.55193" lon="2.67294">
        <ele>359</ele>
        <time>2012-09-15T06:26:34Z</time>
      </trkpt>
      <trkpt lat="44.55188" lon="2.67287">
        <ele>393</ele>
        <time>2012-09-15T06:26:57Z</time>
      </trkpt>
      <trkpt lat="44.55183" lon="2.67292">
        <ele>397</ele>
        <time>2012-09-15T06:27:12Z</time>
      </trkpt>
      <trkpt lat="44.5517" lon="2.67293">
        <ele>397</ele>
        <time>2012-09-15T06:27:24Z</time>
      </trkpt>
      <trkpt lat="44.55164" lon="2.67284">
        <ele>393</ele>
        <time>2012-09-15T06:27:36Z</time>
      </trkpt>
      <trkpt lat="44.55156" lon="2.67278">
        <ele>398</ele>
        <time>2012-09-15T06:27:47Z</time>
      </trkpt>
      <trkpt lat="44.55158" lon="2.67275">
        <ele>392</ele>
        <time>2012-09-15T06:28:07Z</time>
      </trkpt>
      <trkpt lat="44.55155" lon="2.67273">
        <ele>398</ele>
        <time>2012-09-15T06:28:25Z</time>
      </trkpt>
      <trkpt lat="44.55145" lon="2.67272">
        <ele>396</ele>
        <time>2012-09-15T06:28:35Z</time>
      </trkpt>
      <trkpt lat="44.55139" lon="2.67273">
        <ele>403</ele>
        <time>2012-09-15T06:28:50Z</time>
      </trkpt>
      <trkpt lat="44.55129" lon="2.67272">
        <ele>397</ele>
        <time>2012-09-15T06:29:01Z</time>
      </trkpt>
      <trkpt lat="44.5512" lon="2.67269">
        <ele>396</ele>
        <time>2012-09-15T06:29:15Z</time>
      </trkpt>
      <trkpt lat="44.55112" lon="2.67267">
        <ele>398</ele>
        <time>2012-09-15T06:29:27Z</time>
      </trkpt>
      <trkpt lat="44.55108" lon="2.67262">
        <ele>409</ele>
        <time>2012-09-15T06:29:37Z</time>
      </trkpt>
      <trkpt lat="44.55103" lon="2.67261">
        <ele>405</ele>
        <time>2012-09-15T06:29:49Z</time>
      </trkpt>
      <trkpt lat="44.55096" lon="2.67261">
        <ele>408</ele>
        <time>2012-09-15T06:30:02Z</time>
      </trkpt>
      <trkpt lat="44.55088" lon="2.67255">
        <ele>410</ele>
        <time>2012-09-15T06:30:12Z</time>
      </trkpt>
      <trkpt lat="44.55082" lon="2.67252">
        <ele>409</ele>
        <time>2012-09-15T06:30:24Z</time>
      </trkpt>
      <trkpt lat="44.55076" lon="2.67249">
        <ele>411</ele>
        <time>2012-09-15T06:30:38Z</time>
      </trkpt>
      <trkpt lat="44.55068" lon="2.67245">
        <ele>413</ele>
        <time>2012-09-15T06:30:49Z</time>
      </trkpt>
      <trkpt lat="44.55057" lon="2.67244">
        <ele>420</ele>
        <time>2012-09-15T06:31:08Z</time>
      </trkpt>
      <trkpt lat="44.55048" lon="2.67246">
        <ele>418</ele>
        <time>2012-09-15T06:31:22Z</time>
      </trkpt>
      <trkpt lat="44.55039" lon="2.67248">
        <ele>421</ele>
        <time>2012-09-15T06:31:33Z</time>
      </trkpt>
      <trkpt lat="44.55029" lon="2.67245">
        <ele>422</ele>
        <time>2012-09-15T06:31:46Z</time>
      </trkpt>
      <trkpt lat="44.55021" lon="2.67239">
        <ele>420</ele>
        <time>2012-09-15T06:31:59Z</time>
      </trkpt>
      <trkpt lat="44.55015" lon="2.67237">
        <ele>430</ele>
        <time>2012-09-15T06:32:14Z</time>
      </trkpt>
      <trkpt lat="44.55006" lon="2.67234">
        <ele>428</ele>
        <time>2012-09-15T06:32:26Z</time>
      </trkpt>
      <trkpt lat="44.54996" lon="2.67232">
        <ele>435</ele>
        <time>2012-09-15T06:32:38Z</time>
      </trkpt>
      <trkpt lat="44.54988" lon="2.67239">
        <ele>437</ele>
        <time>2012-09-15T06:32:49Z</time>
      </trkpt>
      <trkpt lat="44.54981" lon="2.67252">
        <ele>431</ele>
        <time>2012-09-15T06:33:01Z</time>
      </trkpt>
      <trkpt lat="44.54975" lon="2.6726">
        <ele>439</ele>
        <time>2012-09-15T06:33:14Z</time>
      </trkpt>
      <trkpt lat="44.54969" lon="2.67264">
        <ele>437</ele>
        <time>2012-09-15T06:33:25Z</time>
      </trkpt>
      <trkpt lat="44.54962" lon="2.67274">
        <ele>445</ele>
        <time>2012-09-15T06:33:39Z</time>
      </trkpt>
      <trkpt lat="44.54954" lon="2.67282">
        <ele>447</ele>
        <time>2012-09-15T06:33:49Z</time>
      </trkpt>
      <trkpt lat="44.54949" lon="2.67293">
        <ele>445</ele>
        <time>2012-09-15T06:34:02Z</time>
      </trkpt>
      <trkpt lat="44.54941" lon="2.67299">
        <ele>453</ele>
        <time>2012-09-15T06:34:15Z</time>
      </trkpt>
      <trkpt lat="44.54937" lon="2.67306">
        <ele>458</ele>
        <time>2012-09-15T06:34:26Z</time>
      </trkpt>
      <trkpt lat="44.5493" lon="2.67312">
        <ele>451</ele>
        <time>2012-09-15T06:34:36Z</time>
      </trkpt>
      <trkpt lat="44.54923" lon="2.67322">
        <ele>452</ele>
        <time>2012-09-15T06:34:49Z</time>
      </trkpt>
      <trkpt lat="44.54914" lon="2.67329">
        <ele>457</ele>
        <time>2012-09-15T06:35:02Z</time>
      </trkpt>
      <trkpt lat="44.54909" lon="2.67331">
        <ele>463</ele>
        <time>2012-09-15T06:35:17Z</time>
      </trkpt>
      <trkpt lat="44.54897" lon="2.67337">
        <ele>455</ele>
        <time>2012-09-15T06:35:32Z</time>
      </trkpt>
      <trkpt lat="44.54884" lon="2.67343">
        <ele>463</ele>
        <time>2012-09-15T06:35:46Z</time>
      </trkpt>
      <trkpt lat="44.54875" lon="2.67349">
        <ele>465</ele>
        <time>2012-09-15T06:36:00Z</time>
      </trkpt>
      <trkpt lat="44.54866" lon="2.67354">
        <ele>473</ele>
        <time>2012-09-15T06:36:11Z</time>
      </trkpt>
      <trkpt lat="44.54857" lon="2.67358">
        <ele>478</ele>
        <time>2012-09-15T06:36:23Z</time>
      </trkpt>
      <trkpt lat="44.54847" lon="2.67365">
        <ele>469</ele>
        <time>2012-09-15T06:36:35Z</time>
      </trkpt>
      <trkpt lat="44.54838" lon="2.67372">
        <ele>474</ele>
        <time>2012-09-15T06:36:52Z</time>
      </trkpt>
      <trkpt lat="44.54828" lon="2.67373">
        <ele>475</ele>
        <time>2012-09-15T06:37:03Z</time>
      </trkpt>
      <trkpt lat="44.54818" lon="2.67377">
        <ele>476</ele>
        <time>2012-09-15T06:37:16Z</time>
      </trkpt>
      <trkpt lat="44.54806" lon="2.67383">
        <ele>475</ele>
        <time>2012-09-15T06:37:27Z</time>
      </trkpt>
      <trkpt lat="44.54798" lon="2.67387">
        <ele>474</ele>
        <time>2012-09-15T06:37:38Z</time>
      </trkpt>
      <trkpt lat="44.54789" lon="2.67389">
        <ele>477</ele>
        <time>2012-09-15T06:37:51Z</time>
      </trkpt>
      <trkpt lat="44.54781" lon="2.67394">
        <ele>481</ele>
        <time>2012-09-15T06:38:04Z</time>
      </trkpt>
      <trkpt lat="44.54775" lon="2.67394">
        <ele>485</ele>
        <time>2012-09-15T06:38:15Z</time>
      </trkpt>
      <trkpt lat="44.54769" lon="2.67391">
        <ele>485</ele>
        <time>2012-09-15T06:38:26Z</time>
      </trkpt>
      <trkpt lat="44.5476" lon="2.6739">
        <ele>491</ele>
        <time>2012-09-15T06:38:40Z</time>
      </trkpt>
      <trkpt lat="44.5475" lon="2.67391">
        <ele>488</ele>
        <time>2012-09-15T06:38:54Z</time>
      </trkpt>
      <trkpt lat="44.54742" lon="2.67394">
        <ele>487</ele>
        <time>2012-09-15T06:39:33Z</time>
      </trkpt>
      <trkpt lat="44.54736" lon="2.67399">
        <ele>489</ele>
        <time>2012-09-15T06:39:43Z</time>
      </trkpt>
      <trkpt lat="44.54724" lon="2.67402">
        <ele>485</ele>
        <time>2012-09-15T06:39:57Z</time>
      </trkpt>
      <trkpt lat="44.54715" lon="2.67401">
        <ele>492</ele>
        <time>2012-09-15T06:40:09Z</time>
      </trkpt>
      <trkpt lat="44.54706" lon="2.67404">
        <ele>495</ele>
        <time>2012-09-15T06:42:03Z</time>
      </trkpt>
      <trkpt lat="44.54707" lon="2.67397">
        <ele>509</ele>
        <time>2012-09-15T06:43:10Z</time>
      </trkpt>
      <trkpt lat="44.5471" lon="2.67395">
        <ele>505</ele>
        <time>2012-09-15T06:44:37Z</time>
      </trkpt>
      <trkpt lat="44.54713" lon="2.67396">
        <ele>502</ele>
        <time>2012-09-15T06:45:03Z</time>
      </trkpt>
      <trkpt lat="44.5471" lon="2.67396">
        <ele>496</ele>
        <time>2012-09-15T06:45:38Z</time>
      </trkpt>
      <trkpt lat="44.54703" lon="2.67392">
        <ele>500</ele>
        <time>2012-09-15T06:45:48Z</time>
      </trkpt>
      <trkpt lat="44.54693" lon="2.67388">
        <ele>497</ele>
        <time>2012-09-15T06:46:05Z</time>
      </trkpt>
      <trkpt lat="44.54678" lon="2.67387">
        <ele>494</ele>
        <time>2012-09-15T06:46:17Z</time>
      </trkpt>
      <trkpt lat="44.54668" lon="2.67386">
        <ele>500</ele>
        <time>2012-09-15T06:46:30Z</time>
      </trkpt>
      <trkpt lat="44.54655" lon="2.67387">
        <ele>502</ele>
        <time>2012-09-15T06:46:41Z</time>
      </trkpt>
      <trkpt lat="44.54644" lon="2.67385">
        <ele>499</ele>
        <time>2012-09-15T06:46:52Z</time>
      </trkpt>
      <trkpt lat="44.54632" lon="2.67383">
        <ele>505</ele>
        <time>2012-09-15T06:47:06Z</time>
      </trkpt>
      <trkpt lat="44.5462" lon="2.67379">
        <ele>507</ele>
        <time>2012-09-15T06:47:20Z</time>
      </trkpt>
      <trkpt lat="44.54608" lon="2.67376">
        <ele>517</ele>
        <time>2012-09-15T06:47:31Z</time>
      </trkpt>
      <trkpt lat="44.54601" lon="2.67377">
        <ele>516</ele>
        <time>2012-09-15T06:47:45Z</time>
      </trkpt>
      <trkpt lat="44.54608" lon="2.67387">
        <ele>509</ele>
        <time>2012-09-15T06:47:55Z</time>
      </trkpt>
      <trkpt lat="44.54618" lon="2.67396">
        <ele>512</ele>
        <time>2012-09-15T06:48:07Z</time>
      </trkpt>
      <trkpt lat="44.54623" lon="2.67411">
        <ele>512</ele>
        <time>2012-09-15T06:48:20Z</time>
      </trkpt>
      <trkpt lat="44.54618" lon="2.67421">
        <ele>509</ele>
        <time>2012-09-15T06:48:30Z</time>
      </trkpt>
      <trkpt lat="44.54608" lon="2.6741">
        <ele>515</ele>
        <time>2012-09-15T06:48:41Z</time>
      </trkpt>
      <trkpt lat="44.54599" lon="2.67397">
        <ele>516</ele>
        <time>2012-09-15T06:49:19Z</time>
      </trkpt>
      <trkpt lat="44.54588" lon="2.67387">
        <ele>517</ele>
        <time>2012-09-15T06:49:32Z</time>
      </trkpt>
      <trkpt lat="44.54578" lon="2.67375">
        <ele>517</ele>
        <time>2012-09-15T06:49:44Z</time>
      </trkpt>
      <trkpt lat="44.54572" lon="2.67364">
        <ele>512</ele>
        <time>2012-09-15T06:50:10Z</time>
      </trkpt>
      <trkpt lat="44.54562" lon="2.67351">
        <ele>512</ele>
        <time>2012-09-15T06:50:21Z</time>
      </trkpt>
      <trkpt lat="44.54554" lon="2.67336">
        <ele>513</ele>
        <time>2012-09-15T06:50:34Z</time>
      </trkpt>
      <trkpt lat="44.54546" lon="2.67322">
        <ele>514</ele>
        <time>2012-09-15T06:50:45Z</time>
      </trkpt>
      <trkpt lat="44.54538" lon="2.67307">
        <ele>518</ele>
        <time>2012-09-15T06:50:57Z</time>
      </trkpt>
      <trkpt lat="44.5453" lon="2.67291">
        <ele>518</ele>
        <time>2012-09-15T06:51:09Z</time>
      </trkpt>
      <trkpt lat="44.54521" lon="2.67277">
        <ele>520</ele>
        <time>2012-09-15T06:51:22Z</time>
      </trkpt>
      <trkpt lat="44.54514" lon="2.67262">
        <ele>520</ele>
        <time>2012-09-15T06:51:33Z</time>
      </trkpt>
      <trkpt lat="44.54506" lon="2.67248">
        <ele>521</ele>
        <time>2012-09-15T06:51:45Z</time>
      </trkpt>
      <trkpt lat="44.545" lon="2.67233">
        <ele>520</ele>
        <time>2012-09-15T06:51:58Z</time>
      </trkpt>
      <trkpt lat="44.54491" lon="2.67218">
        <ele>521</ele>
        <time>2012-09-15T06:52:09Z</time>
      </trkpt>
      <trkpt lat="44.54483" lon="2.67201">
        <ele>528</ele>
        <time>2012-09-15T06:52:22Z</time>
      </trkpt>
      <trkpt lat="44.54477" lon="2.67185">
        <ele>524</ele>
        <time>2012-09-15T06:52:34Z</time>
      </trkpt>
      <trkpt lat="44.5447" lon="2.67169">
        <ele>528</ele>
        <time>2012-09-15T06:52:46Z</time>
      </trkpt>
      <trkpt lat="44.54463" lon="2.67152">
        <ele>523</ele>
        <time>2012-09-15T06:52:58Z</time>
      </trkpt>
      <trkpt lat="44.54465" lon="2.67155">
        <ele>521</ele>
        <time>2012-09-15T06:54:54Z</time>
      </trkpt>
      <trkpt lat="44.54461" lon="2.67154">
        <ele>516</ele>
        <time>2012-09-15T06:55:16Z</time>
      </trkpt>
      <trkpt lat="44.54455" lon="2.67139">
        <ele>517</ele>
        <time>2012-09-15T06:55:27Z</time>
      </trkpt>
      <trkpt lat="44.54445" lon="2.6712">
        <ele>520</ele>
        <time>2012-09-15T06:55:38Z</time>
      </trkpt>
      <trkpt lat="44.54436" lon="2.67105">
        <ele>520</ele>
        <time>2012-09-15T06:55:49Z</time>
      </trkpt>
      <trkpt lat="44.54425" lon="2.67092">
        <ele>522</ele>
        <time>2012-09-15T06:56:01Z</time>
      </trkpt>
      <trkpt lat="44.54412" lon="2.67075">
        <ele>524</ele>
        <time>2012-09-15T06:56:13Z</time>
      </trkpt>
      <trkpt lat="44.54404" lon="2.67061">
        <ele>524</ele>
        <time>2012-09-15T06:56:24Z</time>
      </trkpt>
      <trkpt lat="44.54392" lon="2.67047">
        <ele>521</ele>
        <time>2012-09-15T06:56:36Z</time>
      </trkpt>
      <trkpt lat="44.54383" lon="2.67029">
        <ele>532</ele>
        <time>2012-09-15T06:57:09Z</time>
      </trkpt>
      <trkpt lat="44.54378" lon="2.67017">
        <ele>525</ele>
        <time>2012-09-15T06:57:20Z</time>
      </trkpt>
      <trkpt lat="44.54377" lon="2.66999">
        <ele>525</ele>
        <time>2012-09-15T06:57:32Z</time>
      </trkpt>
      <trkpt lat="44.54377" lon="2.6698">
        <ele>531</ele>
        <time>2012-09-15T06:57:45Z</time>
      </trkpt>
      <trkpt lat="44.5438" lon="2.66963">
        <ele>538</ele>
        <time>2012-09-15T06:57:58Z</time>
      </trkpt>
      <trkpt lat="44.54382" lon="2.66955">
        <ele>530</ele>
        <time>2012-09-15T06:58:17Z</time>
      </trkpt>
      <trkpt lat="44.54381" lon="2.66936">
        <ele>532</ele>
        <time>2012-09-15T06:58:31Z</time>
      </trkpt>
      <trkpt lat="44.54382" lon="2.66921">
        <ele>536</ele>
        <time>2012-09-15T06:58:42Z</time>
      </trkpt>
      <trkpt lat="44.54381" lon="2.66907">
        <ele>539</ele>
        <time>2012-09-15T06:59:00Z</time>
      </trkpt>
      <trkpt lat="44.54375" lon="2.6689">
        <ele>531</ele>
        <time>2012-09-15T06:59:12Z</time>
      </trkpt>
      <trkpt lat="44.54373" lon="2.66875">
        <ele>536</ele>
        <time>2012-09-15T06:59:23Z</time>
      </trkpt>
      <trkpt lat="44.54371" lon="2.66862">
        <ele>541</ele>
        <time>2012-09-15T06:59:34Z</time>
      </trkpt>
      <trkpt lat="44.54366" lon="2.6685">
        <ele>545</ele>
        <time>2012-09-15T06:59:44Z</time>
      </trkpt>
      <trkpt lat="44.54359" lon="2.66839">
        <ele>536</ele>
        <time>2012-09-15T06:59:55Z</time>
      </trkpt>
      <trkpt lat="44.5435" lon="2.66835">
        <ele>537</ele>
        <time>2012-09-15T07:00:11Z</time>
      </trkpt>
      <trkpt lat="44.54341" lon="2.66831">
        <ele>535</ele>
        <time>2012-09-15T07:00:21Z</time>
      </trkpt>
      <trkpt lat="44.54329" lon="2.66822">
        <ele>534</ele>
        <time>2012-09-15T07:00:32Z</time>
      </trkpt>
      <trkpt lat="44.54319" lon="2.66808">
        <ele>536</ele>
        <time>2012-09-15T07:00:44Z</time>
      </trkpt>
      <trkpt lat="44.54307" lon="2.66796">
        <ele>540</ele>
        <time>2012-09-15T07:00:56Z</time>
      </trkpt>
      <trkpt lat="44.54297" lon="2.66785">
        <ele>538</ele>
        <time>2012-09-15T07:01:09Z</time>
      </trkpt>
      <trkpt lat="44.54284" lon="2.66779">
        <ele>547</ele>
        <time>2012-09-15T07:01:20Z</time>
      </trkpt>
      <trkpt lat="44.54273" lon="2.66771">
        <ele>540</ele>
        <time>2012-09-15T07:01:32Z</time>
      </trkpt>
      <trkpt lat="44.54267" lon="2.66763">
        <ele>538</ele>
        <time>2012-09-15T07:01:42Z</time>
      </trkpt>
      <trkpt lat="44.54261" lon="2.66745">
        <ele>539</ele>
        <time>2012-09-15T07:01:56Z</time>
      </trkpt>
      <trkpt lat="44.54257" lon="2.66728">
        <ele>551</ele>
        <time>2012-09-15T07:02:08Z</time>
      </trkpt>
      <trkpt lat="44.54251" lon="2.66719">
        <ele>549</ele>
        <time>2012-09-15T07:02:21Z</time>
      </trkpt>
      <trkpt lat="44.54251" lon="2.66705">
        <ele>550</ele>
        <time>2012-09-15T07:02:32Z</time>
      </trkpt>
      <trkpt lat="44.5425" lon="2.66693">
        <ele>552</ele>
        <time>2012-09-15T07:02:42Z</time>
      </trkpt>
      <trkpt lat="44.54252" lon="2.66676">
        <ele>553</ele>
        <time>2012-09-15T07:02:54Z</time>
      </trkpt>
      <trkpt lat="44.54252" lon="2.66659">
        <ele>561</ele>
        <time>2012-09-15T07:03:06Z</time>
      </trkpt>
      <trkpt lat="44.54249" lon="2.66645">
        <ele>564</ele>
        <time>2012-09-15T07:03:18Z</time>
      </trkpt>
      <trkpt lat="44.54246" lon="2.66631">
        <ele>558</ele>
        <time>2012-09-15T07:03:29Z</time>
      </trkpt>
      <trkpt lat="44.54241" lon="2.66619">
        <ele>557</ele>
        <time>2012-09-15T07:03:41Z</time>
      </trkpt>
      <trkpt lat="44.54237" lon="2.66605">
        <ele>562</ele>
        <time>2012-09-15T07:03:52Z</time>
      </trkpt>
      <trkpt lat="44.54235" lon="2.66591">
        <ele>570</ele>
        <time>2012-09-15T07:04:02Z</time>
      </trkpt>
      <trkpt lat="44.54234" lon="2.66578">
        <ele>564</ele>
        <time>2012-09-15T07:04:13Z</time>
      </trkpt>
      <trkpt lat="44.5423" lon="2.66566">
        <ele>562</ele>
        <time>2012-09-15T07:04:24Z</time>
      </trkpt>
      <trkpt lat="44.54234" lon="2.66549">
        <ele>574</ele>
        <time>2012-09-15T07:04:37Z</time>
      </trkpt>
      <trkpt lat="44.54233" lon="2.66531">
        <ele>563</ele>
        <time>2012-09-15T07:04:48Z</time>
      </trkpt>
      <trkpt lat="44.54231" lon="2.66518">
        <ele>570</ele>
        <time>2012-09-15T07:04:59Z</time>
      </trkpt>
      <trkpt lat="44.54229" lon="2.66506">
        <ele>571</ele>
        <time>2012-09-15T07:05:10Z</time>
      </trkpt>
      <trkpt lat="44.54225" lon="2.66489">
        <ele>567</ele>
        <time>2012-09-15T07:05:23Z</time>
      </trkpt>
      <trkpt lat="44.54224" lon="2.66471">
        <ele>575</ele>
        <time>2012-09-15T07:05:33Z</time>
      </trkpt>
      <trkpt lat="44.54221" lon="2.66452">
        <ele>578</ele>
        <time>2012-09-15T07:05:45Z</time>
      </trkpt>
      <trkpt lat="44.54214" lon="2.66439">
        <ele>574</ele>
        <time>2012-09-15T07:05:59Z</time>
      </trkpt>
      <trkpt lat="44.54208" lon="2.66422">
        <ele>576</ele>
        <time>2012-09-15T07:06:10Z</time>
      </trkpt>
      <trkpt lat="44.54204" lon="2.66408">
        <ele>577</ele>
        <time>2012-09-15T07:06:20Z</time>
      </trkpt>
      <trkpt lat="44.54195" lon="2.66398">
        <ele>580</ele>
        <time>2012-09-15T07:06:32Z</time>
      </trkpt>
      <trkpt lat="44.54186" lon="2.66377">
        <ele>581</ele>
        <time>2012-09-15T07:06:43Z</time>
      </trkpt>
      <trkpt lat="44.54176" lon="2.66369">
        <ele>577</ele>
        <time>2012-09-15T07:06:55Z</time>
      </trkpt>
      <trkpt lat="44.54165" lon="2.66356">
        <ele>581</ele>
        <time>2012-09-15T07:07:07Z</time>
      </trkpt>
      <trkpt lat="44.54154" lon="2.66344">
        <ele>579</ele>
        <time>2012-09-15T07:07:18Z</time>
      </trkpt>
      <trkpt lat="44.54143" lon="2.66335">
        <ele>579</ele>
        <time>2012-09-15T07:07:30Z</time>
      </trkpt>
      <trkpt lat="44.54132" lon="2.66322">
        <ele>589</ele>
        <time>2012-09-15T07:07:42Z</time>
      </trkpt>
      <trkpt lat="44.54124" lon="2.66311">
        <ele>579</ele>
        <time>2012-09-15T07:07:54Z</time>
      </trkpt>
      <trkpt lat="44.54116" lon="2.66294">
        <ele>577</ele>
        <time>2012-09-15T07:08:06Z</time>
      </trkpt>
      <trkpt lat="44.54109" lon="2.6628">
        <ele>574</ele>
        <time>2012-09-15T07:08:17Z</time>
      </trkpt>
      <trkpt lat="44.54101" lon="2.66263">
        <ele>579</ele>
        <time>2012-09-15T07:08:30Z</time>
      </trkpt>
      <trkpt lat="44.54094" lon="2.66249">
        <ele>580</ele>
        <time>2012-09-15T07:08:42Z</time>
      </trkpt>
      <trkpt lat="44.54084" lon="2.66238">
        <ele>586</ele>
        <time>2012-09-15T07:08:54Z</time>
      </trkpt>
      <trkpt lat="44.54077" lon="2.66227">
        <ele>581</ele>
        <time>2012-09-15T07:09:04Z</time>
      </trkpt>
      <trkpt lat="44.54074" lon="2.66205">
        <ele>581</ele>
        <time>2012-09-15T07:09:17Z</time>
      </trkpt>
      <trkpt lat="44.5407" lon="2.66199">
        <ele>584</ele>
        <time>2012-09-15T07:09:45Z</time>
      </trkpt>
      <trkpt lat="44.54071" lon="2.66194">
        <ele>585</ele>
        <time>2012-09-15T07:09:59Z</time>
      </trkpt>
      <trkpt lat="44.54074" lon="2.6619">
        <ele>599</ele>
        <time>2012-09-15T07:10:59Z</time>
      </trkpt>
      <trkpt lat="44.5407" lon="2.66174">
        <ele>586</ele>
        <time>2012-09-15T07:11:12Z</time>
      </trkpt>
      <trkpt lat="44.54066" lon="2.66157">
        <ele>585</ele>
        <time>2012-09-15T07:11:26Z</time>
      </trkpt>
      <trkpt lat="44.54061" lon="2.66141">
        <ele>580</ele>
        <time>2012-09-15T07:11:39Z</time>
      </trkpt>
      <trkpt lat="44.54058" lon="2.6612">
        <ele>578</ele>
        <time>2012-09-15T07:11:51Z</time>
      </trkpt>
      <trkpt lat="44.54048" lon="2.66115">
        <ele>582</ele>
        <time>2012-09-15T07:12:01Z</time>
      </trkpt>
      <trkpt lat="44.54035" lon="2.66108">
        <ele>584</ele>
        <time>2012-09-15T07:12:12Z</time>
      </trkpt>
      <trkpt lat="44.54023" lon="2.66101">
        <ele>585</ele>
        <time>2012-09-15T07:12:24Z</time>
      </trkpt>
      <trkpt lat="44.54014" lon="2.66098">
        <ele>585</ele>
        <time>2012-09-15T07:12:34Z</time>
      </trkpt>
      <trkpt lat="44.54002" lon="2.6609">
        <ele>585</ele>
        <time>2012-09-15T07:12:46Z</time>
      </trkpt>
      <trkpt lat="44.53991" lon="2.66081">
        <ele>577</ele>
        <time>2012-09-15T07:12:58Z</time>
      </trkpt>
      <trkpt lat="44.5398" lon="2.66069">
        <ele>586</ele>
        <time>2012-09-15T07:13:09Z</time>
      </trkpt>
      <trkpt lat="44.53973" lon="2.66053">
        <ele>586</ele>
        <time>2012-09-15T07:13:19Z</time>
      </trkpt>
      <trkpt lat="44.53966" lon="2.66036">
        <ele>594</ele>
        <time>2012-09-15T07:13:31Z</time>
      </trkpt>
      <trkpt lat="44.53959" lon="2.66023">
        <ele>591</ele>
        <time>2012-09-15T07:13:42Z</time>
      </trkpt>
      <trkpt lat="44.53949" lon="2.66011">
        <ele>592</ele>
        <time>2012-09-15T07:13:54Z</time>
      </trkpt>
      <trkpt lat="44.53941" lon="2.66005">
        <ele>593</ele>
        <time>2012-09-15T07:14:05Z</time>
      </trkpt>
      <trkpt lat="44.53928" lon="2.65999">
        <ele>587</ele>
        <time>2012-09-15T07:14:16Z</time>
      </trkpt>
      <trkpt lat="44.53919" lon="2.65986">
        <ele>589</ele>
        <time>2012-09-15T07:14:27Z</time>
      </trkpt>
      <trkpt lat="44.53911" lon="2.6597">
        <ele>592</ele>
        <time>2012-09-15T07:14:38Z</time>
      </trkpt>
      <trkpt lat="44.53903" lon="2.65955">
        <ele>590</ele>
        <time>2012-09-15T07:14:49Z</time>
      </trkpt>
      <trkpt lat="44.53895" lon="2.6594">
        <ele>591</ele>
        <time>2012-09-15T07:15:00Z</time>
      </trkpt>
      <trkpt lat="44.53886" lon="2.65925">
        <ele>598</ele>
        <time>2012-09-15T07:15:12Z</time>
      </trkpt>
      <trkpt lat="44.53879" lon="2.6591">
        <ele>596</ele>
        <time>2012-09-15T07:15:25Z</time>
      </trkpt>
      <trkpt lat="44.53873" lon="2.65899">
        <ele>595</ele>
        <time>2012-09-15T07:15:36Z</time>
      </trkpt>
      <trkpt lat="44.53873" lon="2.65878">
        <ele>598</ele>
        <time>2012-09-15T07:15:47Z</time>
      </trkpt>
      <trkpt lat="44.53873" lon="2.65856">
        <ele>599</ele>
        <time>2012-09-15T07:15:59Z</time>
      </trkpt>
      <trkpt lat="44.53879" lon="2.65835">
        <ele>600</ele>
        <time>2012-09-15T07:16:11Z</time>
      </trkpt>
      <trkpt lat="44.53886" lon="2.65819">
        <ele>596</ele>
        <time>2012-09-15T07:16:22Z</time>
      </trkpt>
      <trkpt lat="44.53891" lon="2.65804">
        <ele>604</ele>
        <time>2012-09-15T07:16:34Z</time>
      </trkpt>
      <trkpt lat="44.53896" lon="2.65782">
        <ele>600</ele>
        <time>2012-09-15T07:16:45Z</time>
      </trkpt>
      <trkpt lat="44.53898" lon="2.65763">
        <ele>591</ele>
        <time>2012-09-15T07:16:57Z</time>
      </trkpt>
      <trkpt lat="44.53899" lon="2.65747">
        <ele>599</ele>
        <time>2012-09-15T07:17:09Z</time>
      </trkpt>
      <trkpt lat="44.53904" lon="2.65733">
        <ele>596</ele>
        <time>2012-09-15T07:17:19Z</time>
      </trkpt>
      <trkpt lat="44.53909" lon="2.65716">
        <ele>599</ele>
        <time>2012-09-15T07:17:29Z</time>
      </trkpt>
      <trkpt lat="44.53914" lon="2.6569">
        <ele>593</ele>
        <time>2012-09-15T07:17:43Z</time>
      </trkpt>
      <trkpt lat="44.53916" lon="2.65672">
        <ele>603</ele>
        <time>2012-09-15T07:17:55Z</time>
      </trkpt>
      <trkpt lat="44.5392" lon="2.65654">
        <ele>598</ele>
        <time>2012-09-15T07:18:06Z</time>
      </trkpt>
      <trkpt lat="44.53923" lon="2.65637">
        <ele>591</ele>
        <time>2012-09-15T07:18:18Z</time>
      </trkpt>
      <trkpt lat="44.53928" lon="2.65621">
        <ele>601</ele>
        <time>2012-09-15T07:18:31Z</time>
      </trkpt>
      <trkpt lat="44.5393" lon="2.65604">
        <ele>598</ele>
        <time>2012-09-15T07:18:42Z</time>
      </trkpt>
      <trkpt lat="44.53935" lon="2.65586">
        <ele>599</ele>
        <time>2012-09-15T07:18:53Z</time>
      </trkpt>
      <trkpt lat="44.53936" lon="2.65567">
        <ele>604</ele>
        <time>2012-09-15T07:19:04Z</time>
      </trkpt>
      <trkpt lat="44.53939" lon="2.65543">
        <ele>607</ele>
        <time>2012-09-15T07:19:17Z</time>
      </trkpt>
      <trkpt lat="44.53935" lon="2.65525">
        <ele>606</ele>
        <time>2012-09-15T07:19:29Z</time>
      </trkpt>
      <trkpt lat="44.53935" lon="2.65507">
        <ele>610</ele>
        <time>2012-09-15T07:19:42Z</time>
      </trkpt>
      <trkpt lat="44.53935" lon="2.65494">
        <ele>611</ele>
        <time>2012-09-15T07:19:53Z</time>
      </trkpt>
      <trkpt lat="44.53941" lon="2.65473">
        <ele>607</ele>
        <time>2012-09-15T07:20:05Z</time>
      </trkpt>
      <trkpt lat="44.53946" lon="2.65457">
        <ele>608</ele>
        <time>2012-09-15T07:20:16Z</time>
      </trkpt>
      <trkpt lat="44.53949" lon="2.6544">
        <ele>617</ele>
        <time>2012-09-15T07:20:29Z</time>
      </trkpt>
      <trkpt lat="44.53949" lon="2.65427">
        <ele>613</ele>
        <time>2012-09-15T07:20:40Z</time>
      </trkpt>
      <trkpt lat="44.5395" lon="2.65408">
        <ele>606</ele>
        <time>2012-09-15T07:20:51Z</time>
      </trkpt>
      <trkpt lat="44.53947" lon="2.65387">
        <ele>611</ele>
        <time>2012-09-15T07:21:03Z</time>
      </trkpt>
      <trkpt lat="44.53941" lon="2.65371">
        <ele>609</ele>
        <time>2012-09-15T07:21:14Z</time>
      </trkpt>
      <trkpt lat="44.53938" lon="2.65353">
        <ele>616</ele>
        <time>2012-09-15T07:21:26Z</time>
      </trkpt>
      <trkpt lat="44.53934" lon="2.65339">
        <ele>610</ele>
        <time>2012-09-15T07:21:36Z</time>
      </trkpt>
      <trkpt lat="44.53931" lon="2.65319">
        <ele>608</ele>
        <time>2012-09-15T07:21:48Z</time>
      </trkpt>
      <trkpt lat="44.53927" lon="2.65299">
        <ele>614</ele>
        <time>2012-09-15T07:22:09Z</time>
      </trkpt>
      <trkpt lat="44.53919" lon="2.65282">
        <ele>604</ele>
        <time>2012-09-15T07:22:21Z</time>
      </trkpt>
      <trkpt lat="44.53915" lon="2.65264">
        <ele>610</ele>
        <time>2012-09-15T07:22:33Z</time>
      </trkpt>
      <trkpt lat="44.53909" lon="2.65246">
        <ele>616</ele>
        <time>2012-09-15T07:22:44Z</time>
      </trkpt>
      <trkpt lat="44.53902" lon="2.65231">
        <ele>609</ele>
        <time>2012-09-15T07:22:56Z</time>
      </trkpt>
      <trkpt lat="44.53895" lon="2.65212">
        <ele>611</ele>
        <time>2012-09-15T07:23:08Z</time>
      </trkpt>
      <trkpt lat="44.5389" lon="2.65196">
        <ele>611</ele>
        <time>2012-09-15T07:23:18Z</time>
      </trkpt>
      <trkpt lat="44.53887" lon="2.65174">
        <ele>601</ele>
        <time>2012-09-15T07:23:31Z</time>
      </trkpt>
      <trkpt lat="44.53882" lon="2.65151">
        <ele>603</ele>
        <time>2012-09-15T07:23:43Z</time>
      </trkpt>
      <trkpt lat="44.53877" lon="2.65131">
        <ele>608</ele>
        <time>2012-09-15T07:23:55Z</time>
      </trkpt>
      <trkpt lat="44.53872" lon="2.65114">
        <ele>603</ele>
        <time>2012-09-15T07:24:06Z</time>
      </trkpt>
      <trkpt lat="44.53868" lon="2.65093">
        <ele>601</ele>
        <time>2012-09-15T07:24:17Z</time>
      </trkpt>
      <trkpt lat="44.53863" lon="2.65075">
        <ele>605</ele>
        <time>2012-09-15T07:24:28Z</time>
      </trkpt>
      <trkpt lat="44.53857" lon="2.65054">
        <ele>604</ele>
        <time>2012-09-15T07:24:40Z</time>
      </trkpt>
      <trkpt lat="44.53853" lon="2.65035">
        <ele>602</ele>
        <time>2012-09-15T07:24:52Z</time>
      </trkpt>
      <trkpt lat="44.5385" lon="2.65015">
        <ele>605</ele>
        <time>2012-09-15T07:25:03Z</time>
      </trkpt>
      <trkpt lat="44.53846" lon="2.64995">
        <ele>602</ele>
        <time>2012-09-15T07:25:15Z</time>
      </trkpt>
      <trkpt lat="44.53844" lon="2.64975">
        <ele>604</ele>
        <time>2012-09-15T07:25:27Z</time>
      </trkpt>
      <trkpt lat="44.53843" lon="2.64956">
        <ele>596</ele>
        <time>2012-09-15T07:25:37Z</time>
      </trkpt>
      <trkpt lat="44.53848" lon="2.64939">
        <ele>603</ele>
        <time>2012-09-15T07:25:48Z</time>
      </trkpt>
      <trkpt lat="44.53852" lon="2.64921">
        <ele>600</ele>
        <time>2012-09-15T07:25:58Z</time>
      </trkpt>
      <trkpt lat="44.53855" lon="2.64903">
        <ele>603</ele>
        <time>2012-09-15T07:26:10Z</time>
      </trkpt>
      <trkpt lat="44.53854" lon="2.64884">
        <ele>604</ele>
        <time>2012-09-15T07:26:21Z</time>
      </trkpt>
      <trkpt lat="44.53852" lon="2.64866">
        <ele>599</ele>
        <time>2012-09-15T07:26:31Z</time>
      </trkpt>
      <trkpt lat="44.53845" lon="2.6485">
        <ele>600</ele>
        <time>2012-09-15T07:26:42Z</time>
      </trkpt>
      <trkpt lat="44.53846" lon="2.6483">
        <ele>601</ele>
        <time>2012-09-15T07:26:52Z</time>
      </trkpt>
      <trkpt lat="44.53854" lon="2.64816">
        <ele>600</ele>
        <time>2012-09-15T07:27:03Z</time>
      </trkpt>
      <trkpt lat="44.53857" lon="2.648">
        <ele>599</ele>
        <time>2012-09-15T07:27:15Z</time>
      </trkpt>
      <trkpt lat="44.53866" lon="2.64787">
        <ele>603</ele>
        <time>2012-09-15T07:27:26Z</time>
      </trkpt>
      <trkpt lat="44.53878" lon="2.64772">
        <ele>596</ele>
        <time>2012-09-15T07:27:38Z</time>
      </trkpt>
      <trkpt lat="44.53888" lon="2.6476">
        <ele>596</ele>
        <time>2012-09-15T07:27:48Z</time>
      </trkpt>
      <trkpt lat="44.53899" lon="2.64752">
        <ele>594</ele>
        <time>2012-09-15T07:27:59Z</time>
      </trkpt>
      <trkpt lat="44.53911" lon="2.64742">
        <ele>599</ele>
        <time>2012-09-15T07:28:10Z</time>
      </trkpt>
      <trkpt lat="44.5392" lon="2.64728">
        <ele>596</ele>
        <time>2012-09-15T07:28:20Z</time>
      </trkpt>
      <trkpt lat="44.53926" lon="2.64712">
        <ele>596</ele>
        <time>2012-09-15T07:28:32Z</time>
      </trkpt>
      <trkpt lat="44.53934" lon="2.647">
        <ele>594</ele>
        <time>2012-09-15T07:28:42Z</time>
      </trkpt>
      <trkpt lat="44.53949" lon="2.64692">
        <ele>596</ele>
        <time>2012-09-15T07:28:55Z</time>
      </trkpt>
      <trkpt lat="44.5396" lon="2.64684">
        <ele>593</ele>
        <time>2012-09-15T07:29:08Z</time>
      </trkpt>
      <trkpt lat="44.53979" lon="2.6468">
        <ele>589</ele>
        <time>2012-09-15T07:29:19Z</time>
      </trkpt>
      <trkpt lat="44.53997" lon="2.6468">
        <ele>593</ele>
        <time>2012-09-15T07:29:30Z</time>
      </trkpt>
      <trkpt lat="44.54014" lon="2.64678">
        <ele>590</ele>
        <time>2012-09-15T07:29:41Z</time>
      </trkpt>
      <trkpt lat="44.54017" lon="2.6468">
        <ele>587</ele>
        <time>2012-09-15T07:29:59Z</time>
      </trkpt>
      <trkpt lat="44.5402" lon="2.64686">
        <ele>594</ele>
        <time>2012-09-15T07:30:19Z</time>
      </trkpt>
      <trkpt lat="44.54021" lon="2.64683">
        <ele>591</ele>
        <time>2012-09-15T07:30:40Z</time>
      </trkpt>
      <trkpt lat="44.54033" lon="2.64678">
        <ele>588</ele>
        <time>2012-09-15T07:30:52Z</time>
      </trkpt>
      <trkpt lat="44.54044" lon="2.64668">
        <ele>585</ele>
        <time>2012-09-15T07:31:03Z</time>
      </trkpt>
      <trkpt lat="44.54055" lon="2.64654">
        <ele>588</ele>
        <time>2012-09-15T07:31:15Z</time>
      </trkpt>
      <trkpt lat="44.54063" lon="2.64645">
        <ele>589</ele>
        <time>2012-09-15T07:31:26Z</time>
      </trkpt>
      <trkpt lat="44.54068" lon="2.64642">
        <ele>594</ele>
        <time>2012-09-15T07:31:39Z</time>
      </trkpt>
      <trkpt lat="44.5408" lon="2.64633">
        <ele>589</ele>
        <time>2012-09-15T07:31:50Z</time>
      </trkpt>
      <trkpt lat="44.54091" lon="2.64625">
        <ele>590</ele>
        <time>2012-09-15T07:32:02Z</time>
      </trkpt>
      <trkpt lat="44.54099" lon="2.64607">
        <ele>589</ele>
        <time>2012-09-15T07:32:14Z</time>
      </trkpt>
      <trkpt lat="44.54105" lon="2.64587">
        <ele>588</ele>
        <time>2012-09-15T07:32:25Z</time>
      </trkpt>
      <trkpt lat="44.5411" lon="2.64567">
        <ele>589</ele>
        <time>2012-09-15T07:32:37Z</time>
      </trkpt>
      <trkpt lat="44.54115" lon="2.64548">
        <ele>583</ele>
        <time>2012-09-15T07:32:49Z</time>
      </trkpt>
      <trkpt lat="44.5412" lon="2.64531">
        <ele>584</ele>
        <time>2012-09-15T07:33:01Z</time>
      </trkpt>
      <trkpt lat="44.54128" lon="2.64511">
        <ele>578</ele>
        <time>2012-09-15T07:33:13Z</time>
      </trkpt>
      <trkpt lat="44.5413" lon="2.64491">
        <ele>594</ele>
        <time>2012-09-15T07:33:26Z</time>
      </trkpt>
      <trkpt lat="44.54121" lon="2.64476">
        <ele>583</ele>
        <time>2012-09-15T07:33:36Z</time>
      </trkpt>
      <trkpt lat="44.54106" lon="2.64464">
        <ele>581</ele>
        <time>2012-09-15T07:33:48Z</time>
      </trkpt>
      <trkpt lat="44.54094" lon="2.64445">
        <ele>585</ele>
        <time>2012-09-15T07:34:00Z</time>
      </trkpt>
      <trkpt lat="44.54093" lon="2.64435">
        <ele>589</ele>
        <time>2012-09-15T07:34:10Z</time>
      </trkpt>
      <trkpt lat="44.54092" lon="2.64417">
        <ele>587</ele>
        <time>2012-09-15T07:34:21Z</time>
      </trkpt>
      <trkpt lat="44.54091" lon="2.64398">
        <ele>589</ele>
        <time>2012-09-15T07:34:33Z</time>
      </trkpt>
      <trkpt lat="44.54086" lon="2.64373">
        <ele>582</ele>
        <time>2012-09-15T07:34:44Z</time>
      </trkpt>
      <trkpt lat="44.54094" lon="2.64351">
        <ele>574</ele>
        <time>2012-09-15T07:34:58Z</time>
      </trkpt>
      <trkpt lat="44.54108" lon="2.6434">
        <ele>576</ele>
        <time>2012-09-15T07:35:09Z</time>
      </trkpt>
      <trkpt lat="44.5412" lon="2.64334">
        <ele>573</ele>
        <time>2012-09-15T07:35:19Z</time>
      </trkpt>
      <trkpt lat="44.54135" lon="2.64332">
        <ele>576</ele>
        <time>2012-09-15T07:35:30Z</time>
      </trkpt>
      <trkpt lat="44.54145" lon="2.64325">
        <ele>574</ele>
        <time>2012-09-15T07:35:41Z</time>
      </trkpt>
      <trkpt lat="44.54157" lon="2.64307">
        <ele>573</ele>
        <time>2012-09-15T07:35:52Z</time>
      </trkpt>
      <trkpt lat="44.54165" lon="2.64292">
        <ele>574</ele>
        <time>2012-09-15T07:36:04Z</time>
      </trkpt>
      <trkpt lat="44.54172" lon="2.64275">
        <ele>571</ele>
        <time>2012-09-15T07:36:15Z</time>
      </trkpt>
      <trkpt lat="44.54179" lon="2.64258">
        <ele>571</ele>
        <time>2012-09-15T07:36:28Z</time>
      </trkpt>
      <trkpt lat="44.54185" lon="2.64241">
        <ele>578</ele>
        <time>2012-09-15T07:36:40Z</time>
      </trkpt>
      <trkpt lat="44.54194" lon="2.64224">
        <ele>570</ele>
        <time>2012-09-15T07:36:51Z</time>
      </trkpt>
      <trkpt lat="44.54198" lon="2.64207">
        <ele>570</ele>
        <time>2012-09-15T07:37:02Z</time>
      </trkpt>
      <trkpt lat="44.54207" lon="2.64191">
        <ele>564</ele>
        <time>2012-09-15T07:37:13Z</time>
      </trkpt>
      <trkpt lat="44.54217" lon="2.64174">
        <ele>571</ele>
        <time>2012-09-15T07:37:25Z</time>
      </trkpt>
      <trkpt lat="44.54225" lon="2.6416">
        <ele>572</ele>
        <time>2012-09-15T07:37:37Z</time>
      </trkpt>
      <trkpt lat="44.54232" lon="2.64146">
        <ele>578</ele>
        <time>2012-09-15T07:37:49Z</time>
      </trkpt>
      <trkpt lat="44.54235" lon="2.6413">
        <ele>576</ele>
        <time>2012-09-15T07:38:00Z</time>
      </trkpt>
      <trkpt lat="44.54237" lon="2.64122">
        <ele>573</ele>
        <time>2012-09-15T07:38:11Z</time>
      </trkpt>
      <trkpt lat="44.54235" lon="2.641">
        <ele>579</ele>
        <time>2012-09-15T07:38:22Z</time>
      </trkpt>
      <trkpt lat="44.54236" lon="2.64081">
        <ele>575</ele>
        <time>2012-09-15T07:38:33Z</time>
      </trkpt>
      <trkpt lat="44.54239" lon="2.64063">
        <ele>576</ele>
        <time>2012-09-15T07:38:45Z</time>
      </trkpt>
      <trkpt lat="44.54243" lon="2.64051">
        <ele>574</ele>
        <time>2012-09-15T07:38:55Z</time>
      </trkpt>
      <trkpt lat="44.5425" lon="2.64035">
        <ele>578</ele>
        <time>2012-09-15T07:39:06Z</time>
      </trkpt>
      <trkpt lat="44.54258" lon="2.64021">
        <ele>575</ele>
        <time>2012-09-15T07:39:18Z</time>
      </trkpt>
      <trkpt lat="44.54266" lon="2.64006">
        <ele>578</ele>
        <time>2012-09-15T07:39:29Z</time>
      </trkpt>
      <trkpt lat="44.54274" lon="2.6399">
        <ele>579</ele>
        <time>2012-09-15T07:39:41Z</time>
      </trkpt>
      <trkpt lat="44.54281" lon="2.63974">
        <ele>584</ele>
        <time>2012-09-15T07:39:53Z</time>
      </trkpt>
      <trkpt lat="44.5429" lon="2.63957">
        <ele>581</ele>
        <time>2012-09-15T07:40:05Z</time>
      </trkpt>
      <trkpt lat="44.543" lon="2.63943">
        <ele>582</ele>
        <time>2012-09-15T07:40:16Z</time>
      </trkpt>
      <trkpt lat="44.54313" lon="2.6393">
        <ele>581</ele>
        <time>2012-09-15T07:40:28Z</time>
      </trkpt>
      <trkpt lat="44.54324" lon="2.63924">
        <ele>580</ele>
        <time>2012-09-15T07:40:38Z</time>
      </trkpt>
      <trkpt lat="44.54336" lon="2.63913">
        <ele>580</ele>
        <time>2012-09-15T07:40:50Z</time>
      </trkpt>
      <trkpt lat="44.54346" lon="2.63903">
        <ele>584</ele>
        <time>2012-09-15T07:41:01Z</time>
      </trkpt>
      <trkpt lat="44.54352" lon="2.63888">
        <ele>584</ele>
        <time>2012-09-15T07:41:12Z</time>
      </trkpt>
      <trkpt lat="44.54357" lon="2.6387">
        <ele>585</ele>
        <time>2012-09-15T07:41:23Z</time>
      </trkpt>
      <trkpt lat="44.54357" lon="2.63856">
        <ele>586</ele>
        <time>2012-09-15T07:41:33Z</time>
      </trkpt>
      <trkpt lat="44.54356" lon="2.63838">
        <ele>587</ele>
        <time>2012-09-15T07:41:43Z</time>
      </trkpt>
      <trkpt lat="44.54357" lon="2.63821">
        <ele>592</ele>
        <time>2012-09-15T07:41:55Z</time>
      </trkpt>
      <trkpt lat="44.54361" lon="2.63804">
        <ele>592</ele>
        <time>2012-09-15T07:42:07Z</time>
      </trkpt>
      <trkpt lat="44.5437" lon="2.63791">
        <ele>596</ele>
        <time>2012-09-15T07:42:20Z</time>
      </trkpt>
      <trkpt lat="44.54381" lon="2.63781">
        <ele>592</ele>
        <time>2012-09-15T07:42:30Z</time>
      </trkpt>
      <trkpt lat="44.5439" lon="2.63773">
        <ele>597</ele>
        <time>2012-09-15T07:42:40Z</time>
      </trkpt>
      <trkpt lat="44.54403" lon="2.63766">
        <ele>594</ele>
        <time>2012-09-15T07:42:51Z</time>
      </trkpt>
      <trkpt lat="44.54416" lon="2.63762">
        <ele>595</ele>
        <time>2012-09-15T07:43:03Z</time>
      </trkpt>
      <trkpt lat="44.54429" lon="2.63766">
        <ele>596</ele>
        <time>2012-09-15T07:43:14Z</time>
      </trkpt>
      <trkpt lat="44.54437" lon="2.6377">
        <ele>596</ele>
        <time>2012-09-15T07:43:24Z</time>
      </trkpt>
      <trkpt lat="44.54449" lon="2.63761">
        <ele>593</ele>
        <time>2012-09-15T07:43:34Z</time>
      </trkpt>
      <trkpt lat="44.54454" lon="2.63741">
        <ele>596</ele>
        <time>2012-09-15T07:43:46Z</time>
      </trkpt>
      <trkpt lat="44.54457" lon="2.63721">
        <ele>595</ele>
        <time>2012-09-15T07:43:59Z</time>
      </trkpt>
      <trkpt lat="44.54456" lon="2.63702">
        <ele>596</ele>
        <time>2012-09-15T07:44:11Z</time>
      </trkpt>
      <trkpt lat="44.54457" lon="2.63682">
        <ele>605</ele>
        <time>2012-09-15T07:44:23Z</time>
      </trkpt>
      <trkpt lat="44.54464" lon="2.63665">
        <ele>606</ele>
        <time>2012-09-15T07:44:34Z</time>
      </trkpt>
      <trkpt lat="44.54472" lon="2.63651">
        <ele>610</ele>
        <time>2012-09-15T07:44:46Z</time>
      </trkpt>
      <trkpt lat="44.54483" lon="2.63634">
        <ele>606</ele>
        <time>2012-09-15T07:44:59Z</time>
      </trkpt>
      <trkpt lat="44.5449" lon="2.63618">
        <ele>603</ele>
        <time>2012-09-15T07:45:09Z</time>
      </trkpt>
      <trkpt lat="44.54499" lon="2.636">
        <ele>608</ele>
        <time>2012-09-15T07:45:21Z</time>
      </trkpt>
      <trkpt lat="44.54504" lon="2.63582">
        <ele>605</ele>
        <time>2012-09-15T07:45:32Z</time>
      </trkpt>
      <trkpt lat="44.54511" lon="2.63562">
        <ele>606</ele>
        <time>2012-09-15T07:45:45Z</time>
      </trkpt>
      <trkpt lat="44.54518" lon="2.63546">
        <ele>602</ele>
        <time>2012-09-15T07:45:55Z</time>
      </trkpt>
      <trkpt lat="44.54527" lon="2.6353">
        <ele>605</ele>
        <time>2012-09-15T07:46:07Z</time>
      </trkpt>
      <trkpt lat="44.54539" lon="2.63522">
        <ele>607</ele>
        <time>2012-09-15T07:46:19Z</time>
      </trkpt>
      <trkpt lat="44.54549" lon="2.63513">
        <ele>607</ele>
        <time>2012-09-15T07:46:32Z</time>
      </trkpt>
      <trkpt lat="44.54557" lon="2.63504">
        <ele>612</ele>
        <time>2012-09-15T07:46:44Z</time>
      </trkpt>
      <trkpt lat="44.54567" lon="2.63489">
        <ele>611</ele>
        <time>2012-09-15T07:46:56Z</time>
      </trkpt>
      <trkpt lat="44.54565" lon="2.63486">
        <ele>619</ele>
        <time>2012-09-15T07:47:38Z</time>
      </trkpt>
      <trkpt lat="44.54568" lon="2.63488">
        <ele>618</ele>
        <time>2012-09-15T07:48:26Z</time>
      </trkpt>
      <trkpt lat="44.5457" lon="2.63487">
        <ele>613</ele>
        <time>2012-09-15T07:51:21Z</time>
      </trkpt>
      <trkpt lat="44.54573" lon="2.63486">
        <ele>613</ele>
        <time>2012-09-15T07:51:42Z</time>
      </trkpt>
      <trkpt lat="44.5457" lon="2.63485">
        <ele>618</ele>
        <time>2012-09-15T07:52:53Z</time>
      </trkpt>
      <trkpt lat="44.54572" lon="2.63488">
        <ele>609</ele>
        <time>2012-09-15T07:53:45Z</time>
      </trkpt>
      <trkpt lat="44.54574" lon="2.6349">
        <ele>602</ele>
        <time>2012-09-15T07:54:42Z</time>
      </trkpt>
      <trkpt lat="44.54576" lon="2.63488">
        <ele>623</ele>
        <time>2012-09-15T07:57:31Z</time>
      </trkpt>
      <trkpt lat="44.54573" lon="2.63486">
        <ele>620</ele>
        <time>2012-09-15T07:59:36Z</time>
      </trkpt>
      <trkpt lat="44.54576" lon="2.63487">
        <ele>625</ele>
        <time>2012-09-15T07:59:54Z</time>
      </trkpt>
      <trkpt lat="44.54578" lon="2.63483">
        <ele>615</ele>
        <time>2012-09-15T08:00:07Z</time>
      </trkpt>
      <trkpt lat="44.54573" lon="2.63471">
        <ele>612</ele>
        <time>2012-09-15T08:00:25Z</time>
      </trkpt>
      <trkpt lat="44.5457" lon="2.63474">
        <ele>617</ele>
        <time>2012-09-15T08:02:05Z</time>
      </trkpt>
      <trkpt lat="44.54572" lon="2.63471">
        <ele>606</ele>
        <time>2012-09-15T08:03:31Z</time>
      </trkpt>
      <trkpt lat="44.54571" lon="2.63467">
        <ele>606</ele>
        <time>2012-09-15T08:04:49Z</time>
      </trkpt>
      <trkpt lat="44.54569" lon="2.63464">
        <ele>615</ele>
        <time>2012-09-15T08:05:01Z</time>
      </trkpt>
      <trkpt lat="44.54564" lon="2.63456">
        <ele>611</ele>
        <time>2012-09-15T08:05:11Z</time>
      </trkpt>
      <trkpt lat="44.54564" lon="2.63444">
        <ele>611</ele>
        <time>2012-09-15T08:05:22Z</time>
      </trkpt>
      <trkpt lat="44.54557" lon="2.63435">
        <ele>609</ele>
        <time>2012-09-15T08:05:34Z</time>
      </trkpt>
      <trkpt lat="44.54552" lon="2.63423">
        <ele>605</ele>
        <time>2012-09-15T08:05:45Z</time>
      </trkpt>
      <trkpt lat="44.5455" lon="2.63409">
        <ele>607</ele>
        <time>2012-09-15T08:05:56Z</time>
      </trkpt>
      <trkpt lat="44.54546" lon="2.63394">
        <ele>612</ele>
        <time>2012-09-15T08:06:09Z</time>
      </trkpt>
      <trkpt lat="44.54543" lon="2.63377">
        <ele>605</ele>
        <time>2012-09-15T08:06:20Z</time>
      </trkpt>
      <trkpt lat="44.54539" lon="2.63359">
        <ele>603</ele>
        <time>2012-09-15T08:06:31Z</time>
      </trkpt>
      <trkpt lat="44.54532" lon="2.63344">
        <ele>603</ele>
        <time>2012-09-15T08:06:43Z</time>
      </trkpt>
      <trkpt lat="44.54524" lon="2.63332">
        <ele>604</ele>
        <time>2012-09-15T08:06:56Z</time>
      </trkpt>
      <trkpt lat="44.54514" lon="2.63314">
        <ele>604</ele>
        <time>2012-09-15T08:07:08Z</time>
      </trkpt>
      <trkpt lat="44.54502" lon="2.63296">
        <ele>602</ele>
        <time>2012-09-15T08:07:19Z</time>
      </trkpt>
      <trkpt lat="44.54496" lon="2.6328">
        <ele>604</ele>
        <time>2012-09-15T08:07:30Z</time>
      </trkpt>
      <trkpt lat="44.54486" lon="2.63263">
        <ele>603</ele>
        <time>2012-09-15T08:07:42Z</time>
      </trkpt>
      <trkpt lat="44.54479" lon="2.63248">
        <ele>599</ele>
        <time>2012-09-15T08:07:52Z</time>
      </trkpt>
      <trkpt lat="44.54471" lon="2.63232">
        <ele>602</ele>
        <time>2012-09-15T08:08:03Z</time>
      </trkpt>
      <trkpt lat="44.54465" lon="2.63214">
        <ele>603</ele>
        <time>2012-09-15T08:08:14Z</time>
      </trkpt>
      <trkpt lat="44.5446" lon="2.63196">
        <ele>600</ele>
        <time>2012-09-15T08:08:26Z</time>
      </trkpt>
      <trkpt lat="44.54452" lon="2.63176">
        <ele>596</ele>
        <time>2012-09-15T08:08:39Z</time>
      </trkpt>
      <trkpt lat="44.54442" lon="2.63156">
        <ele>599</ele>
        <time>2012-09-15T08:08:52Z</time>
      </trkpt>
      <trkpt lat="44.54436" lon="2.63138">
        <ele>604</ele>
        <time>2012-09-15T08:09:02Z</time>
      </trkpt>
      <trkpt lat="44.54432" lon="2.6312">
        <ele>601</ele>
        <time>2012-09-15T08:09:13Z</time>
      </trkpt>
      <trkpt lat="44.5443" lon="2.63101">
        <ele>604</ele>
        <time>2012-09-15T08:09:25Z</time>
      </trkpt>
      <trkpt lat="44.5442" lon="2.63085">
        <ele>606</ele>
        <time>2012-09-15T08:09:36Z</time>
      </trkpt>
      <trkpt lat="44.54412" lon="2.6307">
        <ele>605</ele>
        <time>2012-09-15T08:09:48Z</time>
      </trkpt>
      <trkpt lat="44.54413" lon="2.63048">
        <ele>607</ele>
        <time>2012-09-15T08:10:00Z</time>
      </trkpt>
      <trkpt lat="44.54419" lon="2.6303">
        <ele>610</ele>
        <time>2012-09-15T08:10:11Z</time>
      </trkpt>
      <trkpt lat="44.54426" lon="2.63015">
        <ele>614</ele>
        <time>2012-09-15T08:10:22Z</time>
      </trkpt>
      <trkpt lat="44.54438" lon="2.63">
        <ele>612</ele>
        <time>2012-09-15T08:10:35Z</time>
      </trkpt>
      <trkpt lat="44.54446" lon="2.62986">
        <ele>609</ele>
        <time>2012-09-15T08:10:45Z</time>
      </trkpt>
      <trkpt lat="44.5445" lon="2.62967">
        <ele>603</ele>
        <time>2012-09-15T08:10:57Z</time>
      </trkpt>
      <trkpt lat="44.54448" lon="2.62964">
        <ele>615</ele>
        <time>2012-09-15T08:11:23Z</time>
      </trkpt>
      <trkpt lat="44.54447" lon="2.62942">
        <ele>607</ele>
        <time>2012-09-15T08:11:34Z</time>
      </trkpt>
      <trkpt lat="44.54448" lon="2.62933">
        <ele>618</ele>
        <time>2012-09-15T08:11:54Z</time>
      </trkpt>
      <trkpt lat="44.54448" lon="2.62912">
        <ele>613</ele>
        <time>2012-09-15T08:12:07Z</time>
      </trkpt>
      <trkpt lat="44.54445" lon="2.62892">
        <ele>612</ele>
        <time>2012-09-15T08:12:19Z</time>
      </trkpt>
      <trkpt lat="44.54441" lon="2.62875">
        <ele>608</ele>
        <time>2012-09-15T08:12:30Z</time>
      </trkpt>
      <trkpt lat="44.54431" lon="2.62855">
        <ele>611</ele>
        <time>2012-09-15T08:12:42Z</time>
      </trkpt>
      <trkpt lat="44.54419" lon="2.62838">
        <ele>609</ele>
        <time>2012-09-15T08:12:54Z</time>
      </trkpt>
      <trkpt lat="44.54412" lon="2.62824">
        <ele>613</ele>
        <time>2012-09-15T08:13:06Z</time>
      </trkpt>
      <trkpt lat="44.54402" lon="2.62811">
        <ele>613</ele>
        <time>2012-09-15T08:13:18Z</time>
      </trkpt>
      <trkpt lat="44.54395" lon="2.62796">
        <ele>606</ele>
        <time>2012-09-15T08:13:28Z</time>
      </trkpt>
      <trkpt lat="44.54387" lon="2.62781">
        <ele>602</ele>
        <time>2012-09-15T08:13:39Z</time>
      </trkpt>
      <trkpt lat="44.54378" lon="2.62763">
        <ele>603</ele>
        <time>2012-09-15T08:13:49Z</time>
      </trkpt>
      <trkpt lat="44.54379" lon="2.62743">
        <ele>601</ele>
        <time>2012-09-15T08:14:00Z</time>
      </trkpt>
      <trkpt lat="44.54379" lon="2.62721">
        <ele>596</ele>
        <time>2012-09-15T08:14:11Z</time>
      </trkpt>
      <trkpt lat="44.54383" lon="2.62699">
        <ele>602</ele>
        <time>2012-09-15T08:14:22Z</time>
      </trkpt>
      <trkpt lat="44.5439" lon="2.62682">
        <ele>598</ele>
        <time>2012-09-15T08:14:33Z</time>
      </trkpt>
      <trkpt lat="44.54399" lon="2.62668">
        <ele>593</ele>
        <time>2012-09-15T08:14:44Z</time>
      </trkpt>
      <trkpt lat="44.54409" lon="2.62653">
        <ele>593</ele>
        <time>2012-09-15T08:14:56Z</time>
      </trkpt>
      <trkpt lat="44.54419" lon="2.62635">
        <ele>592</ele>
        <time>2012-09-15T08:15:09Z</time>
      </trkpt>
      <trkpt lat="44.54427" lon="2.62613">
        <ele>602</ele>
        <time>2012-09-15T08:15:21Z</time>
      </trkpt>
      <trkpt lat="44.54433" lon="2.62594">
        <ele>597</ele>
        <time>2012-09-15T08:15:32Z</time>
      </trkpt>
      <trkpt lat="44.54437" lon="2.62577">
        <ele>594</ele>
        <time>2012-09-15T08:15:43Z</time>
      </trkpt>
      <trkpt lat="44.54445" lon="2.62557">
        <ele>597</ele>
        <time>2012-09-15T08:15:56Z</time>
      </trkpt>
      <trkpt lat="44.54449" lon="2.62539">
        <ele>599</ele>
        <time>2012-09-15T08:16:08Z</time>
      </trkpt>
      <trkpt lat="44.54458" lon="2.62518">
        <ele>603</ele>
        <time>2012-09-15T08:16:21Z</time>
      </trkpt>
      <trkpt lat="44.54465" lon="2.62503">
        <ele>594</ele>
        <time>2012-09-15T08:16:31Z</time>
      </trkpt>
      <trkpt lat="44.5447" lon="2.62487">
        <ele>600</ele>
        <time>2012-09-15T08:16:42Z</time>
      </trkpt>
      <trkpt lat="44.54473" lon="2.62468">
        <ele>598</ele>
        <time>2012-09-15T08:16:54Z</time>
      </trkpt>
      <trkpt lat="44.54473" lon="2.62447">
        <ele>600</ele>
        <time>2012-09-15T08:17:06Z</time>
      </trkpt>
      <trkpt lat="44.54471" lon="2.62425">
        <ele>598</ele>
        <time>2012-09-15T08:17:18Z</time>
      </trkpt>
      <trkpt lat="44.54474" lon="2.62409">
        <ele>594</ele>
        <time>2012-09-15T08:17:29Z</time>
      </trkpt>
      <trkpt lat="44.5448" lon="2.62389">
        <ele>596</ele>
        <time>2012-09-15T08:17:40Z</time>
      </trkpt>
      <trkpt lat="44.54489" lon="2.62369">
        <ele>592</ele>
        <time>2012-09-15T08:17:52Z</time>
      </trkpt>
      <trkpt lat="44.54498" lon="2.62355">
        <ele>589</ele>
        <time>2012-09-15T08:18:04Z</time>
      </trkpt>
      <trkpt lat="44.54502" lon="2.62335">
        <ele>584</ele>
        <time>2012-09-15T08:18:14Z</time>
      </trkpt>
      <trkpt lat="44.54506" lon="2.62322">
        <ele>583</ele>
        <time>2012-09-15T08:18:25Z</time>
      </trkpt>
      <trkpt lat="44.54509" lon="2.6231">
        <ele>586</ele>
        <time>2012-09-15T08:18:35Z</time>
      </trkpt>
      <trkpt lat="44.54512" lon="2.62286">
        <ele>586</ele>
        <time>2012-09-15T08:18:48Z</time>
      </trkpt>
      <trkpt lat="44.54516" lon="2.62268">
        <ele>579</ele>
        <time>2012-09-15T08:19:00Z</time>
      </trkpt>
      <trkpt lat="44.54519" lon="2.6225">
        <ele>580</ele>
        <time>2012-09-15T08:19:10Z</time>
      </trkpt>
      <trkpt lat="44.54522" lon="2.62229">
        <ele>578</ele>
        <time>2012-09-15T08:19:22Z</time>
      </trkpt>
      <trkpt lat="44.54525" lon="2.62213">
        <ele>571</ele>
        <time>2012-09-15T08:19:33Z</time>
      </trkpt>
      <trkpt lat="44.5453" lon="2.62195">
        <ele>572</ele>
        <time>2012-09-15T08:19:45Z</time>
      </trkpt>
      <trkpt lat="44.54535" lon="2.62174">
        <ele>575</ele>
        <time>2012-09-15T08:19:56Z</time>
      </trkpt>
      <trkpt lat="44.54541" lon="2.62156">
        <ele>572</ele>
        <time>2012-09-15T08:20:08Z</time>
      </trkpt>
      <trkpt lat="44.54549" lon="2.62137">
        <ele>573</ele>
        <time>2012-09-15T08:20:20Z</time>
      </trkpt>
      <trkpt lat="44.54561" lon="2.62122">
        <ele>573</ele>
        <time>2012-09-15T08:20:32Z</time>
      </trkpt>
      <trkpt lat="44.5457" lon="2.62112">
        <ele>577</ele>
        <time>2012-09-15T08:20:43Z</time>
      </trkpt>
      <trkpt lat="44.54581" lon="2.62101">
        <ele>569</ele>
        <time>2012-09-15T08:20:56Z</time>
      </trkpt>
      <trkpt lat="44.54586" lon="2.62101">
        <ele>568</ele>
        <time>2012-09-15T08:21:07Z</time>
      </trkpt>
      <trkpt lat="44.54588" lon="2.62103">
        <ele>571</ele>
        <time>2012-09-15T08:21:56Z</time>
      </trkpt>
      <trkpt lat="44.54604" lon="2.62108">
        <ele>571</ele>
        <time>2012-09-15T08:22:10Z</time>
      </trkpt>
      <trkpt lat="44.54619" lon="2.62108">
        <ele>575</ele>
        <time>2012-09-15T08:22:23Z</time>
      </trkpt>
      <trkpt lat="44.54634" lon="2.62108">
        <ele>564</ele>
        <time>2012-09-15T08:22:34Z</time>
      </trkpt>
      <trkpt lat="44.54647" lon="2.62106">
        <ele>564</ele>
        <time>2012-09-15T08:22:46Z</time>
      </trkpt>
      <trkpt lat="44.5466" lon="2.62105">
        <ele>557</ele>
        <time>2012-09-15T08:22:57Z</time>
      </trkpt>
      <trkpt lat="44.54673" lon="2.62105">
        <ele>560</ele>
        <time>2012-09-15T08:23:10Z</time>
      </trkpt>
      <trkpt lat="44.54686" lon="2.62102">
        <ele>564</ele>
        <time>2012-09-15T08:23:22Z</time>
      </trkpt>
      <trkpt lat="44.54696" lon="2.62105">
        <ele>565</ele>
        <time>2012-09-15T08:23:32Z</time>
      </trkpt>
      <trkpt lat="44.54705" lon="2.62102">
        <ele>559</ele>
        <time>2012-09-15T08:23:42Z</time>
      </trkpt>
      <trkpt lat="44.54718" lon="2.62098">
        <ele>554</ele>
        <time>2012-09-15T08:23:54Z</time>
      </trkpt>
      <trkpt lat="44.5473" lon="2.62088">
        <ele>557</ele>
        <time>2012-09-15T08:24:05Z</time>
      </trkpt>
      <trkpt lat="44.54742" lon="2.62082">
        <ele>546</ele>
        <time>2012-09-15T08:24:18Z</time>
      </trkpt>
      <trkpt lat="44.54756" lon="2.62082">
        <ele>547</ele>
        <time>2012-09-15T08:24:29Z</time>
      </trkpt>
      <trkpt lat="44.54766" lon="2.62084">
        <ele>544</ele>
        <time>2012-09-15T08:24:39Z</time>
      </trkpt>
      <trkpt lat="44.54778" lon="2.62073">
        <ele>539</ele>
        <time>2012-09-15T08:24:50Z</time>
      </trkpt>
      <trkpt lat="44.54785" lon="2.62057">
        <ele>537</ele>
        <time>2012-09-15T08:25:03Z</time>
      </trkpt>
      <trkpt lat="44.54789" lon="2.6204">
        <ele>534</ele>
        <time>2012-09-15T08:25:17Z</time>
      </trkpt>
      <trkpt lat="44.54792" lon="2.62017">
        <ele>543</ele>
        <time>2012-09-15T08:25:28Z</time>
      </trkpt>
      <trkpt lat="44.54792" lon="2.62002">
        <ele>539</ele>
        <time>2012-09-15T08:25:39Z</time>
      </trkpt>
      <trkpt lat="44.54797" lon="2.61985">
        <ele>536</ele>
        <time>2012-09-15T08:25:50Z</time>
      </trkpt>
      <trkpt lat="44.54806" lon="2.61969">
        <ele>534</ele>
        <time>2012-09-15T08:26:01Z</time>
      </trkpt>
      <trkpt lat="44.54813" lon="2.61952">
        <ele>533</ele>
        <time>2012-09-15T08:26:14Z</time>
      </trkpt>
      <trkpt lat="44.54816" lon="2.61933">
        <ele>531</ele>
        <time>2012-09-15T08:26:25Z</time>
      </trkpt>
      <trkpt lat="44.54816" lon="2.61915">
        <ele>530</ele>
        <time>2012-09-15T08:26:37Z</time>
      </trkpt>
      <trkpt lat="44.54816" lon="2.61914">
        <ele>556</ele>
        <time>2012-09-15T08:27:26Z</time>
      </trkpt>
      <trkpt lat="44.54812" lon="2.61922">
        <ele>537</ele>
        <time>2012-09-15T08:27:44Z</time>
      </trkpt>
      <trkpt lat="44.54807" lon="2.61902">
        <ele>540</ele>
        <time>2012-09-15T08:27:54Z</time>
      </trkpt>
      <trkpt lat="44.54797" lon="2.6189">
        <ele>528</ele>
        <time>2012-09-15T08:28:05Z</time>
      </trkpt>
      <trkpt lat="44.54782" lon="2.61884">
        <ele>529</ele>
        <time>2012-09-15T08:28:17Z</time>
      </trkpt>
      <trkpt lat="44.5477" lon="2.61875">
        <ele>528</ele>
        <time>2012-09-15T08:28:27Z</time>
      </trkpt>
      <trkpt lat="44.54761" lon="2.61857">
        <ele>516</ele>
        <time>2012-09-15T08:28:38Z</time>
      </trkpt>
      <trkpt lat="44.54753" lon="2.61843">
        <ele>516</ele>
        <time>2012-09-15T08:28:49Z</time>
      </trkpt>
      <trkpt lat="44.54742" lon="2.61852">
        <ele>518</ele>
        <time>2012-09-15T08:28:59Z</time>
      </trkpt>
      <trkpt lat="44.54733" lon="2.61866">
        <ele>504</ele>
        <time>2012-09-15T08:29:10Z</time>
      </trkpt>
      <trkpt lat="44.54723" lon="2.61862">
        <ele>515</ele>
        <time>2012-09-15T08:29:22Z</time>
      </trkpt>
      <trkpt lat="44.54719" lon="2.61843">
        <ele>509</ele>
        <time>2012-09-15T08:29:33Z</time>
      </trkpt>
      <trkpt lat="44.54715" lon="2.61825">
        <ele>506</ele>
        <time>2012-09-15T08:29:43Z</time>
      </trkpt>
      <trkpt lat="44.54712" lon="2.61805">
        <ele>507</ele>
        <time>2012-09-15T08:29:55Z</time>
      </trkpt>
      <trkpt lat="44.54705" lon="2.61792">
        <ele>507</ele>
        <time>2012-09-15T08:30:07Z</time>
      </trkpt>
      <trkpt lat="44.54696" lon="2.61784">
        <ele>508</ele>
        <time>2012-09-15T08:30:17Z</time>
      </trkpt>
      <trkpt lat="44.54693" lon="2.61773">
        <ele>508</ele>
        <time>2012-09-15T08:30:27Z</time>
      </trkpt>
      <trkpt lat="44.54696" lon="2.61766">
        <ele>507</ele>
        <time>2012-09-15T08:30:37Z</time>
      </trkpt>
      <trkpt lat="44.54696" lon="2.61752">
        <ele>509</ele>
        <time>2012-09-15T08:30:50Z</time>
      </trkpt>
      <trkpt lat="44.54697" lon="2.61732">
        <ele>512</ele>
        <time>2012-09-15T08:31:03Z</time>
      </trkpt>
      <trkpt lat="44.54699" lon="2.61719">
        <ele>523</ele>
        <time>2012-09-15T08:31:15Z</time>
      </trkpt>
      <trkpt lat="44.54693" lon="2.61712">
        <ele>514</ele>
        <time>2012-09-15T08:31:25Z</time>
      </trkpt>
      <trkpt lat="44.54687" lon="2.61703">
        <ele>520</ele>
        <time>2012-09-15T08:31:38Z</time>
      </trkpt>
      <trkpt lat="44.54692" lon="2.61697">
        <ele>527</ele>
        <time>2012-09-15T08:31:53Z</time>
      </trkpt>
      <trkpt lat="44.547" lon="2.61689">
        <ele>533</ele>
        <time>2012-09-15T08:32:05Z</time>
      </trkpt>
      <trkpt lat="44.54707" lon="2.61675">
        <ele>533</ele>
        <time>2012-09-15T08:32:17Z</time>
      </trkpt>
      <trkpt lat="44.54708" lon="2.61662">
        <ele>535</ele>
        <time>2012-09-15T08:32:28Z</time>
      </trkpt>
      <trkpt lat="44.54718" lon="2.61652">
        <ele>528</ele>
        <time>2012-09-15T08:32:39Z</time>
      </trkpt>
      <trkpt lat="44.54721" lon="2.6164">
        <ele>527</ele>
        <time>2012-09-15T08:32:51Z</time>
      </trkpt>
      <trkpt lat="44.54725" lon="2.61633">
        <ele>528</ele>
        <time>2012-09-15T08:33:04Z</time>
      </trkpt>
      <trkpt lat="44.54725" lon="2.6162">
        <ele>523</ele>
        <time>2012-09-15T08:33:14Z</time>
      </trkpt>
      <trkpt lat="44.54729" lon="2.61606">
        <ele>534</ele>
        <time>2012-09-15T08:33:27Z</time>
      </trkpt>
      <trkpt lat="44.54736" lon="2.61602">
        <ele>536</ele>
        <time>2012-09-15T08:33:38Z</time>
      </trkpt>
      <trkpt lat="44.54749" lon="2.61593">
        <ele>531</ele>
        <time>2012-09-15T08:33:51Z</time>
      </trkpt>
      <trkpt lat="44.54762" lon="2.61589">
        <ele>543</ele>
        <time>2012-09-15T08:34:02Z</time>
      </trkpt>
      <trkpt lat="44.5477" lon="2.61592">
        <ele>545</ele>
        <time>2012-09-15T08:34:14Z</time>
      </trkpt>
      <trkpt lat="44.54775" lon="2.61602">
        <ele>541</ele>
        <time>2012-09-15T08:34:27Z</time>
      </trkpt>
      <trkpt lat="44.54781" lon="2.61611">
        <ele>541</ele>
        <time>2012-09-15T08:34:37Z</time>
      </trkpt>
      <trkpt lat="44.5479" lon="2.61627">
        <ele>534</ele>
        <time>2012-09-15T08:34:49Z</time>
      </trkpt>
      <trkpt lat="44.54796" lon="2.61637">
        <ele>546</ele>
        <time>2012-09-15T08:35:01Z</time>
      </trkpt>
      <trkpt lat="44.54801" lon="2.6164">
        <ele>536</ele>
        <time>2012-09-15T08:35:14Z</time>
      </trkpt>
      <trkpt lat="44.54795" lon="2.61631">
        <ele>547</ele>
        <time>2012-09-15T08:35:28Z</time>
      </trkpt>
      <trkpt lat="44.54799" lon="2.61632">
        <ele>528</ele>
        <time>2012-09-15T08:35:52Z</time>
      </trkpt>
      <trkpt lat="44.54797" lon="2.61629">
        <ele>551</ele>
        <time>2012-09-15T08:36:30Z</time>
      </trkpt>
      <trkpt lat="44.54802" lon="2.61622">
        <ele>538</ele>
        <time>2012-09-15T08:36:59Z</time>
      </trkpt>
      <trkpt lat="44.54802" lon="2.61618">
        <ele>538</ele>
        <time>2012-09-15T08:37:33Z</time>
      </trkpt>
      <trkpt lat="44.54796" lon="2.61608">
        <ele>549</ele>
        <time>2012-09-15T08:37:44Z</time>
      </trkpt>
      <trkpt lat="44.54791" lon="2.61593">
        <ele>550</ele>
        <time>2012-09-15T08:37:55Z</time>
      </trkpt>
      <trkpt lat="44.54786" lon="2.61577">
        <ele>561</ele>
        <time>2012-09-15T08:38:06Z</time>
      </trkpt>
      <trkpt lat="44.54782" lon="2.61559">
        <ele>552</ele>
        <time>2012-09-15T08:38:18Z</time>
      </trkpt>
      <trkpt lat="44.54776" lon="2.6155">
        <ele>552</ele>
        <time>2012-09-15T08:38:29Z</time>
      </trkpt>
      <trkpt lat="44.54768" lon="2.61534">
        <ele>548</ele>
        <time>2012-09-15T08:38:42Z</time>
      </trkpt>
      <trkpt lat="44.54762" lon="2.61532">
        <ele>556</ele>
        <time>2012-09-15T08:38:54Z</time>
      </trkpt>
      <trkpt lat="44.5475" lon="2.61528">
        <ele>552</ele>
        <time>2012-09-15T08:39:04Z</time>
      </trkpt>
      <trkpt lat="44.54737" lon="2.61524">
        <ele>561</ele>
        <time>2012-09-15T08:39:14Z</time>
      </trkpt>
      <trkpt lat="44.54725" lon="2.61517">
        <ele>551</ele>
        <time>2012-09-15T08:39:28Z</time>
      </trkpt>
      <trkpt lat="44.54719" lon="2.61498">
        <ele>552</ele>
        <time>2012-09-15T08:39:39Z</time>
      </trkpt>
      <trkpt lat="44.54726" lon="2.61484">
        <ele>558</ele>
        <time>2012-09-15T08:39:51Z</time>
      </trkpt>
      <trkpt lat="44.54735" lon="2.6148">
        <ele>555</ele>
        <time>2012-09-15T08:40:02Z</time>
      </trkpt>
      <trkpt lat="44.54744" lon="2.61474">
        <ele>565</ele>
        <time>2012-09-15T08:40:14Z</time>
      </trkpt>
      <trkpt lat="44.54752" lon="2.61466">
        <ele>566</ele>
        <time>2012-09-15T08:40:24Z</time>
      </trkpt>
      <trkpt lat="44.54765" lon="2.61453">
        <ele>553</ele>
        <time>2012-09-15T08:40:37Z</time>
      </trkpt>
      <trkpt lat="44.54771" lon="2.61439">
        <ele>563</ele>
        <time>2012-09-15T08:40:49Z</time>
      </trkpt>
      <trkpt lat="44.54766" lon="2.61421">
        <ele>565</ele>
        <time>2012-09-15T08:41:02Z</time>
      </trkpt>
      <trkpt lat="44.54762" lon="2.61404">
        <ele>567</ele>
        <time>2012-09-15T08:41:15Z</time>
      </trkpt>
      <trkpt lat="44.54763" lon="2.61396">
        <ele>565</ele>
        <time>2012-09-15T08:41:25Z</time>
      </trkpt>
      <trkpt lat="44.5476" lon="2.61389">
        <ele>561</ele>
        <time>2012-09-15T08:41:56Z</time>
      </trkpt>
      <trkpt lat="44.54761" lon="2.61384">
        <ele>566</ele>
        <time>2012-09-15T08:42:09Z</time>
      </trkpt>
      <trkpt lat="44.54763" lon="2.61371">
        <ele>557</ele>
        <time>2012-09-15T08:42:22Z</time>
      </trkpt>
      <trkpt lat="44.54766" lon="2.61372">
        <ele>561</ele>
        <time>2012-09-15T08:43:02Z</time>
      </trkpt>
      <trkpt lat="44.54765" lon="2.61377">
        <ele>566</ele>
        <time>2012-09-15T08:43:16Z</time>
      </trkpt>
      <trkpt lat="44.54771" lon="2.61377">
        <ele>551</ele>
        <time>2012-09-15T08:43:28Z</time>
      </trkpt>
      <trkpt lat="44.54772" lon="2.61369">
        <ele>541</ele>
        <time>2012-09-15T08:44:02Z</time>
      </trkpt>
      <trkpt lat="44.5478" lon="2.6137">
        <ele>550</ele>
        <time>2012-09-15T08:44:15Z</time>
      </trkpt>
      <trkpt lat="44.54786" lon="2.6137">
        <ele>548</ele>
        <time>2012-09-15T08:44:26Z</time>
      </trkpt>
      <trkpt lat="44.54789" lon="2.61372">
        <ele>551</ele>
        <time>2012-09-15T08:44:36Z</time>
      </trkpt>
      <trkpt lat="44.54795" lon="2.61376">
        <ele>554</ele>
        <time>2012-09-15T08:44:51Z</time>
      </trkpt>
      <trkpt lat="44.54806" lon="2.61377">
        <ele>555</ele>
        <time>2012-09-15T08:45:03Z</time>
      </trkpt>
      <trkpt lat="44.5482" lon="2.61379">
        <ele>547</ele>
        <time>2012-09-15T08:45:17Z</time>
      </trkpt>
      <trkpt lat="44.54826" lon="2.61373">
        <ele>547</ele>
        <time>2012-09-15T08:45:32Z</time>
      </trkpt>
      <trkpt lat="44.54814" lon="2.61362">
        <ele>554</ele>
        <time>2012-09-15T08:45:44Z</time>
      </trkpt>
      <trkpt lat="44.54809" lon="2.61351">
        <ele>557</ele>
        <time>2012-09-15T08:45:55Z</time>
      </trkpt>
      <trkpt lat="44.54805" lon="2.61339">
        <ele>551</ele>
        <time>2012-09-15T08:46:06Z</time>
      </trkpt>
      <trkpt lat="44.54799" lon="2.61317">
        <ele>559</ele>
        <time>2012-09-15T08:46:20Z</time>
      </trkpt>
      <trkpt lat="44.54798" lon="2.61321">
        <ele>562</ele>
        <time>2012-09-15T08:46:31Z</time>
      </trkpt>
      <trkpt lat="44.5479" lon="2.61324">
        <ele>558</ele>
        <time>2012-09-15T08:46:56Z</time>
      </trkpt>
      <trkpt lat="44.54792" lon="2.613">
        <ele>558</ele>
        <time>2012-09-15T08:47:07Z</time>
      </trkpt>
      <trkpt lat="44.54789" lon="2.61289">
        <ele>556</ele>
        <time>2012-09-15T08:47:19Z</time>
      </trkpt>
      <trkpt lat="44.54785" lon="2.61278">
        <ele>557</ele>
        <time>2012-09-15T08:47:29Z</time>
      </trkpt>
      <trkpt lat="44.54785" lon="2.61261">
        <ele>557</ele>
        <time>2012-09-15T08:47:40Z</time>
      </trkpt>
      <trkpt lat="44.54782" lon="2.61249">
        <ele>559</ele>
        <time>2012-09-15T08:47:51Z</time>
      </trkpt>
      <trkpt lat="44.54776" lon="2.61238">
        <ele>558</ele>
        <time>2012-09-15T08:48:04Z</time>
      </trkpt>
      <trkpt lat="44.54769" lon="2.61223">
        <ele>560</ele>
        <time>2012-09-15T08:48:16Z</time>
      </trkpt>
      <trkpt lat="44.54771" lon="2.61208">
        <ele>562</ele>
        <time>2012-09-15T08:48:27Z</time>
      </trkpt>
      <trkpt lat="44.54776" lon="2.61193">
        <ele>557</ele>
        <time>2012-09-15T08:48:42Z</time>
      </trkpt>
      <trkpt lat="44.54778" lon="2.61208">
        <ele>551</ele>
        <time>2012-09-15T08:48:55Z</time>
      </trkpt>
      <trkpt lat="44.54784" lon="2.61218">
        <ele>550</ele>
        <time>2012-09-15T08:49:07Z</time>
      </trkpt>
      <trkpt lat="44.54792" lon="2.61227">
        <ele>554</ele>
        <time>2012-09-15T08:49:18Z</time>
      </trkpt>
      <trkpt lat="44.54799" lon="2.61237">
        <ele>538</ele>
        <time>2012-09-15T08:49:31Z</time>
      </trkpt>
      <trkpt lat="44.54807" lon="2.61242">
        <ele>534</ele>
        <time>2012-09-15T08:49:45Z</time>
      </trkpt>
      <trkpt lat="44.54813" lon="2.61253">
        <ele>540</ele>
        <time>2012-09-15T08:49:57Z</time>
      </trkpt>
      <trkpt lat="44.54818" lon="2.61263">
        <ele>546</ele>
        <time>2012-09-15T08:50:07Z</time>
      </trkpt>
      <trkpt lat="44.54825" lon="2.61273">
        <ele>541</ele>
        <time>2012-09-15T08:50:18Z</time>
      </trkpt>
      <trkpt lat="44.54834" lon="2.61276">
        <ele>548</ele>
        <time>2012-09-15T08:50:28Z</time>
      </trkpt>
      <trkpt lat="44.54837" lon="2.61282">
        <ele>553</ele>
        <time>2012-09-15T08:50:38Z</time>
      </trkpt>
      <trkpt lat="44.54851" lon="2.61284">
        <ele>554</ele>
        <time>2012-09-15T08:50:51Z</time>
      </trkpt>
      <trkpt lat="44.5486" lon="2.61284">
        <ele>560</ele>
        <time>2012-09-15T08:51:03Z</time>
      </trkpt>
      <trkpt lat="44.54871" lon="2.61279">
        <ele>568</ele>
        <time>2012-09-15T08:51:15Z</time>
      </trkpt>
      <trkpt lat="44.54878" lon="2.61272">
        <ele>575</ele>
        <time>2012-09-15T08:51:27Z</time>
      </trkpt>
      <trkpt lat="44.5489" lon="2.61263">
        <ele>567</ele>
        <time>2012-09-15T08:51:42Z</time>
      </trkpt>
      <trkpt lat="44.54894" lon="2.61261">
        <ele>563</ele>
        <time>2012-09-15T08:51:59Z</time>
      </trkpt>
      <trkpt lat="44.54899" lon="2.61259">
        <ele>574</ele>
        <time>2012-09-15T08:52:35Z</time>
      </trkpt>
      <trkpt lat="44.54905" lon="2.61255">
        <ele>574</ele>
        <time>2012-09-15T08:52:52Z</time>
      </trkpt>
      <trkpt lat="44.54916" lon="2.61247">
        <ele>578</ele>
        <time>2012-09-15T08:53:06Z</time>
      </trkpt>
      <trkpt lat="44.54926" lon="2.61242">
        <ele>577</ele>
        <time>2012-09-15T08:53:19Z</time>
      </trkpt>
      <trkpt lat="44.54934" lon="2.61239">
        <ele>576</ele>
        <time>2012-09-15T08:53:33Z</time>
      </trkpt>
      <trkpt lat="44.54948" lon="2.6124">
        <ele>586</ele>
        <time>2012-09-15T08:53:45Z</time>
      </trkpt>
      <trkpt lat="44.54955" lon="2.61224">
        <ele>591</ele>
        <time>2012-09-15T08:53:59Z</time>
      </trkpt>
      <trkpt lat="44.54961" lon="2.61215">
        <ele>594</ele>
        <time>2012-09-15T08:54:13Z</time>
      </trkpt>
      <trkpt lat="44.5497" lon="2.612">
        <ele>592</ele>
        <time>2012-09-15T08:54:26Z</time>
      </trkpt>
      <trkpt lat="44.54979" lon="2.61184">
        <ele>597</ele>
        <time>2012-09-15T08:54:38Z</time>
      </trkpt>
      <trkpt lat="44.54985" lon="2.6117">
        <ele>598</ele>
        <time>2012-09-15T08:54:48Z</time>
      </trkpt>
      <trkpt lat="44.54986" lon="2.61157">
        <ele>582</ele>
        <time>2012-09-15T08:55:22Z</time>
      </trkpt>
      <trkpt lat="44.54987" lon="2.61143">
        <ele>588</ele>
        <time>2012-09-15T08:55:33Z</time>
      </trkpt>
      <trkpt lat="44.54995" lon="2.61129">
        <ele>606</ele>
        <time>2012-09-15T08:55:47Z</time>
      </trkpt>
      <trkpt lat="44.54998" lon="2.61116">
        <ele>601</ele>
        <time>2012-09-15T08:55:59Z</time>
      </trkpt>
      <trkpt lat="44.55008" lon="2.61114">
        <ele>601</ele>
        <time>2012-09-15T08:56:12Z</time>
      </trkpt>
      <trkpt lat="44.55017" lon="2.61114">
        <ele>603</ele>
        <time>2012-09-15T08:56:24Z</time>
      </trkpt>
      <trkpt lat="44.55026" lon="2.61114">
        <ele>601</ele>
        <time>2012-09-15T08:56:34Z</time>
      </trkpt>
      <trkpt lat="44.55035" lon="2.61113">
        <ele>604</ele>
        <time>2012-09-15T08:56:45Z</time>
      </trkpt>
      <trkpt lat="44.55046" lon="2.61111">
        <ele>602</ele>
        <time>2012-09-15T08:56:55Z</time>
      </trkpt>
      <trkpt lat="44.55058" lon="2.61115">
        <ele>602</ele>
        <time>2012-09-15T08:57:07Z</time>
      </trkpt>
      <trkpt lat="44.55071" lon="2.61119">
        <ele>594</ele>
        <time>2012-09-15T08:57:18Z</time>
      </trkpt>
      <trkpt lat="44.55081" lon="2.6112">
        <ele>597</ele>
        <time>2012-09-15T08:57:29Z</time>
      </trkpt>
      <trkpt lat="44.55093" lon="2.61121">
        <ele>595</ele>
        <time>2012-09-15T08:57:40Z</time>
      </trkpt>
      <trkpt lat="44.55103" lon="2.61121">
        <ele>592</ele>
        <time>2012-09-15T08:57:50Z</time>
      </trkpt>
      <trkpt lat="44.55113" lon="2.61117">
        <ele>594</ele>
        <time>2012-09-15T08:58:01Z</time>
      </trkpt>
      <trkpt lat="44.55121" lon="2.6111">
        <ele>595</ele>
        <time>2012-09-15T08:58:14Z</time>
      </trkpt>
      <trkpt lat="44.5513" lon="2.6111">
        <ele>598</ele>
        <time>2012-09-15T08:58:24Z</time>
      </trkpt>
      <trkpt lat="44.5513" lon="2.61111">
        <ele>600</ele>
        <time>2012-09-15T08:58:47Z</time>
      </trkpt>
      <trkpt lat="44.55125" lon="2.61115">
        <ele>610</ele>
        <time>2012-09-15T08:59:07Z</time>
      </trkpt>
      <trkpt lat="44.55124" lon="2.61119">
        <ele>601</ele>
        <time>2012-09-15T08:59:25Z</time>
      </trkpt>
      <trkpt lat="44.55129" lon="2.61115">
        <ele>603</ele>
        <time>2012-09-15T08:59:36Z</time>
      </trkpt>
      <trkpt lat="44.55133" lon="2.61109">
        <ele>605</ele>
        <time>2012-09-15T09:00:16Z</time>
      </trkpt>
      <trkpt lat="44.55132" lon="2.61105">
        <ele>613</ele>
        <time>2012-09-15T09:01:48Z</time>
      </trkpt>
      <trkpt lat="44.55129" lon="2.61099">
        <ele>600</ele>
        <time>2012-09-15T09:02:29Z</time>
      </trkpt>
      <trkpt lat="44.55131" lon="2.61102">
        <ele>603</ele>
        <time>2012-09-15T09:02:49Z</time>
      </trkpt>
      <trkpt lat="44.55136" lon="2.61102">
        <ele>598</ele>
        <time>2012-09-15T09:02:59Z</time>
      </trkpt>
      <trkpt lat="44.55146" lon="2.61092">
        <ele>603</ele>
        <time>2012-09-15T09:03:13Z</time>
      </trkpt>
      <trkpt lat="44.55149" lon="2.6109">
        <ele>608</ele>
        <time>2012-09-15T09:03:58Z</time>
      </trkpt>
      <trkpt lat="44.55157" lon="2.61078">
        <ele>601</ele>
        <time>2012-09-15T09:04:09Z</time>
      </trkpt>
      <trkpt lat="44.55158" lon="2.6107">
        <ele>602</ele>
        <time>2012-09-15T09:04:21Z</time>
      </trkpt>
      <trkpt lat="44.55159" lon="2.61066">
        <ele>602</ele>
        <time>2012-09-15T09:04:33Z</time>
      </trkpt>
      <trkpt lat="44.55161" lon="2.61047">
        <ele>604</ele>
        <time>2012-09-15T09:04:45Z</time>
      </trkpt>
      <trkpt lat="44.55163" lon="2.61029">
        <ele>604</ele>
        <time>2012-09-15T09:04:57Z</time>
      </trkpt>
      <trkpt lat="44.55165" lon="2.61006">
        <ele>590</ele>
        <time>2012-09-15T09:05:10Z</time>
      </trkpt>
      <trkpt lat="44.55166" lon="2.60988">
        <ele>594</ele>
        <time>2012-09-15T09:05:21Z</time>
      </trkpt>
      <trkpt lat="44.55167" lon="2.60968">
        <ele>592</ele>
        <time>2012-09-15T09:05:33Z</time>
      </trkpt>
      <trkpt lat="44.55166" lon="2.60951">
        <ele>604</ele>
        <time>2012-09-15T09:05:44Z</time>
      </trkpt>
      <trkpt lat="44.55164" lon="2.60932">
        <ele>596</ele>
        <time>2012-09-15T09:05:56Z</time>
      </trkpt>
      <trkpt lat="44.55157" lon="2.60921">
        <ele>592</ele>
        <time>2012-09-15T09:06:07Z</time>
      </trkpt>
      <trkpt lat="44.55153" lon="2.60916">
        <ele>587</ele>
        <time>2012-09-15T09:06:28Z</time>
      </trkpt>
      <trkpt lat="44.55148" lon="2.60911">
        <ele>599</ele>
        <time>2012-09-15T09:06:44Z</time>
      </trkpt>
      <trkpt lat="44.55143" lon="2.60899">
        <ele>594</ele>
        <time>2012-09-15T09:06:54Z</time>
      </trkpt>
      <trkpt lat="44.55144" lon="2.6089">
        <ele>579</ele>
        <time>2012-09-15T09:07:14Z</time>
      </trkpt>
      <trkpt lat="44.55138" lon="2.60875">
        <ele>584</ele>
        <time>2012-09-15T09:07:28Z</time>
      </trkpt>
      <trkpt lat="44.55135" lon="2.60863">
        <ele>582</ele>
        <time>2012-09-15T09:07:53Z</time>
      </trkpt>
      <trkpt lat="44.55134" lon="2.60846">
        <ele>584</ele>
        <time>2012-09-15T09:08:07Z</time>
      </trkpt>
      <trkpt lat="44.55129" lon="2.60835">
        <ele>585</ele>
        <time>2012-09-15T09:08:18Z</time>
      </trkpt>
      <trkpt lat="44.55125" lon="2.60823">
        <ele>590</ele>
        <time>2012-09-15T09:08:30Z</time>
      </trkpt>
      <trkpt lat="44.55117" lon="2.60816">
        <ele>589</ele>
        <time>2012-09-15T09:08:43Z</time>
      </trkpt>
      <trkpt lat="44.55117" lon="2.60807">
        <ele>585</ele>
        <time>2012-09-15T09:08:54Z</time>
      </trkpt>
      <trkpt lat="44.5511" lon="2.60797">
        <ele>590</ele>
        <time>2012-09-15T09:09:04Z</time>
      </trkpt>
      <trkpt lat="44.55106" lon="2.60779">
        <ele>591</ele>
        <time>2012-09-15T09:09:15Z</time>
      </trkpt>
      <trkpt lat="44.55106" lon="2.60758">
        <ele>585</ele>
        <time>2012-09-15T09:09:26Z</time>
      </trkpt>
      <trkpt lat="44.55099" lon="2.60743">
        <ele>588</ele>
        <time>2012-09-15T09:09:38Z</time>
      </trkpt>
      <trkpt lat="44.55093" lon="2.60734">
        <ele>583</ele>
        <time>2012-09-15T09:09:50Z</time>
      </trkpt>
      <trkpt lat="44.55079" lon="2.60716">
        <ele>578</ele>
        <time>2012-09-15T09:10:02Z</time>
      </trkpt>
      <trkpt lat="44.55068" lon="2.60705">
        <ele>570</ele>
        <time>2012-09-15T09:10:14Z</time>
      </trkpt>
      <trkpt lat="44.55075" lon="2.60696">
        <ele>574</ele>
        <time>2012-09-15T09:10:24Z</time>
      </trkpt>
      <trkpt lat="44.55083" lon="2.60695">
        <ele>587</ele>
        <time>2012-09-15T09:10:34Z</time>
      </trkpt>
      <trkpt lat="44.55091" lon="2.60687">
        <ele>577</ele>
        <time>2012-09-15T09:10:50Z</time>
      </trkpt>
      <trkpt lat="44.55099" lon="2.60676">
        <ele>574</ele>
        <time>2012-09-15T09:11:01Z</time>
      </trkpt>
      <trkpt lat="44.55105" lon="2.60666">
        <ele>575</ele>
        <time>2012-09-15T09:11:11Z</time>
      </trkpt>
      <trkpt lat="44.55108" lon="2.60658">
        <ele>571</ele>
        <time>2012-09-15T09:11:27Z</time>
      </trkpt>
      <trkpt lat="44.55111" lon="2.60647">
        <ele>577</ele>
        <time>2012-09-15T09:11:38Z</time>
      </trkpt>
      <trkpt lat="44.55115" lon="2.60635">
        <ele>580</ele>
        <time>2012-09-15T09:11:54Z</time>
      </trkpt>
      <trkpt lat="44.55117" lon="2.60633">
        <ele>580</ele>
        <time>2012-09-15T09:12:24Z</time>
      </trkpt>
      <trkpt lat="44.55117" lon="2.60622">
        <ele>580</ele>
        <time>2012-09-15T09:12:36Z</time>
      </trkpt>
      <trkpt lat="44.55116" lon="2.60609">
        <ele>582</ele>
        <time>2012-09-15T09:13:08Z</time>
      </trkpt>
      <trkpt lat="44.55118" lon="2.60601">
        <ele>587</ele>
        <time>2012-09-15T09:13:20Z</time>
      </trkpt>
      <trkpt lat="44.55116" lon="2.6059">
        <ele>579</ele>
        <time>2012-09-15T09:13:31Z</time>
      </trkpt>
      <trkpt lat="44.55113" lon="2.60578">
        <ele>579</ele>
        <time>2012-09-15T09:13:44Z</time>
      </trkpt>
      <trkpt lat="44.55112" lon="2.60567">
        <ele>582</ele>
        <time>2012-09-15T09:13:56Z</time>
      </trkpt>
      <trkpt lat="44.55113" lon="2.60548">
        <ele>582</ele>
        <time>2012-09-15T09:14:08Z</time>
      </trkpt>
      <trkpt lat="44.55115" lon="2.6053">
        <ele>579</ele>
        <time>2012-09-15T09:14:22Z</time>
      </trkpt>
      <trkpt lat="44.55113" lon="2.60518">
        <ele>593</ele>
        <time>2012-09-15T09:14:34Z</time>
      </trkpt>
      <trkpt lat="44.55116" lon="2.60505">
        <ele>599</ele>
        <time>2012-09-15T09:14:46Z</time>
      </trkpt>
      <trkpt lat="44.55119" lon="2.60498">
        <ele>592</ele>
        <time>2012-09-15T09:15:01Z</time>
      </trkpt>
      <trkpt lat="44.55119" lon="2.60485">
        <ele>597</ele>
        <time>2012-09-15T09:15:12Z</time>
      </trkpt>
      <trkpt lat="44.55117" lon="2.60468">
        <ele>600</ele>
        <time>2012-09-15T09:15:24Z</time>
      </trkpt>
      <trkpt lat="44.55117" lon="2.60449">
        <ele>597</ele>
        <time>2012-09-15T09:15:37Z</time>
      </trkpt>
      <trkpt lat="44.5512" lon="2.60438">
        <ele>595</ele>
        <time>2012-09-15T09:15:47Z</time>
      </trkpt>
      <trkpt lat="44.55124" lon="2.60426">
        <ele>593</ele>
        <time>2012-09-15T09:15:58Z</time>
      </trkpt>
      <trkpt lat="44.55124" lon="2.60413">
        <ele>598</ele>
        <time>2012-09-15T09:16:08Z</time>
      </trkpt>
      <trkpt lat="44.55131" lon="2.604">
        <ele>598</ele>
        <time>2012-09-15T09:16:21Z</time>
      </trkpt>
      <trkpt lat="44.55136" lon="2.60386">
        <ele>598</ele>
        <time>2012-09-15T09:16:32Z</time>
      </trkpt>
      <trkpt lat="44.5514" lon="2.60373">
        <ele>598</ele>
        <time>2012-09-15T09:16:44Z</time>
      </trkpt>
      <trkpt lat="44.55149" lon="2.60361">
        <ele>607</ele>
        <time>2012-09-15T09:16:55Z</time>
      </trkpt>
      <trkpt lat="44.55156" lon="2.60351">
        <ele>604</ele>
        <time>2012-09-15T09:17:08Z</time>
      </trkpt>
      <trkpt lat="44.5516" lon="2.60341">
        <ele>605</ele>
        <time>2012-09-15T09:17:20Z</time>
      </trkpt>
      <trkpt lat="44.55163" lon="2.60334">
        <ele>607</ele>
        <time>2012-09-15T09:17:34Z</time>
      </trkpt>
      <trkpt lat="44.55165" lon="2.60331">
        <ele>601</ele>
        <time>2012-09-15T09:17:45Z</time>
      </trkpt>
      <trkpt lat="44.5517" lon="2.60323">
        <ele>614</ele>
        <time>2012-09-15T09:17:57Z</time>
      </trkpt>
      <trkpt lat="44.55171" lon="2.60311">
        <ele>613</ele>
        <time>2012-09-15T09:18:08Z</time>
      </trkpt>
      <trkpt lat="44.55168" lon="2.60294">
        <ele>612</ele>
        <time>2012-09-15T09:18:20Z</time>
      </trkpt>
      <trkpt lat="44.55164" lon="2.60278">
        <ele>620</ele>
        <time>2012-09-15T09:18:33Z</time>
      </trkpt>
      <trkpt lat="44.55163" lon="2.60265">
        <ele>623</ele>
        <time>2012-09-15T09:18:43Z</time>
      </trkpt>
      <trkpt lat="44.55158" lon="2.60247">
        <ele>616</ele>
        <time>2012-09-15T09:18:54Z</time>
      </trkpt>
      <trkpt lat="44.55157" lon="2.60234">
        <ele>616</ele>
        <time>2012-09-15T09:19:04Z</time>
      </trkpt>
      <trkpt lat="44.55153" lon="2.60218">
        <ele>618</ele>
        <time>2012-09-15T09:19:14Z</time>
      </trkpt>
      <trkpt lat="44.55152" lon="2.602">
        <ele>616</ele>
        <time>2012-09-15T09:19:25Z</time>
      </trkpt>
      <trkpt lat="44.55159" lon="2.60182">
        <ele>619</ele>
        <time>2012-09-15T09:19:37Z</time>
      </trkpt>
      <trkpt lat="44.55164" lon="2.60172">
        <ele>621</ele>
        <time>2012-09-15T09:19:47Z</time>
      </trkpt>
      <trkpt lat="44.55175" lon="2.60154">
        <ele>619</ele>
        <time>2012-09-15T09:19:59Z</time>
      </trkpt>
      <trkpt lat="44.55186" lon="2.60143">
        <ele>622</ele>
        <time>2012-09-15T09:20:11Z</time>
      </trkpt>
      <trkpt lat="44.55195" lon="2.6013">
        <ele>621</ele>
        <time>2012-09-15T09:20:23Z</time>
      </trkpt>
      <trkpt lat="44.55201" lon="2.60121">
        <ele>625</ele>
        <time>2012-09-15T09:20:33Z</time>
      </trkpt>
      <trkpt lat="44.55211" lon="2.60109">
        <ele>622</ele>
        <time>2012-09-15T09:20:45Z</time>
      </trkpt>
      <trkpt lat="44.55222" lon="2.60098">
        <ele>619</ele>
        <time>2012-09-15T09:20:56Z</time>
      </trkpt>
      <trkpt lat="44.55234" lon="2.60089">
        <ele>623</ele>
        <time>2012-09-15T09:21:08Z</time>
      </trkpt>
      <trkpt lat="44.55243" lon="2.60084">
        <ele>627</ele>
        <time>2012-09-15T09:21:19Z</time>
      </trkpt>
      <trkpt lat="44.55258" lon="2.60075">
        <ele>633</ele>
        <time>2012-09-15T09:21:32Z</time>
      </trkpt>
      <trkpt lat="44.55261" lon="2.60074">
        <ele>630</ele>
        <time>2012-09-15T09:21:59Z</time>
      </trkpt>
      <trkpt lat="44.55272" lon="2.60065">
        <ele>623</ele>
        <time>2012-09-15T09:22:11Z</time>
      </trkpt>
      <trkpt lat="44.55284" lon="2.60057">
        <ele>635</ele>
        <time>2012-09-15T09:22:23Z</time>
      </trkpt>
      <trkpt lat="44.55291" lon="2.60049">
        <ele>631</ele>
        <time>2012-09-15T09:22:33Z</time>
      </trkpt>
      <trkpt lat="44.55294" lon="2.60038">
        <ele>627</ele>
        <time>2012-09-15T09:22:46Z</time>
      </trkpt>
      <trkpt lat="44.55293" lon="2.60043">
        <ele>617</ele>
        <time>2012-09-15T09:23:28Z</time>
      </trkpt>
      <trkpt lat="44.55295" lon="2.6004">
        <ele>629</ele>
        <time>2012-09-15T09:23:41Z</time>
      </trkpt>
      <trkpt lat="44.55293" lon="2.60033">
        <ele>642</ele>
        <time>2012-09-15T09:24:09Z</time>
      </trkpt>
      <trkpt lat="44.55294" lon="2.60037">
        <ele>631</ele>
        <time>2012-09-15T09:24:39Z</time>
      </trkpt>
      <trkpt lat="44.55297" lon="2.60032">
        <ele>629</ele>
        <time>2012-09-15T09:24:51Z</time>
      </trkpt>
      <trkpt lat="44.553" lon="2.60031">
        <ele>628</ele>
        <time>2012-09-15T09:25:01Z</time>
      </trkpt>
      <trkpt lat="44.55302" lon="2.60037">
        <ele>628</ele>
        <time>2012-09-15T09:25:38Z</time>
      </trkpt>
      <trkpt lat="44.5529" lon="2.60043">
        <ele>636</ele>
        <time>2012-09-15T09:25:52Z</time>
      </trkpt>
      <trkpt lat="44.55285" lon="2.60039">
        <ele>629</ele>
        <time>2012-09-15T09:26:24Z</time>
      </trkpt>
      <trkpt lat="44.55288" lon="2.60029">
        <ele>628</ele>
        <time>2012-09-15T09:26:55Z</time>
      </trkpt>
      <trkpt lat="44.55293" lon="2.60033">
        <ele>627</ele>
        <time>2012-09-15T09:27:06Z</time>
      </trkpt>
      <trkpt lat="44.553" lon="2.60038">
        <ele>629</ele>
        <time>2012-09-15T09:27:55Z</time>
      </trkpt>
      <trkpt lat="44.55294" lon="2.60038">
        <ele>629</ele>
        <time>2012-09-15T09:28:06Z</time>
      </trkpt>
      <trkpt lat="44.55297" lon="2.60037">
        <ele>617</ele>
        <time>2012-09-15T09:28:28Z</time>
      </trkpt>
      <trkpt lat="44.55294" lon="2.60038">
        <ele>629</ele>
        <time>2012-09-15T09:28:46Z</time>
      </trkpt>
      <trkpt lat="44.55293" lon="2.60047">
        <ele>629</ele>
        <time>2012-09-15T09:28:57Z</time>
      </trkpt>
      <trkpt lat="44.5526" lon="2.6006">
        <ele>674</ele>
        <time>2012-09-15T09:30:24Z</time>
      </trkpt>
      <trkpt lat="44.55275" lon="2.60036">
        <ele>635</ele>
        <time>2012-09-15T09:30:35Z</time>
      </trkpt>
      <trkpt lat="44.55281" lon="2.60037">
        <ele>629</ele>
        <time>2012-09-15T09:31:04Z</time>
      </trkpt>
      <trkpt lat="44.55288" lon="2.60038">
        <ele>629</ele>
        <time>2012-09-15T09:31:19Z</time>
      </trkpt>
      <trkpt lat="44.55291" lon="2.60038">
        <ele>636</ele>
        <time>2012-09-15T09:31:31Z</time>
      </trkpt>
      <trkpt lat="44.55296" lon="2.60035">
        <ele>646</ele>
        <time>2012-09-15T09:31:43Z</time>
      </trkpt>
      <trkpt lat="44.55302" lon="2.60031">
        <ele>630</ele>
        <time>2012-09-15T09:31:58Z</time>
      </trkpt>
      <trkpt lat="44.55312" lon="2.60022">
        <ele>631</ele>
        <time>2012-09-15T09:32:12Z</time>
      </trkpt>
      <trkpt lat="44.5532" lon="2.60014">
        <ele>642</ele>
        <time>2012-09-15T09:32:22Z</time>
      </trkpt>
      <trkpt lat="44.55324" lon="2.60004">
        <ele>637</ele>
        <time>2012-09-15T09:32:33Z</time>
      </trkpt>
      <trkpt lat="44.55328" lon="2.59998">
        <ele>630</ele>
        <time>2012-09-15T09:32:46Z</time>
      </trkpt>
      <trkpt lat="44.5534" lon="2.59992">
        <ele>640</ele>
        <time>2012-09-15T09:32:57Z</time>
      </trkpt>
      <trkpt lat="44.5535" lon="2.59987">
        <ele>639</ele>
        <time>2012-09-15T09:33:08Z</time>
      </trkpt>
      <trkpt lat="44.55362" lon="2.59982">
        <ele>642</ele>
        <time>2012-09-15T09:33:20Z</time>
      </trkpt>
      <trkpt lat="44.55371" lon="2.59978">
        <ele>646</ele>
        <time>2012-09-15T09:33:32Z</time>
      </trkpt>
      <trkpt lat="44.55373" lon="2.59975">
        <ele>654</ele>
        <time>2012-09-15T09:33:46Z</time>
      </trkpt>
      <trkpt lat="44.55376" lon="2.59961">
        <ele>652</ele>
        <time>2012-09-15T09:33:57Z</time>
      </trkpt>
      <trkpt lat="44.55381" lon="2.59943">
        <ele>641</ele>
        <time>2012-09-15T09:34:10Z</time>
      </trkpt>
      <trkpt lat="44.55391" lon="2.59934">
        <ele>639</ele>
        <time>2012-09-15T09:34:21Z</time>
      </trkpt>
      <trkpt lat="44.55405" lon="2.59933">
        <ele>639</ele>
        <time>2012-09-15T09:34:33Z</time>
      </trkpt>
      <trkpt lat="44.55418" lon="2.59925">
        <ele>640</ele>
        <time>2012-09-15T09:34:43Z</time>
      </trkpt>
      <trkpt lat="44.5543" lon="2.59919">
        <ele>648</ele>
        <time>2012-09-15T09:34:55Z</time>
      </trkpt>
      <trkpt lat="44.55442" lon="2.5991">
        <ele>642</ele>
        <time>2012-09-15T09:35:06Z</time>
      </trkpt>
      <trkpt lat="44.55454" lon="2.59903">
        <ele>641</ele>
        <time>2012-09-15T09:35:16Z</time>
      </trkpt>
      <trkpt lat="44.55467" lon="2.59899">
        <ele>639</ele>
        <time>2012-09-15T09:35:26Z</time>
      </trkpt>
      <trkpt lat="44.55477" lon="2.59892">
        <ele>641</ele>
        <time>2012-09-15T09:35:36Z</time>
      </trkpt>
      <trkpt lat="44.55486" lon="2.59885">
        <ele>647</ele>
        <time>2012-09-15T09:35:46Z</time>
      </trkpt>
      <trkpt lat="44.55498" lon="2.59879">
        <ele>651</ele>
        <time>2012-09-15T09:35:58Z</time>
      </trkpt>
      <trkpt lat="44.55511" lon="2.59873">
        <ele>649</ele>
        <time>2012-09-15T09:36:12Z</time>
      </trkpt>
      <trkpt lat="44.55524" lon="2.59863">
        <ele>651</ele>
        <time>2012-09-15T09:36:24Z</time>
      </trkpt>
      <trkpt lat="44.55539" lon="2.59853">
        <ele>647</ele>
        <time>2012-09-15T09:36:37Z</time>
      </trkpt>
      <trkpt lat="44.55552" lon="2.59845">
        <ele>655</ele>
        <time>2012-09-15T09:36:48Z</time>
      </trkpt>
      <trkpt lat="44.55565" lon="2.59842">
        <ele>646</ele>
        <time>2012-09-15T09:36:58Z</time>
      </trkpt>
      <trkpt lat="44.55575" lon="2.59835">
        <ele>653</ele>
        <time>2012-09-15T09:37:09Z</time>
      </trkpt>
      <trkpt lat="44.55587" lon="2.59828">
        <ele>651</ele>
        <time>2012-09-15T09:37:20Z</time>
      </trkpt>
      <trkpt lat="44.55598" lon="2.5982">
        <ele>652</ele>
        <time>2012-09-15T09:37:31Z</time>
      </trkpt>
      <trkpt lat="44.5561" lon="2.59812">
        <ele>651</ele>
        <time>2012-09-15T09:37:42Z</time>
      </trkpt>
      <trkpt lat="44.55616" lon="2.59811">
        <ele>653</ele>
        <time>2012-09-15T09:38:34Z</time>
      </trkpt>
      <trkpt lat="44.55626" lon="2.59813">
        <ele>652</ele>
        <time>2012-09-15T09:38:44Z</time>
      </trkpt>
      <trkpt lat="44.55638" lon="2.59814">
        <ele>653</ele>
        <time>2012-09-15T09:38:55Z</time>
      </trkpt>
      <trkpt lat="44.55651" lon="2.59814">
        <ele>654</ele>
        <time>2012-09-15T09:39:07Z</time>
      </trkpt>
      <trkpt lat="44.55668" lon="2.59812">
        <ele>654</ele>
        <time>2012-09-15T09:39:19Z</time>
      </trkpt>
      <trkpt lat="44.55682" lon="2.5981">
        <ele>650</ele>
        <time>2012-09-15T09:39:31Z</time>
      </trkpt>
      <trkpt lat="44.55693" lon="2.59807">
        <ele>654</ele>
        <time>2012-09-15T09:39:41Z</time>
      </trkpt>
      <trkpt lat="44.55706" lon="2.59805">
        <ele>655</ele>
        <time>2012-09-15T09:39:53Z</time>
      </trkpt>
      <trkpt lat="44.55718" lon="2.59801">
        <ele>663</ele>
        <time>2012-09-15T09:40:05Z</time>
      </trkpt>
      <trkpt lat="44.55732" lon="2.59801">
        <ele>669</ele>
        <time>2012-09-15T09:40:18Z</time>
      </trkpt>
      <trkpt lat="44.55741" lon="2.59801">
        <ele>658</ele>
        <time>2012-09-15T09:40:28Z</time>
      </trkpt>
      <trkpt lat="44.55751" lon="2.59799">
        <ele>663</ele>
        <time>2012-09-15T09:40:41Z</time>
      </trkpt>
      <trkpt lat="44.55771" lon="2.59792">
        <ele>661</ele>
        <time>2012-09-15T09:40:53Z</time>
      </trkpt>
      <trkpt lat="44.55786" lon="2.59792">
        <ele>667</ele>
        <time>2012-09-15T09:41:04Z</time>
      </trkpt>
      <trkpt lat="44.55795" lon="2.59789">
        <ele>669</ele>
        <time>2012-09-15T09:41:15Z</time>
      </trkpt>
      <trkpt lat="44.55807" lon="2.59787">
        <ele>662</ele>
        <time>2012-09-15T09:41:26Z</time>
      </trkpt>
      <trkpt lat="44.55824" lon="2.59781">
        <ele>663</ele>
        <time>2012-09-15T09:41:37Z</time>
      </trkpt>
      <trkpt lat="44.55837" lon="2.59779">
        <ele>658</ele>
        <time>2012-09-15T09:41:49Z</time>
      </trkpt>
      <trkpt lat="44.5585" lon="2.59775">
        <ele>668</ele>
        <time>2012-09-15T09:42:01Z</time>
      </trkpt>
      <trkpt lat="44.55864" lon="2.59775">
        <ele>673</ele>
        <time>2012-09-15T09:42:13Z</time>
      </trkpt>
      <trkpt lat="44.55876" lon="2.59776">
        <ele>677</ele>
        <time>2012-09-15T09:42:26Z</time>
      </trkpt>
      <trkpt lat="44.55889" lon="2.59775">
        <ele>673</ele>
        <time>2012-09-15T09:42:39Z</time>
      </trkpt>
      <trkpt lat="44.55902" lon="2.59773">
        <ele>670</ele>
        <time>2012-09-15T09:42:49Z</time>
      </trkpt>
      <trkpt lat="44.55919" lon="2.59774">
        <ele>680</ele>
        <time>2012-09-15T09:43:02Z</time>
      </trkpt>
      <trkpt lat="44.55933" lon="2.5978">
        <ele>682</ele>
        <time>2012-09-15T09:43:15Z</time>
      </trkpt>
      <trkpt lat="44.55948" lon="2.59787">
        <ele>676</ele>
        <time>2012-09-15T09:43:28Z</time>
      </trkpt>
      <trkpt lat="44.55963" lon="2.59793">
        <ele>681</ele>
        <time>2012-09-15T09:43:42Z</time>
      </trkpt>
      <trkpt lat="44.55973" lon="2.59801">
        <ele>679</ele>
        <time>2012-09-15T09:43:52Z</time>
      </trkpt>
      <trkpt lat="44.55985" lon="2.59807">
        <ele>678</ele>
        <time>2012-09-15T09:44:03Z</time>
      </trkpt>
      <trkpt lat="44.55994" lon="2.59818">
        <ele>680</ele>
        <time>2012-09-15T09:44:15Z</time>
      </trkpt>
      <trkpt lat="44.56005" lon="2.59827">
        <ele>686</ele>
        <time>2012-09-15T09:44:25Z</time>
      </trkpt>
      <trkpt lat="44.56021" lon="2.59836">
        <ele>681</ele>
        <time>2012-09-15T09:44:39Z</time>
      </trkpt>
      <trkpt lat="44.56036" lon="2.5984">
        <ele>686</ele>
        <time>2012-09-15T09:44:51Z</time>
      </trkpt>
      <trkpt lat="44.56047" lon="2.5984">
        <ele>684</ele>
        <time>2012-09-15T09:45:02Z</time>
      </trkpt>
      <trkpt lat="44.56056" lon="2.59837">
        <ele>682</ele>
        <time>2012-09-15T09:45:12Z</time>
      </trkpt>
      <trkpt lat="44.56068" lon="2.59835">
        <ele>688</ele>
        <time>2012-09-15T09:45:24Z</time>
      </trkpt>
      <trkpt lat="44.56078" lon="2.59834">
        <ele>690</ele>
        <time>2012-09-15T09:45:34Z</time>
      </trkpt>
      <trkpt lat="44.56089" lon="2.59835">
        <ele>688</ele>
        <time>2012-09-15T09:45:44Z</time>
      </trkpt>
      <trkpt lat="44.56105" lon="2.59835">
        <ele>681</ele>
        <time>2012-09-15T09:45:55Z</time>
      </trkpt>
      <trkpt lat="44.56119" lon="2.59841">
        <ele>681</ele>
        <time>2012-09-15T09:46:05Z</time>
      </trkpt>
      <trkpt lat="44.56129" lon="2.59853">
        <ele>684</ele>
        <time>2012-09-15T09:46:17Z</time>
      </trkpt>
      <trkpt lat="44.56144" lon="2.59859">
        <ele>677</ele>
        <time>2012-09-15T09:46:30Z</time>
      </trkpt>
      <trkpt lat="44.56155" lon="2.59871">
        <ele>684</ele>
        <time>2012-09-15T09:46:42Z</time>
      </trkpt>
      <trkpt lat="44.56162" lon="2.59888">
        <ele>691</ele>
        <time>2012-09-15T09:46:54Z</time>
      </trkpt>
      <trkpt lat="44.56172" lon="2.59902">
        <ele>680</ele>
        <time>2012-09-15T09:47:06Z</time>
      </trkpt>
      <trkpt lat="44.56179" lon="2.59915">
        <ele>677</ele>
        <time>2012-09-15T09:47:17Z</time>
      </trkpt>
      <trkpt lat="44.56188" lon="2.59926">
        <ele>682</ele>
        <time>2012-09-15T09:47:28Z</time>
      </trkpt>
      <trkpt lat="44.56202" lon="2.59933">
        <ele>678</ele>
        <time>2012-09-15T09:47:40Z</time>
      </trkpt>
      <trkpt lat="44.56214" lon="2.59935">
        <ele>676</ele>
        <time>2012-09-15T09:47:51Z</time>
      </trkpt>
      <trkpt lat="44.56224" lon="2.59935">
        <ele>671</ele>
        <time>2012-09-15T09:48:01Z</time>
      </trkpt>
      <trkpt lat="44.56236" lon="2.59929">
        <ele>679</ele>
        <time>2012-09-15T09:48:14Z</time>
      </trkpt>
      <trkpt lat="44.5625" lon="2.5993">
        <ele>678</ele>
        <time>2012-09-15T09:48:24Z</time>
      </trkpt>
      <trkpt lat="44.56261" lon="2.59935">
        <ele>683</ele>
        <time>2012-09-15T09:48:35Z</time>
      </trkpt>
      <trkpt lat="44.56268" lon="2.59932">
        <ele>675</ele>
        <time>2012-09-15T09:48:46Z</time>
      </trkpt>
      <trkpt lat="44.56276" lon="2.59923">
        <ele>679</ele>
        <time>2012-09-15T09:48:56Z</time>
      </trkpt>
      <trkpt lat="44.56287" lon="2.59903">
        <ele>680</ele>
        <time>2012-09-15T09:49:07Z</time>
      </trkpt>
      <trkpt lat="44.563" lon="2.59894">
        <ele>686</ele>
        <time>2012-09-15T09:49:19Z</time>
      </trkpt>
      <trkpt lat="44.56315" lon="2.59885">
        <ele>680</ele>
        <time>2012-09-15T09:49:30Z</time>
      </trkpt>
      <trkpt lat="44.56326" lon="2.59875">
        <ele>673</ele>
        <time>2012-09-15T09:49:42Z</time>
      </trkpt>
      <trkpt lat="44.56336" lon="2.59869">
        <ele>680</ele>
        <time>2012-09-15T09:49:52Z</time>
      </trkpt>
      <trkpt lat="44.56339" lon="2.59868">
        <ele>682</ele>
        <time>2012-09-15T09:50:07Z</time>
      </trkpt>
      <trkpt lat="44.56346" lon="2.59862">
        <ele>676</ele>
        <time>2012-09-15T09:50:18Z</time>
      </trkpt>
      <trkpt lat="44.56353" lon="2.59854">
        <ele>674</ele>
        <time>2012-09-15T09:50:28Z</time>
      </trkpt>
      <trkpt lat="44.56366" lon="2.5984">
        <ele>674</ele>
        <time>2012-09-15T09:50:39Z</time>
      </trkpt>
      <trkpt lat="44.56372" lon="2.59827">
        <ele>677</ele>
        <time>2012-09-15T09:50:52Z</time>
      </trkpt>
      <trkpt lat="44.56377" lon="2.59803">
        <ele>678</ele>
        <time>2012-09-15T09:51:05Z</time>
      </trkpt>
      <trkpt lat="44.56379" lon="2.5979">
        <ele>677</ele>
        <time>2012-09-15T09:51:17Z</time>
      </trkpt>
      <trkpt lat="44.56383" lon="2.59773">
        <ele>667</ele>
        <time>2012-09-15T09:51:30Z</time>
      </trkpt>
      <trkpt lat="44.56391" lon="2.59756">
        <ele>677</ele>
        <time>2012-09-15T09:51:42Z</time>
      </trkpt>
      <trkpt lat="44.56406" lon="2.59739">
        <ele>681</ele>
        <time>2012-09-15T09:52:08Z</time>
      </trkpt>
      <trkpt lat="44.5641" lon="2.5975">
        <ele>681</ele>
        <time>2012-09-15T09:52:19Z</time>
      </trkpt>
      <trkpt lat="44.56414" lon="2.59743">
        <ele>680</ele>
        <time>2012-09-15T09:52:30Z</time>
      </trkpt>
      <trkpt lat="44.5643" lon="2.59688">
        <ele>674</ele>
        <time>2012-09-15T09:52:41Z</time>
      </trkpt>
      <trkpt lat="44.56445" lon="2.59668">
        <ele>679</ele>
        <time>2012-09-15T09:52:51Z</time>
      </trkpt>
      <trkpt lat="44.56457" lon="2.59668">
        <ele>680</ele>
        <time>2012-09-15T09:53:03Z</time>
      </trkpt>
      <trkpt lat="44.56471" lon="2.5967">
        <ele>679</ele>
        <time>2012-09-15T09:53:16Z</time>
      </trkpt>
      <trkpt lat="44.5648" lon="2.59672">
        <ele>684</ele>
        <time>2012-09-15T09:53:26Z</time>
      </trkpt>
      <trkpt lat="44.56493" lon="2.59676">
        <ele>664</ele>
        <time>2012-09-15T09:53:38Z</time>
      </trkpt>
      <trkpt lat="44.56505" lon="2.5968">
        <ele>663</ele>
        <time>2012-09-15T09:53:49Z</time>
      </trkpt>
      <trkpt lat="44.56519" lon="2.59688">
        <ele>666</ele>
        <time>2012-09-15T09:53:59Z</time>
      </trkpt>
      <trkpt lat="44.56534" lon="2.59691">
        <ele>665</ele>
        <time>2012-09-15T09:54:09Z</time>
      </trkpt>
      <trkpt lat="44.56551" lon="2.59691">
        <ele>670</ele>
        <time>2012-09-15T09:54:20Z</time>
      </trkpt>
      <trkpt lat="44.56564" lon="2.59699">
        <ele>675</ele>
        <time>2012-09-15T09:54:33Z</time>
      </trkpt>
      <trkpt lat="44.56575" lon="2.59695">
        <ele>672</ele>
        <time>2012-09-15T09:54:43Z</time>
      </trkpt>
      <trkpt lat="44.56592" lon="2.59682">
        <ele>663</ele>
        <time>2012-09-15T09:54:57Z</time>
      </trkpt>
      <trkpt lat="44.56598" lon="2.59664">
        <ele>661</ele>
        <time>2012-09-15T09:55:09Z</time>
      </trkpt>
      <trkpt lat="44.56607" lon="2.59653">
        <ele>656</ele>
        <time>2012-09-15T09:55:21Z</time>
      </trkpt>
      <trkpt lat="44.56615" lon="2.59638">
        <ele>672</ele>
        <time>2012-09-15T09:55:34Z</time>
      </trkpt>
      <trkpt lat="44.56624" lon="2.59622">
        <ele>677</ele>
        <time>2012-09-15T09:55:45Z</time>
      </trkpt>
      <trkpt lat="44.56639" lon="2.59605">
        <ele>684</ele>
        <time>2012-09-15T09:55:56Z</time>
      </trkpt>
      <trkpt lat="44.56638" lon="2.59586">
        <ele>680</ele>
        <time>2012-09-15T09:56:08Z</time>
      </trkpt>
      <trkpt lat="44.56628" lon="2.59567">
        <ele>675</ele>
        <time>2012-09-15T09:56:21Z</time>
      </trkpt>
      <trkpt lat="44.56625" lon="2.59555">
        <ele>679</ele>
        <time>2012-09-15T09:56:32Z</time>
      </trkpt>
      <trkpt lat="44.56617" lon="2.59547">
        <ele>677</ele>
        <time>2012-09-15T09:56:43Z</time>
      </trkpt>
      <trkpt lat="44.56604" lon="2.59552">
        <ele>675</ele>
        <time>2012-09-15T09:56:54Z</time>
      </trkpt>
      <trkpt lat="44.56603" lon="2.59565">
        <ele>669</ele>
        <time>2012-09-15T09:57:05Z</time>
      </trkpt>
      <trkpt lat="44.56594" lon="2.59579">
        <ele>676</ele>
        <time>2012-09-15T09:57:16Z</time>
      </trkpt>
      <trkpt lat="44.56583" lon="2.59585">
        <ele>673</ele>
        <time>2012-09-15T09:57:30Z</time>
      </trkpt>
      <trkpt lat="44.56571" lon="2.59582">
        <ele>673</ele>
        <time>2012-09-15T09:57:42Z</time>
      </trkpt>
      <trkpt lat="44.56561" lon="2.59573">
        <ele>678</ele>
        <time>2012-09-15T09:57:54Z</time>
      </trkpt>
      <trkpt lat="44.5655" lon="2.59561">
        <ele>671</ele>
        <time>2012-09-15T09:58:05Z</time>
      </trkpt>
      <trkpt lat="44.56541" lon="2.59542">
        <ele>678</ele>
        <time>2012-09-15T09:58:16Z</time>
      </trkpt>
      <trkpt lat="44.56541" lon="2.59525">
        <ele>689</ele>
        <time>2012-09-15T09:58:28Z</time>
      </trkpt>
      <trkpt lat="44.56543" lon="2.59506">
        <ele>685</ele>
        <time>2012-09-15T09:58:41Z</time>
      </trkpt>
      <trkpt lat="44.56544" lon="2.59488">
        <ele>683</ele>
        <time>2012-09-15T09:58:52Z</time>
      </trkpt>
      <trkpt lat="44.56543" lon="2.5947">
        <ele>679</ele>
        <time>2012-09-15T09:59:04Z</time>
      </trkpt>
      <trkpt lat="44.56544" lon="2.59451">
        <ele>680</ele>
        <time>2012-09-15T09:59:16Z</time>
      </trkpt>
      <trkpt lat="44.56547" lon="2.59435">
        <ele>687</ele>
        <time>2012-09-15T09:59:27Z</time>
      </trkpt>
      <trkpt lat="44.56559" lon="2.5942">
        <ele>678</ele>
        <time>2012-09-15T09:59:38Z</time>
      </trkpt>
      <trkpt lat="44.56568" lon="2.59407">
        <ele>682</ele>
        <time>2012-09-15T09:59:51Z</time>
      </trkpt>
      <trkpt lat="44.56575" lon="2.59395">
        <ele>683</ele>
        <time>2012-09-15T10:00:01Z</time>
      </trkpt>
      <trkpt lat="44.56586" lon="2.59385">
        <ele>679</ele>
        <time>2012-09-15T10:00:13Z</time>
      </trkpt>
      <trkpt lat="44.56595" lon="2.59373">
        <ele>679</ele>
        <time>2012-09-15T10:00:24Z</time>
      </trkpt>
      <trkpt lat="44.56603" lon="2.59358">
        <ele>680</ele>
        <time>2012-09-15T10:00:35Z</time>
      </trkpt>
      <trkpt lat="44.56612" lon="2.59347">
        <ele>685</ele>
        <time>2012-09-15T10:00:45Z</time>
      </trkpt>
      <trkpt lat="44.56623" lon="2.59331">
        <ele>679</ele>
        <time>2012-09-15T10:00:59Z</time>
      </trkpt>
      <trkpt lat="44.56632" lon="2.59317">
        <ele>682</ele>
        <time>2012-09-15T10:01:11Z</time>
      </trkpt>
      <trkpt lat="44.56641" lon="2.59304">
        <ele>682</ele>
        <time>2012-09-15T10:01:23Z</time>
      </trkpt>
      <trkpt lat="44.56651" lon="2.59287">
        <ele>687</ele>
        <time>2012-09-15T10:01:36Z</time>
      </trkpt>
      <trkpt lat="44.5666" lon="2.59273">
        <ele>686</ele>
        <time>2012-09-15T10:01:47Z</time>
      </trkpt>
      <trkpt lat="44.56672" lon="2.5926">
        <ele>684</ele>
        <time>2012-09-15T10:01:59Z</time>
      </trkpt>
      <trkpt lat="44.56678" lon="2.59251">
        <ele>698</ele>
        <time>2012-09-15T10:02:09Z</time>
      </trkpt>
      <trkpt lat="44.5669" lon="2.59238">
        <ele>697</ele>
        <time>2012-09-15T10:02:20Z</time>
      </trkpt>
      <trkpt lat="44.56702" lon="2.59228">
        <ele>689</ele>
        <time>2012-09-15T10:02:32Z</time>
      </trkpt>
      <trkpt lat="44.56714" lon="2.59215">
        <ele>685</ele>
        <time>2012-09-15T10:02:45Z</time>
      </trkpt>
      <trkpt lat="44.56722" lon="2.59203">
        <ele>695</ele>
        <time>2012-09-15T10:02:56Z</time>
      </trkpt>
      <trkpt lat="44.5673" lon="2.5919">
        <ele>687</ele>
        <time>2012-09-15T10:03:07Z</time>
      </trkpt>
      <trkpt lat="44.56741" lon="2.59177">
        <ele>687</ele>
        <time>2012-09-15T10:03:19Z</time>
      </trkpt>
      <trkpt lat="44.56756" lon="2.59167">
        <ele>684</ele>
        <time>2012-09-15T10:03:30Z</time>
      </trkpt>
      <trkpt lat="44.56766" lon="2.59156">
        <ele>689</ele>
        <time>2012-09-15T10:03:42Z</time>
      </trkpt>
      <trkpt lat="44.56778" lon="2.59149">
        <ele>695</ele>
        <time>2012-09-15T10:03:55Z</time>
      </trkpt>
      <trkpt lat="44.56785" lon="2.59136">
        <ele>704</ele>
        <time>2012-09-15T10:04:07Z</time>
      </trkpt>
      <trkpt lat="44.56792" lon="2.5913">
        <ele>713</ele>
        <time>2012-09-15T10:05:49Z</time>
      </trkpt>
      <trkpt lat="44.56808" lon="2.59117">
        <ele>700</ele>
        <time>2012-09-15T10:06:02Z</time>
      </trkpt>
      <trkpt lat="44.56817" lon="2.59113">
        <ele>701</ele>
        <time>2012-09-15T10:06:12Z</time>
      </trkpt>
      <trkpt lat="44.5683" lon="2.59105">
        <ele>702</ele>
        <time>2012-09-15T10:06:24Z</time>
      </trkpt>
      <trkpt lat="44.56845" lon="2.59087">
        <ele>700</ele>
        <time>2012-09-15T10:06:39Z</time>
      </trkpt>
      <trkpt lat="44.56855" lon="2.59075">
        <ele>700</ele>
        <time>2012-09-15T10:06:49Z</time>
      </trkpt>
      <trkpt lat="44.56863" lon="2.59061">
        <ele>701</ele>
        <time>2012-09-15T10:07:00Z</time>
      </trkpt>
      <trkpt lat="44.56872" lon="2.5905">
        <ele>699</ele>
        <time>2012-09-15T10:07:13Z</time>
      </trkpt>
      <trkpt lat="44.56881" lon="2.59044">
        <ele>701</ele>
        <time>2012-09-15T10:07:24Z</time>
      </trkpt>
      <trkpt lat="44.56885" lon="2.59027">
        <ele>701</ele>
        <time>2012-09-15T10:07:34Z</time>
      </trkpt>
      <trkpt lat="44.5689" lon="2.5901">
        <ele>703</ele>
        <time>2012-09-15T10:07:44Z</time>
      </trkpt>
      <trkpt lat="44.56886" lon="2.59004">
        <ele>708</ele>
        <time>2012-09-15T10:07:57Z</time>
      </trkpt>
      <trkpt lat="44.56874" lon="2.59002">
        <ele>706</ele>
        <time>2012-09-15T10:08:08Z</time>
      </trkpt>
      <trkpt lat="44.56871" lon="2.58995">
        <ele>701</ele>
        <time>2012-09-15T10:08:20Z</time>
      </trkpt>
      <trkpt lat="44.56871" lon="2.58991">
        <ele>699</ele>
        <time>2012-09-15T10:08:51Z</time>
      </trkpt>
      <trkpt lat="44.56872" lon="2.58995">
        <ele>703</ele>
        <time>2012-09-15T10:09:50Z</time>
      </trkpt>
      <trkpt lat="44.56878" lon="2.59002">
        <ele>702</ele>
        <time>2012-09-15T10:10:07Z</time>
      </trkpt>
      <trkpt lat="44.56887" lon="2.59005">
        <ele>699</ele>
        <time>2012-09-15T10:10:21Z</time>
      </trkpt>
      <trkpt lat="44.56887" lon="2.59005">
        <ele>698</ele>
        <time>2012-09-15T10:10:34Z</time>
      </trkpt>
      <trkpt lat="44.56889" lon="2.59001">
        <ele>695</ele>
        <time>2012-09-15T10:11:06Z</time>
      </trkpt>
      <trkpt lat="44.56891" lon="2.58997">
        <ele>698</ele>
        <time>2012-09-15T10:11:34Z</time>
      </trkpt>
      <trkpt lat="44.56903" lon="2.58979">
        <ele>696</ele>
        <time>2012-09-15T10:11:46Z</time>
      </trkpt>
      <trkpt lat="44.56903" lon="2.58984">
        <ele>704</ele>
        <time>2012-09-15T10:12:12Z</time>
      </trkpt>
      <trkpt lat="44.56896" lon="2.58997">
        <ele>712</ele>
        <time>2012-09-15T10:12:24Z</time>
      </trkpt>
      <trkpt lat="44.5689" lon="2.59005">
        <ele>700</ele>
        <time>2012-09-15T10:12:37Z</time>
      </trkpt>
      <trkpt lat="44.5689" lon="2.59001">
        <ele>707</ele>
        <time>2012-09-15T10:13:08Z</time>
      </trkpt>
      <trkpt lat="44.56889" lon="2.58992">
        <ele>701</ele>
        <time>2012-09-15T10:13:24Z</time>
      </trkpt>
      <trkpt lat="44.56891" lon="2.5899">
        <ele>693</ele>
        <time>2012-09-15T10:13:57Z</time>
      </trkpt>
      <trkpt lat="44.56894" lon="2.58991">
        <ele>700</ele>
        <time>2012-09-15T10:14:08Z</time>
      </trkpt>
      <trkpt lat="44.56903" lon="2.58989">
        <ele>707</ele>
        <time>2012-09-15T10:14:29Z</time>
      </trkpt>
      <trkpt lat="44.56902" lon="2.58986">
        <ele>683</ele>
        <time>2012-09-15T10:15:05Z</time>
      </trkpt>
      <trkpt lat="44.56901" lon="2.58981">
        <ele>698</ele>
        <time>2012-09-15T10:15:26Z</time>
      </trkpt>
      <trkpt lat="44.569" lon="2.58985">
        <ele>698</ele>
        <time>2012-09-15T10:15:48Z</time>
      </trkpt>
      <trkpt lat="44.56898" lon="2.58989">
        <ele>703</ele>
        <time>2012-09-15T10:16:31Z</time>
      </trkpt>
      <trkpt lat="44.56901" lon="2.58992">
        <ele>701</ele>
        <time>2012-09-15T10:17:06Z</time>
      </trkpt>
      <trkpt lat="44.56899" lon="2.58994">
        <ele>713</ele>
        <time>2012-09-15T10:17:18Z</time>
      </trkpt>
      <trkpt lat="44.56898" lon="2.5899">
        <ele>705</ele>
        <time>2012-09-15T10:19:14Z</time>
      </trkpt>
      <trkpt lat="44.56898" lon="2.58983">
        <ele>698</ele>
        <time>2012-09-15T10:20:06Z</time>
      </trkpt>
      <trkpt lat="44.56897" lon="2.58988">
        <ele>692</ele>
        <time>2012-09-15T10:22:00Z</time>
      </trkpt>
      <trkpt lat="44.56896" lon="2.58993">
        <ele>715</ele>
        <time>2012-09-15T10:22:55Z</time>
      </trkpt>
      <trkpt lat="44.56894" lon="2.58995">
        <ele>706</ele>
        <time>2012-09-15T10:23:26Z</time>
      </trkpt>
      <trkpt lat="44.56895" lon="2.59001">
        <ele>703</ele>
        <time>2012-09-15T10:23:46Z</time>
      </trkpt>
      <trkpt lat="44.56896" lon="2.58997">
        <ele>697</ele>
        <time>2012-09-15T10:25:10Z</time>
      </trkpt>
      <trkpt lat="44.56895" lon="2.58993">
        <ele>707</ele>
        <time>2012-09-15T10:25:28Z</time>
      </trkpt>
      <trkpt lat="44.56898" lon="2.58985">
        <ele>688</ele>
        <time>2012-09-15T10:25:58Z</time>
      </trkpt>
      <trkpt lat="44.56897" lon="2.58989">
        <ele>695</ele>
        <time>2012-09-15T10:27:44Z</time>
      </trkpt>
      <trkpt lat="44.56894" lon="2.58995">
        <ele>704</ele>
        <time>2012-09-15T10:28:01Z</time>
      </trkpt>
      <trkpt lat="44.56894" lon="2.58999">
        <ele>700</ele>
        <time>2012-09-15T10:28:58Z</time>
      </trkpt>
      <trkpt lat="44.56896" lon="2.58996">
        <ele>703</ele>
        <time>2012-09-15T10:29:34Z</time>
      </trkpt>
      <trkpt lat="44.56897" lon="2.58992">
        <ele>699</ele>
        <time>2012-09-15T10:30:25Z</time>
      </trkpt>
      <trkpt lat="44.56895" lon="2.58995">
        <ele>706</ele>
        <time>2012-09-15T10:31:19Z</time>
      </trkpt>
      <trkpt lat="44.56892" lon="2.58994">
        <ele>689</ele>
        <time>2012-09-15T10:31:29Z</time>
      </trkpt>
      <trkpt lat="44.56894" lon="2.5899">
        <ele>697</ele>
        <time>2012-09-15T10:31:40Z</time>
      </trkpt>
      <trkpt lat="44.56894" lon="2.58992">
        <ele>690</ele>
        <time>2012-09-15T10:32:38Z</time>
      </trkpt>
      <trkpt lat="44.56892" lon="2.58994">
        <ele>686</ele>
        <time>2012-09-15T10:32:54Z</time>
      </trkpt>
      <trkpt lat="44.56889" lon="2.5899">
        <ele>693</ele>
        <time>2012-09-15T10:33:07Z</time>
      </trkpt>
      <trkpt lat="44.56887" lon="2.58987">
        <ele>694</ele>
        <time>2012-09-15T10:33:22Z</time>
      </trkpt>
      <trkpt lat="44.5689" lon="2.58987">
        <ele>701</ele>
        <time>2012-09-15T10:34:26Z</time>
      </trkpt>
      <trkpt lat="44.56894" lon="2.58987">
        <ele>702</ele>
        <time>2012-09-15T10:36:15Z</time>
      </trkpt>
      <trkpt lat="44.56898" lon="2.58986">
        <ele>702</ele>
        <time>2012-09-15T10:36:32Z</time>
      </trkpt>
      <trkpt lat="44.569" lon="2.5899">
        <ele>707</ele>
        <time>2012-09-15T10:36:49Z</time>
      </trkpt>
      <trkpt lat="44.56899" lon="2.58998">
        <ele>721</ele>
        <time>2012-09-15T10:37:04Z</time>
      </trkpt>
      <trkpt lat="44.56894" lon="2.59">
        <ele>706</ele>
        <time>2012-09-15T10:37:16Z</time>
      </trkpt>
      <trkpt lat="44.56895" lon="2.58995">
        <ele>702</ele>
        <time>2012-09-15T10:38:29Z</time>
      </trkpt>
      <trkpt lat="44.56897" lon="2.58985">
        <ele>703</ele>
        <time>2012-09-15T10:38:42Z</time>
      </trkpt>
      <trkpt lat="44.56898" lon="2.58976">
        <ele>706</ele>
        <time>2012-09-15T10:38:55Z</time>
      </trkpt>
      <trkpt lat="44.56894" lon="2.58984">
        <ele>703</ele>
        <time>2012-09-15T10:39:32Z</time>
      </trkpt>
      <trkpt lat="44.56889" lon="2.58992">
        <ele>699</ele>
        <time>2012-09-15T10:40:09Z</time>
      </trkpt>
      <trkpt lat="44.56889" lon="2.58999">
        <ele>712</ele>
        <time>2012-09-15T10:40:39Z</time>
      </trkpt>
      <trkpt lat="44.56895" lon="2.58998">
        <ele>710</ele>
        <time>2012-09-15T10:40:54Z</time>
      </trkpt>
      <trkpt lat="44.56896" lon="2.58994">
        <ele>709</ele>
        <time>2012-09-15T10:41:07Z</time>
      </trkpt>
      <trkpt lat="44.56897" lon="2.58991">
        <ele>705</ele>
        <time>2012-09-15T10:41:23Z</time>
      </trkpt>
      <trkpt lat="44.569" lon="2.58986">
        <ele>706</ele>
        <time>2012-09-15T10:41:44Z</time>
      </trkpt>
      <trkpt lat="44.56897" lon="2.58978">
        <ele>701</ele>
        <time>2012-09-15T10:41:54Z</time>
      </trkpt>
      <trkpt lat="44.56897" lon="2.58982">
        <ele>705</ele>
        <time>2012-09-15T10:42:24Z</time>
      </trkpt>
      <trkpt lat="44.56899" lon="2.59003">
        <ele>711</ele>
        <time>2012-09-15T10:43:05Z</time>
      </trkpt>
      <trkpt lat="44.56901" lon="2.58994">
        <ele>712</ele>
        <time>2012-09-15T10:43:16Z</time>
      </trkpt>
      <trkpt lat="44.56901" lon="2.5899">
        <ele>706</ele>
        <time>2012-09-15T10:43:32Z</time>
      </trkpt>
      <trkpt lat="44.56898" lon="2.58992">
        <ele>706</ele>
        <time>2012-09-15T10:43:51Z</time>
      </trkpt>
      <trkpt lat="44.56894" lon="2.58992">
        <ele>704</ele>
        <time>2012-09-15T10:44:20Z</time>
      </trkpt>
      <trkpt lat="44.56897" lon="2.58994">
        <ele>709</ele>
        <time>2012-09-15T10:45:21Z</time>
      </trkpt>
      <trkpt lat="44.56899" lon="2.59002">
        <ele>715</ele>
        <time>2012-09-15T10:45:46Z</time>
      </trkpt>
      <trkpt lat="44.56904" lon="2.58993">
        <ele>717</ele>
        <time>2012-09-15T10:45:59Z</time>
      </trkpt>
      <trkpt lat="44.56902" lon="2.58989">
        <ele>714</ele>
        <time>2012-09-15T10:46:11Z</time>
      </trkpt>
      <trkpt lat="44.56898" lon="2.5899">
        <ele>707</ele>
        <time>2012-09-15T10:46:23Z</time>
      </trkpt>
      <trkpt lat="44.56894" lon="2.58994">
        <ele>703</ele>
        <time>2012-09-15T10:47:42Z</time>
      </trkpt>
      <trkpt lat="44.56895" lon="2.5899">
        <ele>706</ele>
        <time>2012-09-15T10:47:59Z</time>
      </trkpt>
      <trkpt lat="44.56896" lon="2.58993">
        <ele>711</ele>
        <time>2012-09-15T10:48:17Z</time>
      </trkpt>
      <trkpt lat="44.56898" lon="2.5899">
        <ele>704</ele>
        <time>2012-09-15T10:48:36Z</time>
      </trkpt>
      <trkpt lat="44.56896" lon="2.58987">
        <ele>694</ele>
        <time>2012-09-15T10:49:10Z</time>
      </trkpt>
      <trkpt lat="44.56897" lon="2.58983">
        <ele>700</ele>
        <time>2012-09-15T10:49:57Z</time>
      </trkpt>
      <trkpt lat="44.56896" lon="2.58979">
        <ele>697</ele>
        <time>2012-09-15T10:50:08Z</time>
      </trkpt>
      <trkpt lat="44.56898" lon="2.58983">
        <ele>701</ele>
        <time>2012-09-15T10:50:45Z</time>
      </trkpt>
      <trkpt lat="44.569" lon="2.58987">
        <ele>701</ele>
        <time>2012-09-15T10:51:58Z</time>
      </trkpt>
      <trkpt lat="44.56897" lon="2.5899">
        <ele>704</ele>
        <time>2012-09-15T10:52:10Z</time>
      </trkpt>
      <trkpt lat="44.56896" lon="2.5899">
        <ele>698</ele>
        <time>2012-09-15T10:52:20Z</time>
      </trkpt>
      <trkpt lat="44.56897" lon="2.58971">
        <ele>698</ele>
        <time>2012-09-15T10:52:32Z</time>
      </trkpt>
      <trkpt lat="44.56897" lon="2.58982">
        <ele>707</ele>
        <time>2012-09-15T10:52:54Z</time>
      </trkpt>
      <trkpt lat="44.56902" lon="2.58985">
        <ele>718</ele>
        <time>2012-09-15T10:53:13Z</time>
      </trkpt>
      <trkpt lat="44.56899" lon="2.58984">
        <ele>687</ele>
        <time>2012-09-15T10:54:04Z</time>
      </trkpt>
      <trkpt lat="44.56895" lon="2.58986">
        <ele>698</ele>
        <time>2012-09-15T10:54:32Z</time>
      </trkpt>
      <trkpt lat="44.56896" lon="2.58994">
        <ele>706</ele>
        <time>2012-09-15T10:54:46Z</time>
      </trkpt>
      <trkpt lat="44.56898" lon="2.58998">
        <ele>702</ele>
        <time>2012-09-15T10:54:59Z</time>
      </trkpt>
      <trkpt lat="44.56908" lon="2.59007">
        <ele>705</ele>
        <time>2012-09-15T10:55:12Z</time>
      </trkpt>
      <trkpt lat="44.56909" lon="2.59019">
        <ele>704</ele>
        <time>2012-09-15T10:55:22Z</time>
      </trkpt>
      <trkpt lat="44.5691" lon="2.59029">
        <ele>704</ele>
        <time>2012-09-15T10:55:32Z</time>
      </trkpt>
      <trkpt lat="44.56909" lon="2.59035">
        <ele>684</ele>
        <time>2012-09-15T10:56:11Z</time>
      </trkpt>
      <trkpt lat="44.56906" lon="2.59033">
        <ele>666</ele>
        <time>2012-09-15T10:56:22Z</time>
      </trkpt>
      <trkpt lat="44.56896" lon="2.59023">
        <ele>698</ele>
        <time>2012-09-15T10:56:36Z</time>
      </trkpt>
      <trkpt lat="44.569" lon="2.59026">
        <ele>685</ele>
        <time>2012-09-15T10:57:05Z</time>
      </trkpt>
      <trkpt lat="44.56904" lon="2.59028">
        <ele>700</ele>
        <time>2012-09-15T10:57:19Z</time>
      </trkpt>
      <trkpt lat="44.56907" lon="2.5903">
        <ele>693</ele>
        <time>2012-09-15T10:58:01Z</time>
      </trkpt>
      <trkpt lat="44.56908" lon="2.59026">
        <ele>684</ele>
        <time>2012-09-15T10:58:21Z</time>
      </trkpt>
      <trkpt lat="44.56911" lon="2.59027">
        <ele>711</ele>
        <time>2012-09-15T10:58:33Z</time>
      </trkpt>
      <trkpt lat="44.56909" lon="2.59027">
        <ele>703</ele>
        <time>2012-09-15T10:59:01Z</time>
      </trkpt>
      <trkpt lat="44.56911" lon="2.59032">
        <ele>705</ele>
        <time>2012-09-15T10:59:18Z</time>
      </trkpt>
      <trkpt lat="44.56908" lon="2.59034">
        <ele>701</ele>
        <time>2012-09-15T10:59:39Z</time>
      </trkpt>
      <trkpt lat="44.56909" lon="2.59036">
        <ele>705</ele>
        <time>2012-09-15T10:59:53Z</time>
      </trkpt>
      <trkpt lat="44.56919" lon="2.59035">
        <ele>703</ele>
        <time>2012-09-15T11:00:11Z</time>
      </trkpt>
      <trkpt lat="44.56924" lon="2.59038">
        <ele>704</ele>
        <time>2012-09-15T11:00:25Z</time>
      </trkpt>
      <trkpt lat="44.56924" lon="2.59035">
        <ele>718</ele>
        <time>2012-09-15T11:00:54Z</time>
      </trkpt>
      <trkpt lat="44.56923" lon="2.59031">
        <ele>723</ele>
        <time>2012-09-15T11:01:06Z</time>
      </trkpt>
      <trkpt lat="44.56918" lon="2.59025">
        <ele>732</ele>
        <time>2012-09-15T11:01:28Z</time>
      </trkpt>
      <trkpt lat="44.56915" lon="2.5903">
        <ele>707</ele>
        <time>2012-09-15T11:02:20Z</time>
      </trkpt>
      <trkpt lat="44.56913" lon="2.59032">
        <ele>699</ele>
        <time>2012-09-15T11:03:03Z</time>
      </trkpt>
      <trkpt lat="44.56908" lon="2.5903">
        <ele>702</ele>
        <time>2012-09-15T11:03:45Z</time>
      </trkpt>
      <trkpt lat="44.56908" lon="2.59033">
        <ele>706</ele>
        <time>2012-09-15T11:04:04Z</time>
      </trkpt>
      <trkpt lat="44.56912" lon="2.59031">
        <ele>706</ele>
        <time>2012-09-15T11:04:48Z</time>
      </trkpt>
      <trkpt lat="44.56913" lon="2.59025">
        <ele>699</ele>
        <time>2012-09-15T11:07:00Z</time>
      </trkpt>
      <trkpt lat="44.56915" lon="2.59028">
        <ele>710</ele>
        <time>2012-09-15T11:07:22Z</time>
      </trkpt>
      <trkpt lat="44.56913" lon="2.59031">
        <ele>703</ele>
        <time>2012-09-15T11:08:00Z</time>
      </trkpt>
      <trkpt lat="44.5691" lon="2.59034">
        <ele>701</ele>
        <time>2012-09-15T11:08:33Z</time>
      </trkpt>
      <trkpt lat="44.56908" lon="2.59036">
        <ele>696</ele>
        <time>2012-09-15T11:08:49Z</time>
      </trkpt>
      <trkpt lat="44.56905" lon="2.59034">
        <ele>705</ele>
        <time>2012-09-15T11:11:54Z</time>
      </trkpt>
      <trkpt lat="44.56908" lon="2.59036">
        <ele>703</ele>
        <time>2012-09-15T11:12:18Z</time>
      </trkpt>
      <trkpt lat="44.5691" lon="2.5904">
        <ele>695</ele>
        <time>2012-09-15T11:13:33Z</time>
      </trkpt>
      <trkpt lat="44.5691" lon="2.59044">
        <ele>680</ele>
        <time>2012-09-15T11:14:18Z</time>
      </trkpt>
      <trkpt lat="44.56908" lon="2.59041">
        <ele>667</ele>
        <time>2012-09-15T11:14:34Z</time>
      </trkpt>
      <trkpt lat="44.56905" lon="2.59033">
        <ele>689</ele>
        <time>2012-09-15T11:15:09Z</time>
      </trkpt>
      <trkpt lat="44.56902" lon="2.59035">
        <ele>705</ele>
        <time>2012-09-15T11:15:30Z</time>
      </trkpt>
      <trkpt lat="44.56892" lon="2.59026">
        <ele>707</ele>
        <time>2012-09-15T11:16:39Z</time>
      </trkpt>
      <trkpt lat="44.56895" lon="2.5903">
        <ele>694</ele>
        <time>2012-09-15T11:17:01Z</time>
      </trkpt>
      <trkpt lat="44.56898" lon="2.5903">
        <ele>686</ele>
        <time>2012-09-15T11:17:39Z</time>
      </trkpt>
      <trkpt lat="44.56902" lon="2.5903">
        <ele>712</ele>
        <time>2012-09-15T11:17:51Z</time>
      </trkpt>
      <trkpt lat="44.5691" lon="2.59029">
        <ele>707</ele>
        <time>2012-09-15T11:18:03Z</time>
      </trkpt>
      <trkpt lat="44.56907" lon="2.59027">
        <ele>692</ele>
        <time>2012-09-15T11:18:31Z</time>
      </trkpt>
      <trkpt lat="44.56905" lon="2.59024">
        <ele>703</ele>
        <time>2012-09-15T11:18:42Z</time>
      </trkpt>
      <trkpt lat="44.56909" lon="2.59029">
        <ele>724</ele>
        <time>2012-09-15T11:19:08Z</time>
      </trkpt>
      <trkpt lat="44.56906" lon="2.59029">
        <ele>711</ele>
        <time>2012-09-15T11:19:46Z</time>
      </trkpt>
      <trkpt lat="44.56909" lon="2.59031">
        <ele>710</ele>
        <time>2012-09-15T11:24:18Z</time>
      </trkpt>
      <trkpt lat="44.56912" lon="2.59032">
        <ele>707</ele>
        <time>2012-09-15T11:24:56Z</time>
      </trkpt>
      <trkpt lat="44.56909" lon="2.59033">
        <ele>704</ele>
        <time>2012-09-15T11:25:08Z</time>
      </trkpt>
      <trkpt lat="44.56909" lon="2.59036">
        <ele>710</ele>
        <time>2012-09-15T11:25:24Z</time>
      </trkpt>
      <trkpt lat="44.56906" lon="2.59032">
        <ele>698</ele>
        <time>2012-09-15T11:25:48Z</time>
      </trkpt>
      <trkpt lat="44.56903" lon="2.59031">
        <ele>710</ele>
        <time>2012-09-15T11:26:08Z</time>
      </trkpt>
      <trkpt lat="44.56906" lon="2.59013">
        <ele>710</ele>
        <time>2012-09-15T11:26:21Z</time>
      </trkpt>
      <trkpt lat="44.56907" lon="2.59">
        <ele>706</ele>
        <time>2012-09-15T11:26:31Z</time>
      </trkpt>
      <trkpt lat="44.56912" lon="2.58984">
        <ele>702</ele>
        <time>2012-09-15T11:26:44Z</time>
      </trkpt>
      <trkpt lat="44.56915" lon="2.58966">
        <ele>707</ele>
        <time>2012-09-15T11:26:54Z</time>
      </trkpt>
      <trkpt lat="44.56919" lon="2.5895">
        <ele>705</ele>
        <time>2012-09-15T11:27:04Z</time>
      </trkpt>
      <trkpt lat="44.56919" lon="2.58931">
        <ele>708</ele>
        <time>2012-09-15T11:27:16Z</time>
      </trkpt>
      <trkpt lat="44.56917" lon="2.58917">
        <ele>704</ele>
        <time>2012-09-15T11:27:26Z</time>
      </trkpt>
      <trkpt lat="44.56928" lon="2.58902">
        <ele>703</ele>
        <time>2012-09-15T11:27:39Z</time>
      </trkpt>
      <trkpt lat="44.56935" lon="2.58885">
        <ele>704</ele>
        <time>2012-09-15T11:27:52Z</time>
      </trkpt>
      <trkpt lat="44.56945" lon="2.58872">
        <ele>705</ele>
        <time>2012-09-15T11:28:04Z</time>
      </trkpt>
      <trkpt lat="44.56955" lon="2.5886">
        <ele>704</ele>
        <time>2012-09-15T11:28:16Z</time>
      </trkpt>
      <trkpt lat="44.56966" lon="2.58849">
        <ele>702</ele>
        <time>2012-09-15T11:28:28Z</time>
      </trkpt>
      <trkpt lat="44.56982" lon="2.58843">
        <ele>705</ele>
        <time>2012-09-15T11:28:40Z</time>
      </trkpt>
      <trkpt lat="44.56993" lon="2.58836">
        <ele>705</ele>
        <time>2012-09-15T11:28:52Z</time>
      </trkpt>
      <trkpt lat="44.57002" lon="2.5883">
        <ele>703</ele>
        <time>2012-09-15T11:29:03Z</time>
      </trkpt>
      <trkpt lat="44.57013" lon="2.58823">
        <ele>707</ele>
        <time>2012-09-15T11:29:15Z</time>
      </trkpt>
      <trkpt lat="44.57025" lon="2.58817">
        <ele>704</ele>
        <time>2012-09-15T11:29:26Z</time>
      </trkpt>
      <trkpt lat="44.57035" lon="2.58807">
        <ele>706</ele>
        <time>2012-09-15T11:29:38Z</time>
      </trkpt>
      <trkpt lat="44.57041" lon="2.58804">
        <ele>708</ele>
        <time>2012-09-15T11:29:51Z</time>
      </trkpt>
      <trkpt lat="44.57051" lon="2.58799">
        <ele>705</ele>
        <time>2012-09-15T11:30:02Z</time>
      </trkpt>
      <trkpt lat="44.57057" lon="2.58778">
        <ele>712</ele>
        <time>2012-09-15T11:30:14Z</time>
      </trkpt>
      <trkpt lat="44.57066" lon="2.58763">
        <ele>712</ele>
        <time>2012-09-15T11:30:25Z</time>
      </trkpt>
      <trkpt lat="44.57067" lon="2.58732">
        <ele>703</ele>
        <time>2012-09-15T11:30:36Z</time>
      </trkpt>
      <trkpt lat="44.57067" lon="2.58714">
        <ele>701</ele>
        <time>2012-09-15T11:30:49Z</time>
      </trkpt>
      <trkpt lat="44.57069" lon="2.58696">
        <ele>697</ele>
        <time>2012-09-15T11:31:02Z</time>
      </trkpt>
      <trkpt lat="44.57072" lon="2.58674">
        <ele>701</ele>
        <time>2012-09-15T11:31:14Z</time>
      </trkpt>
      <trkpt lat="44.57081" lon="2.5866">
        <ele>709</ele>
        <time>2012-09-15T11:31:24Z</time>
      </trkpt>
      <trkpt lat="44.57085" lon="2.58642">
        <ele>701</ele>
        <time>2012-09-15T11:31:37Z</time>
      </trkpt>
      <trkpt lat="44.57087" lon="2.5863">
        <ele>693</ele>
        <time>2012-09-15T11:31:48Z</time>
      </trkpt>
      <trkpt lat="44.5709" lon="2.58613">
        <ele>706</ele>
        <time>2012-09-15T11:32:00Z</time>
      </trkpt>
      <trkpt lat="44.57098" lon="2.58598">
        <ele>709</ele>
        <time>2012-09-15T11:32:10Z</time>
      </trkpt>
      <trkpt lat="44.57102" lon="2.58586">
        <ele>704</ele>
        <time>2012-09-15T11:32:20Z</time>
      </trkpt>
      <trkpt lat="44.57109" lon="2.58567">
        <ele>708</ele>
        <time>2012-09-15T11:32:32Z</time>
      </trkpt>
      <trkpt lat="44.57117" lon="2.58552">
        <ele>708</ele>
        <time>2012-09-15T11:32:44Z</time>
      </trkpt>
      <trkpt lat="44.57122" lon="2.58535">
        <ele>707</ele>
        <time>2012-09-15T11:32:56Z</time>
      </trkpt>
      <trkpt lat="44.57129" lon="2.5852">
        <ele>713</ele>
        <time>2012-09-15T11:33:06Z</time>
      </trkpt>
      <trkpt lat="44.57138" lon="2.5851">
        <ele>711</ele>
        <time>2012-09-15T11:33:18Z</time>
      </trkpt>
      <trkpt lat="44.57143" lon="2.58493">
        <ele>713</ele>
        <time>2012-09-15T11:33:31Z</time>
      </trkpt>
      <trkpt lat="44.57151" lon="2.58475">
        <ele>710</ele>
        <time>2012-09-15T11:33:42Z</time>
      </trkpt>
      <trkpt lat="44.57159" lon="2.58458">
        <ele>711</ele>
        <time>2012-09-15T11:33:55Z</time>
      </trkpt>
      <trkpt lat="44.57164" lon="2.58441">
        <ele>708</ele>
        <time>2012-09-15T11:34:06Z</time>
      </trkpt>
      <trkpt lat="44.57167" lon="2.58423">
        <ele>712</ele>
        <time>2012-09-15T11:34:17Z</time>
      </trkpt>
      <trkpt lat="44.5717" lon="2.58405">
        <ele>713</ele>
        <time>2012-09-15T11:34:29Z</time>
      </trkpt>
      <trkpt lat="44.57172" lon="2.58386">
        <ele>712</ele>
        <time>2012-09-15T11:34:41Z</time>
      </trkpt>
      <trkpt lat="44.57175" lon="2.58367">
        <ele>714</ele>
        <time>2012-09-15T11:34:53Z</time>
      </trkpt>
      <trkpt lat="44.57175" lon="2.58349">
        <ele>704</ele>
        <time>2012-09-15T11:35:05Z</time>
      </trkpt>
      <trkpt lat="44.57176" lon="2.58328">
        <ele>703</ele>
        <time>2012-09-15T11:35:17Z</time>
      </trkpt>
      <trkpt lat="44.57179" lon="2.58306">
        <ele>707</ele>
        <time>2012-09-15T11:35:29Z</time>
      </trkpt>
      <trkpt lat="44.57183" lon="2.58286">
        <ele>707</ele>
        <time>2012-09-15T11:35:41Z</time>
      </trkpt>
      <trkpt lat="44.57187" lon="2.58272">
        <ele>700</ele>
        <time>2012-09-15T11:35:51Z</time>
      </trkpt>
      <trkpt lat="44.57191" lon="2.58254">
        <ele>707</ele>
        <time>2012-09-15T11:36:03Z</time>
      </trkpt>
      <trkpt lat="44.57197" lon="2.58236">
        <ele>704</ele>
        <time>2012-09-15T11:36:15Z</time>
      </trkpt>
      <trkpt lat="44.57201" lon="2.58219">
        <ele>702</ele>
        <time>2012-09-15T11:36:27Z</time>
      </trkpt>
      <trkpt lat="44.57208" lon="2.58204">
        <ele>703</ele>
        <time>2012-09-15T11:36:38Z</time>
      </trkpt>
      <trkpt lat="44.57213" lon="2.58189">
        <ele>710</ele>
        <time>2012-09-15T11:36:48Z</time>
      </trkpt>
      <trkpt lat="44.57218" lon="2.58169">
        <ele>709</ele>
        <time>2012-09-15T11:37:00Z</time>
      </trkpt>
      <trkpt lat="44.57222" lon="2.58152">
        <ele>711</ele>
        <time>2012-09-15T11:37:10Z</time>
      </trkpt>
      <trkpt lat="44.57228" lon="2.58136">
        <ele>711</ele>
        <time>2012-09-15T11:37:20Z</time>
      </trkpt>
      <trkpt lat="44.57232" lon="2.58117">
        <ele>712</ele>
        <time>2012-09-15T11:37:31Z</time>
      </trkpt>
      <trkpt lat="44.57236" lon="2.581">
        <ele>709</ele>
        <time>2012-09-15T11:37:43Z</time>
      </trkpt>
      <trkpt lat="44.57239" lon="2.58078">
        <ele>710</ele>
        <time>2012-09-15T11:37:54Z</time>
      </trkpt>
      <trkpt lat="44.57246" lon="2.58063">
        <ele>705</ele>
        <time>2012-09-15T11:38:06Z</time>
      </trkpt>
      <trkpt lat="44.57255" lon="2.58047">
        <ele>706</ele>
        <time>2012-09-15T11:38:19Z</time>
      </trkpt>
      <trkpt lat="44.57259" lon="2.58029">
        <ele>707</ele>
        <time>2012-09-15T11:38:31Z</time>
      </trkpt>
      <trkpt lat="44.57267" lon="2.58008">
        <ele>706</ele>
        <time>2012-09-15T11:38:44Z</time>
      </trkpt>
      <trkpt lat="44.57274" lon="2.57993">
        <ele>708</ele>
        <time>2012-09-15T11:38:55Z</time>
      </trkpt>
      <trkpt lat="44.57281" lon="2.57977">
        <ele>710</ele>
        <time>2012-09-15T11:39:06Z</time>
      </trkpt>
      <trkpt lat="44.57286" lon="2.57966">
        <ele>709</ele>
        <time>2012-09-15T11:39:16Z</time>
      </trkpt>
      <trkpt lat="44.57294" lon="2.57951">
        <ele>708</ele>
        <time>2012-09-15T11:39:26Z</time>
      </trkpt>
      <trkpt lat="44.57299" lon="2.57934">
        <ele>709</ele>
        <time>2012-09-15T11:39:38Z</time>
      </trkpt>
      <trkpt lat="44.57304" lon="2.57918">
        <ele>708</ele>
        <time>2012-09-15T11:39:49Z</time>
      </trkpt>
      <trkpt lat="44.57311" lon="2.57901">
        <ele>710</ele>
        <time>2012-09-15T11:40:01Z</time>
      </trkpt>
      <trkpt lat="44.57318" lon="2.57885">
        <ele>707</ele>
        <time>2012-09-15T11:40:12Z</time>
      </trkpt>
      <trkpt lat="44.57324" lon="2.57863">
        <ele>713</ele>
        <time>2012-09-15T11:40:25Z</time>
      </trkpt>
      <trkpt lat="44.57332" lon="2.57844">
        <ele>712</ele>
        <time>2012-09-15T11:40:37Z</time>
      </trkpt>
      <trkpt lat="44.5734" lon="2.57826">
        <ele>707</ele>
        <time>2012-09-15T11:40:48Z</time>
      </trkpt>
      <trkpt lat="44.57345" lon="2.57809">
        <ele>707</ele>
        <time>2012-09-15T11:40:58Z</time>
      </trkpt>
      <trkpt lat="44.57355" lon="2.57787">
        <ele>704</ele>
        <time>2012-09-15T11:41:10Z</time>
      </trkpt>
      <trkpt lat="44.57361" lon="2.57774">
        <ele>700</ele>
        <time>2012-09-15T11:41:20Z</time>
      </trkpt>
      <trkpt lat="44.57368" lon="2.57759">
        <ele>701</ele>
        <time>2012-09-15T11:41:32Z</time>
      </trkpt>
      <trkpt lat="44.57374" lon="2.57744">
        <ele>707</ele>
        <time>2012-09-15T11:41:42Z</time>
      </trkpt>
      <trkpt lat="44.57381" lon="2.57722">
        <ele>700</ele>
        <time>2012-09-15T11:41:54Z</time>
      </trkpt>
      <trkpt lat="44.57388" lon="2.57704">
        <ele>702</ele>
        <time>2012-09-15T11:42:06Z</time>
      </trkpt>
      <trkpt lat="44.57395" lon="2.5769">
        <ele>705</ele>
        <time>2012-09-15T11:42:18Z</time>
      </trkpt>
      <trkpt lat="44.57402" lon="2.57677">
        <ele>704</ele>
        <time>2012-09-15T11:42:30Z</time>
      </trkpt>
      <trkpt lat="44.57408" lon="2.57661">
        <ele>705</ele>
        <time>2012-09-15T11:42:41Z</time>
      </trkpt>
      <trkpt lat="44.57407" lon="2.57655">
        <ele>709</ele>
        <time>2012-09-15T11:42:53Z</time>
      </trkpt>
      <trkpt lat="44.57403" lon="2.57638">
        <ele>711</ele>
        <time>2012-09-15T11:43:04Z</time>
      </trkpt>
      <trkpt lat="44.57398" lon="2.57619">
        <ele>715</ele>
        <time>2012-09-15T11:43:16Z</time>
      </trkpt>
      <trkpt lat="44.5739" lon="2.57602">
        <ele>714</ele>
        <time>2012-09-15T11:43:29Z</time>
      </trkpt>
      <trkpt lat="44.57382" lon="2.57586">
        <ele>712</ele>
        <time>2012-09-15T11:43:41Z</time>
      </trkpt>
      <trkpt lat="44.5737" lon="2.57569">
        <ele>713</ele>
        <time>2012-09-15T11:43:54Z</time>
      </trkpt>
      <trkpt lat="44.5736" lon="2.57553">
        <ele>709</ele>
        <time>2012-09-15T11:44:06Z</time>
      </trkpt>
      <trkpt lat="44.57354" lon="2.57536">
        <ele>710</ele>
        <time>2012-09-15T11:44:18Z</time>
      </trkpt>
      <trkpt lat="44.57346" lon="2.57521">
        <ele>711</ele>
        <time>2012-09-15T11:44:29Z</time>
      </trkpt>
      <trkpt lat="44.57336" lon="2.57509">
        <ele>707</ele>
        <time>2012-09-15T11:44:41Z</time>
      </trkpt>
      <trkpt lat="44.57325" lon="2.57491">
        <ele>711</ele>
        <time>2012-09-15T11:44:53Z</time>
      </trkpt>
      <trkpt lat="44.57319" lon="2.57474">
        <ele>710</ele>
        <time>2012-09-15T11:45:05Z</time>
      </trkpt>
      <trkpt lat="44.5731" lon="2.57458">
        <ele>716</ele>
        <time>2012-09-15T11:45:16Z</time>
      </trkpt>
      <trkpt lat="44.57302" lon="2.57437">
        <ele>711</ele>
        <time>2012-09-15T11:45:28Z</time>
      </trkpt>
      <trkpt lat="44.57296" lon="2.5742">
        <ele>708</ele>
        <time>2012-09-15T11:45:39Z</time>
      </trkpt>
      <trkpt lat="44.57289" lon="2.57403">
        <ele>709</ele>
        <time>2012-09-15T11:45:50Z</time>
      </trkpt>
      <trkpt lat="44.57282" lon="2.57388">
        <ele>708</ele>
        <time>2012-09-15T11:46:01Z</time>
      </trkpt>
      <trkpt lat="44.57273" lon="2.57371">
        <ele>708</ele>
        <time>2012-09-15T11:46:12Z</time>
      </trkpt>
      <trkpt lat="44.57268" lon="2.57354">
        <ele>705</ele>
        <time>2012-09-15T11:46:24Z</time>
      </trkpt>
      <trkpt lat="44.57259" lon="2.5734">
        <ele>710</ele>
        <time>2012-09-15T11:46:34Z</time>
      </trkpt>
      <trkpt lat="44.5725" lon="2.57327">
        <ele>711</ele>
        <time>2012-09-15T11:46:45Z</time>
      </trkpt>
      <trkpt lat="44.5724" lon="2.57307">
        <ele>712</ele>
        <time>2012-09-15T11:46:58Z</time>
      </trkpt>
      <trkpt lat="44.5723" lon="2.57289">
        <ele>712</ele>
        <time>2012-09-15T11:47:10Z</time>
      </trkpt>
      <trkpt lat="44.57222" lon="2.57274">
        <ele>713</ele>
        <time>2012-09-15T11:47:21Z</time>
      </trkpt>
      <trkpt lat="44.57216" lon="2.57255">
        <ele>711</ele>
        <time>2012-09-15T11:47:38Z</time>
      </trkpt>
      <trkpt lat="44.57216" lon="2.57235">
        <ele>713</ele>
        <time>2012-09-15T11:47:50Z</time>
      </trkpt>
      <trkpt lat="44.57211" lon="2.57213">
        <ele>723</ele>
        <time>2012-09-15T11:48:02Z</time>
      </trkpt>
      <trkpt lat="44.57205" lon="2.57197">
        <ele>712</ele>
        <time>2012-09-15T11:48:12Z</time>
      </trkpt>
      <trkpt lat="44.57203" lon="2.5718">
        <ele>714</ele>
        <time>2012-09-15T11:48:23Z</time>
      </trkpt>
      <trkpt lat="44.57195" lon="2.57159">
        <ele>711</ele>
        <time>2012-09-15T11:48:35Z</time>
      </trkpt>
      <trkpt lat="44.57182" lon="2.57147">
        <ele>706</ele>
        <time>2012-09-15T11:48:47Z</time>
      </trkpt>
      <trkpt lat="44.57169" lon="2.57138">
        <ele>710</ele>
        <time>2012-09-15T11:48:58Z</time>
      </trkpt>
      <trkpt lat="44.57157" lon="2.57124">
        <ele>710</ele>
        <time>2012-09-15T11:49:10Z</time>
      </trkpt>
      <trkpt lat="44.57143" lon="2.57115">
        <ele>705</ele>
        <time>2012-09-15T11:49:22Z</time>
      </trkpt>
      <trkpt lat="44.57132" lon="2.57101">
        <ele>711</ele>
        <time>2012-09-15T11:49:33Z</time>
      </trkpt>
      <trkpt lat="44.57119" lon="2.5709">
        <ele>707</ele>
        <time>2012-09-15T11:49:45Z</time>
      </trkpt>
      <trkpt lat="44.57108" lon="2.57079">
        <ele>706</ele>
        <time>2012-09-15T11:49:57Z</time>
      </trkpt>
      <trkpt lat="44.57098" lon="2.57068">
        <ele>711</ele>
        <time>2012-09-15T11:50:07Z</time>
      </trkpt>
      <trkpt lat="44.57086" lon="2.57054">
        <ele>703</ele>
        <time>2012-09-15T11:50:18Z</time>
      </trkpt>
      <trkpt lat="44.57077" lon="2.57041">
        <ele>705</ele>
        <time>2012-09-15T11:50:29Z</time>
      </trkpt>
      <trkpt lat="44.57066" lon="2.57028">
        <ele>701</ele>
        <time>2012-09-15T11:50:39Z</time>
      </trkpt>
      <trkpt lat="44.57058" lon="2.57009">
        <ele>703</ele>
        <time>2012-09-15T11:50:52Z</time>
      </trkpt>
      <trkpt lat="44.57049" lon="2.56994">
        <ele>701</ele>
        <time>2012-09-15T11:51:04Z</time>
      </trkpt>
      <trkpt lat="44.57037" lon="2.56976">
        <ele>703</ele>
        <time>2012-09-15T11:51:16Z</time>
      </trkpt>
      <trkpt lat="44.57034" lon="2.56952">
        <ele>693</ele>
        <time>2012-09-15T11:51:29Z</time>
      </trkpt>
      <trkpt lat="44.57045" lon="2.56939">
        <ele>703</ele>
        <time>2012-09-15T11:51:40Z</time>
      </trkpt>
      <trkpt lat="44.57051" lon="2.56928">
        <ele>699</ele>
        <time>2012-09-15T11:51:50Z</time>
      </trkpt>
      <trkpt lat="44.5706" lon="2.56913">
        <ele>708</ele>
        <time>2012-09-15T11:52:02Z</time>
      </trkpt>
      <trkpt lat="44.57072" lon="2.56895">
        <ele>706</ele>
        <time>2012-09-15T11:52:14Z</time>
      </trkpt>
      <trkpt lat="44.57082" lon="2.56882">
        <ele>704</ele>
        <time>2012-09-15T11:52:25Z</time>
      </trkpt>
      <trkpt lat="44.57089" lon="2.56871">
        <ele>701</ele>
        <time>2012-09-15T11:52:35Z</time>
      </trkpt>
      <trkpt lat="44.57094" lon="2.56853">
        <ele>700</ele>
        <time>2012-09-15T11:52:46Z</time>
      </trkpt>
      <trkpt lat="44.57101" lon="2.56832">
        <ele>699</ele>
        <time>2012-09-15T11:52:58Z</time>
      </trkpt>
      <trkpt lat="44.57104" lon="2.56815">
        <ele>699</ele>
        <time>2012-09-15T11:53:10Z</time>
      </trkpt>
      <trkpt lat="44.5711" lon="2.56792">
        <ele>700</ele>
        <time>2012-09-15T11:53:23Z</time>
      </trkpt>
      <trkpt lat="44.57115" lon="2.56773">
        <ele>699</ele>
        <time>2012-09-15T11:53:34Z</time>
      </trkpt>
      <trkpt lat="44.57117" lon="2.56751">
        <ele>702</ele>
        <time>2012-09-15T11:53:46Z</time>
      </trkpt>
      <trkpt lat="44.57118" lon="2.56731">
        <ele>702</ele>
        <time>2012-09-15T11:54:09Z</time>
      </trkpt>
      <trkpt lat="44.57124" lon="2.56713">
        <ele>699</ele>
        <time>2012-09-15T11:54:20Z</time>
      </trkpt>
      <trkpt lat="44.57125" lon="2.56694">
        <ele>698</ele>
        <time>2012-09-15T11:54:30Z</time>
      </trkpt>
      <trkpt lat="44.57124" lon="2.56675">
        <ele>701</ele>
        <time>2012-09-15T11:54:44Z</time>
      </trkpt>
      <trkpt lat="44.57124" lon="2.56657">
        <ele>700</ele>
        <time>2012-09-15T11:54:55Z</time>
      </trkpt>
      <trkpt lat="44.57125" lon="2.56656">
        <ele>691</ele>
        <time>2012-09-15T11:55:08Z</time>
      </trkpt>
      <trkpt lat="44.57129" lon="2.56665">
        <ele>696</ele>
        <time>2012-09-15T11:55:18Z</time>
      </trkpt>
      <trkpt lat="44.57137" lon="2.5668">
        <ele>695</ele>
        <time>2012-09-15T11:55:30Z</time>
      </trkpt>
      <trkpt lat="44.57146" lon="2.56693">
        <ele>692</ele>
        <time>2012-09-15T11:55:41Z</time>
      </trkpt>
      <trkpt lat="44.57156" lon="2.567">
        <ele>695</ele>
        <time>2012-09-15T11:55:54Z</time>
      </trkpt>
      <trkpt lat="44.57168" lon="2.56698">
        <ele>696</ele>
        <time>2012-09-15T11:56:06Z</time>
      </trkpt>
      <trkpt lat="44.57181" lon="2.56693">
        <ele>702</ele>
        <time>2012-09-15T11:56:17Z</time>
      </trkpt>
      <trkpt lat="44.57195" lon="2.56685">
        <ele>697</ele>
        <time>2012-09-15T11:56:28Z</time>
      </trkpt>
      <trkpt lat="44.57208" lon="2.56681">
        <ele>693</ele>
        <time>2012-09-15T11:56:38Z</time>
      </trkpt>
      <trkpt lat="44.57221" lon="2.5668">
        <ele>693</ele>
        <time>2012-09-15T11:56:49Z</time>
      </trkpt>
      <trkpt lat="44.57233" lon="2.56677">
        <ele>681</ele>
        <time>2012-09-15T11:57:00Z</time>
      </trkpt>
      <trkpt lat="44.57246" lon="2.56674">
        <ele>684</ele>
        <time>2012-09-15T11:57:11Z</time>
      </trkpt>
      <trkpt lat="44.57262" lon="2.56663">
        <ele>691</ele>
        <time>2012-09-15T11:57:24Z</time>
      </trkpt>
      <trkpt lat="44.57272" lon="2.56651">
        <ele>693</ele>
        <time>2012-09-15T11:57:37Z</time>
      </trkpt>
      <trkpt lat="44.57282" lon="2.56639">
        <ele>684</ele>
        <time>2012-09-15T11:57:47Z</time>
      </trkpt>
      <trkpt lat="44.57297" lon="2.56626">
        <ele>687</ele>
        <time>2012-09-15T11:57:58Z</time>
      </trkpt>
      <trkpt lat="44.57313" lon="2.56623">
        <ele>683</ele>
        <time>2012-09-15T11:58:11Z</time>
      </trkpt>
      <trkpt lat="44.57326" lon="2.56629">
        <ele>672</ele>
        <time>2012-09-15T11:58:21Z</time>
      </trkpt>
      <trkpt lat="44.57337" lon="2.56635">
        <ele>681</ele>
        <time>2012-09-15T11:58:32Z</time>
      </trkpt>
      <trkpt lat="44.57348" lon="2.5662">
        <ele>681</ele>
        <time>2012-09-15T11:58:44Z</time>
      </trkpt>
      <trkpt lat="44.57355" lon="2.56603">
        <ele>686</ele>
        <time>2012-09-15T11:58:55Z</time>
      </trkpt>
      <trkpt lat="44.57358" lon="2.56585">
        <ele>681</ele>
        <time>2012-09-15T11:59:10Z</time>
      </trkpt>
      <trkpt lat="44.57361" lon="2.56573">
        <ele>682</ele>
        <time>2012-09-15T11:59:20Z</time>
      </trkpt>
      <trkpt lat="44.57364" lon="2.56559">
        <ele>680</ele>
        <time>2012-09-15T11:59:30Z</time>
      </trkpt>
      <trkpt lat="44.57367" lon="2.56542">
        <ele>676</ele>
        <time>2012-09-15T11:59:43Z</time>
      </trkpt>
      <trkpt lat="44.5737" lon="2.56522">
        <ele>686</ele>
        <time>2012-09-15T11:59:55Z</time>
      </trkpt>
      <trkpt lat="44.5737" lon="2.56503">
        <ele>684</ele>
        <time>2012-09-15T12:00:08Z</time>
      </trkpt>
      <trkpt lat="44.57373" lon="2.56482">
        <ele>688</ele>
        <time>2012-09-15T12:00:19Z</time>
      </trkpt>
      <trkpt lat="44.57376" lon="2.56464">
        <ele>684</ele>
        <time>2012-09-15T12:00:31Z</time>
      </trkpt>
      <trkpt lat="44.57377" lon="2.56442">
        <ele>668</ele>
        <time>2012-09-15T12:00:43Z</time>
      </trkpt>
      <trkpt lat="44.57378" lon="2.56424">
        <ele>663</ele>
        <time>2012-09-15T12:00:56Z</time>
      </trkpt>
      <trkpt lat="44.57381" lon="2.56402">
        <ele>672</ele>
        <time>2012-09-15T12:01:07Z</time>
      </trkpt>
      <trkpt lat="44.57399" lon="2.56389">
        <ele>677</ele>
        <time>2012-09-15T12:01:19Z</time>
      </trkpt>
      <trkpt lat="44.57412" lon="2.56374">
        <ele>674</ele>
        <time>2012-09-15T12:01:33Z</time>
      </trkpt>
      <trkpt lat="44.57423" lon="2.56363">
        <ele>677</ele>
        <time>2012-09-15T12:01:45Z</time>
      </trkpt>
      <trkpt lat="44.57435" lon="2.56351">
        <ele>679</ele>
        <time>2012-09-15T12:01:55Z</time>
      </trkpt>
      <trkpt lat="44.57443" lon="2.56337">
        <ele>680</ele>
        <time>2012-09-15T12:02:06Z</time>
      </trkpt>
      <trkpt lat="44.57452" lon="2.56323">
        <ele>674</ele>
        <time>2012-09-15T12:02:17Z</time>
      </trkpt>
      <trkpt lat="44.57457" lon="2.56304">
        <ele>668</ele>
        <time>2012-09-15T12:02:29Z</time>
      </trkpt>
      <trkpt lat="44.57462" lon="2.56286">
        <ele>668</ele>
        <time>2012-09-15T12:02:41Z</time>
      </trkpt>
      <trkpt lat="44.57471" lon="2.56272">
        <ele>675</ele>
        <time>2012-09-15T12:02:53Z</time>
      </trkpt>
      <trkpt lat="44.57479" lon="2.56256">
        <ele>670</ele>
        <time>2012-09-15T12:03:05Z</time>
      </trkpt>
      <trkpt lat="44.57488" lon="2.56245">
        <ele>666</ele>
        <time>2012-09-15T12:03:16Z</time>
      </trkpt>
      <trkpt lat="44.575" lon="2.56236">
        <ele>670</ele>
        <time>2012-09-15T12:03:26Z</time>
      </trkpt>
      <trkpt lat="44.57508" lon="2.56221">
        <ele>664</ele>
        <time>2012-09-15T12:03:38Z</time>
      </trkpt>
      <trkpt lat="44.57516" lon="2.56206">
        <ele>663</ele>
        <time>2012-09-15T12:03:50Z</time>
      </trkpt>
      <trkpt lat="44.57521" lon="2.56186">
        <ele>657</ele>
        <time>2012-09-15T12:04:02Z</time>
      </trkpt>
      <trkpt lat="44.57527" lon="2.5617">
        <ele>654</ele>
        <time>2012-09-15T12:04:12Z</time>
      </trkpt>
      <trkpt lat="44.57536" lon="2.56154">
        <ele>657</ele>
        <time>2012-09-15T12:04:23Z</time>
      </trkpt>
      <trkpt lat="44.57541" lon="2.56138">
        <ele>653</ele>
        <time>2012-09-15T12:04:33Z</time>
      </trkpt>
      <trkpt lat="44.57545" lon="2.56127">
        <ele>657</ele>
        <time>2012-09-15T12:04:46Z</time>
      </trkpt>
      <trkpt lat="44.57547" lon="2.56108">
        <ele>663</ele>
        <time>2012-09-15T12:04:58Z</time>
      </trkpt>
      <trkpt lat="44.5755" lon="2.56091">
        <ele>661</ele>
        <time>2012-09-15T12:05:11Z</time>
      </trkpt>
      <trkpt lat="44.57555" lon="2.56076">
        <ele>657</ele>
        <time>2012-09-15T12:05:23Z</time>
      </trkpt>
      <trkpt lat="44.57566" lon="2.56065">
        <ele>664</ele>
        <time>2012-09-15T12:05:36Z</time>
      </trkpt>
      <trkpt lat="44.57574" lon="2.56057">
        <ele>668</ele>
        <time>2012-09-15T12:05:46Z</time>
      </trkpt>
      <trkpt lat="44.57584" lon="2.56046">
        <ele>659</ele>
        <time>2012-09-15T12:05:58Z</time>
      </trkpt>
      <trkpt lat="44.57595" lon="2.56036">
        <ele>668</ele>
        <time>2012-09-15T12:06:09Z</time>
      </trkpt>
      <trkpt lat="44.57603" lon="2.56027">
        <ele>669</ele>
        <time>2012-09-15T12:06:19Z</time>
      </trkpt>
      <trkpt lat="44.57612" lon="2.56013">
        <ele>668</ele>
        <time>2012-09-15T12:06:30Z</time>
      </trkpt>
      <trkpt lat="44.57621" lon="2.55998">
        <ele>673</ele>
        <time>2012-09-15T12:06:42Z</time>
      </trkpt>
      <trkpt lat="44.57625" lon="2.55987">
        <ele>669</ele>
        <time>2012-09-15T12:06:52Z</time>
      </trkpt>
      <trkpt lat="44.57635" lon="2.55979">
        <ele>668</ele>
        <time>2012-09-15T12:07:02Z</time>
      </trkpt>
      <trkpt lat="44.57641" lon="2.55963">
        <ele>673</ele>
        <time>2012-09-15T12:07:13Z</time>
      </trkpt>
      <trkpt lat="44.57645" lon="2.55944">
        <ele>674</ele>
        <time>2012-09-15T12:07:24Z</time>
      </trkpt>
      <trkpt lat="44.5765" lon="2.55927">
        <ele>668</ele>
        <time>2012-09-15T12:07:35Z</time>
      </trkpt>
      <trkpt lat="44.5765" lon="2.55909">
        <ele>669</ele>
        <time>2012-09-15T12:07:46Z</time>
      </trkpt>
      <trkpt lat="44.57642" lon="2.55899">
        <ele>667</ele>
        <time>2012-09-15T12:07:58Z</time>
      </trkpt>
      <trkpt lat="44.57633" lon="2.55891">
        <ele>666</ele>
        <time>2012-09-15T12:08:08Z</time>
      </trkpt>
      <trkpt lat="44.5762" lon="2.55882">
        <ele>678</ele>
        <time>2012-09-15T12:08:20Z</time>
      </trkpt>
      <trkpt lat="44.57605" lon="2.55872">
        <ele>678</ele>
        <time>2012-09-15T12:08:32Z</time>
      </trkpt>
      <trkpt lat="44.57596" lon="2.55861">
        <ele>678</ele>
        <time>2012-09-15T12:08:44Z</time>
      </trkpt>
      <trkpt lat="44.57589" lon="2.55842">
        <ele>673</ele>
        <time>2012-09-15T12:08:56Z</time>
      </trkpt>
      <trkpt lat="44.57588" lon="2.55822">
        <ele>672</ele>
        <time>2012-09-15T12:09:07Z</time>
      </trkpt>
      <trkpt lat="44.57591" lon="2.55804">
        <ele>679</ele>
        <time>2012-09-15T12:09:18Z</time>
      </trkpt>
      <trkpt lat="44.57602" lon="2.55791">
        <ele>683</ele>
        <time>2012-09-15T12:09:29Z</time>
      </trkpt>
      <trkpt lat="44.57605" lon="2.5579">
        <ele>673</ele>
        <time>2012-09-15T12:09:47Z</time>
      </trkpt>
      <trkpt lat="44.57613" lon="2.55785">
        <ele>670</ele>
        <time>2012-09-15T12:09:58Z</time>
      </trkpt>
      <trkpt lat="44.57624" lon="2.55778">
        <ele>667</ele>
        <time>2012-09-15T12:10:11Z</time>
      </trkpt>
      <trkpt lat="44.57629" lon="2.55777">
        <ele>673</ele>
        <time>2012-09-15T12:10:23Z</time>
      </trkpt>
      <trkpt lat="44.57624" lon="2.55769">
        <ele>661</ele>
        <time>2012-09-15T12:11:12Z</time>
      </trkpt>
      <trkpt lat="44.57632" lon="2.55763">
        <ele>668</ele>
        <time>2012-09-15T12:11:24Z</time>
      </trkpt>
      <trkpt lat="44.57639" lon="2.55762">
        <ele>661</ele>
        <time>2012-09-15T12:11:34Z</time>
      </trkpt>
      <trkpt lat="44.57647" lon="2.55754">
        <ele>665</ele>
        <time>2012-09-15T12:11:44Z</time>
      </trkpt>
      <trkpt lat="44.57654" lon="2.55739">
        <ele>667</ele>
        <time>2012-09-15T12:11:55Z</time>
      </trkpt>
      <trkpt lat="44.5766" lon="2.55729">
        <ele>679</ele>
        <time>2012-09-15T12:12:06Z</time>
      </trkpt>
      <trkpt lat="44.57665" lon="2.55711">
        <ele>673</ele>
        <time>2012-09-15T12:12:18Z</time>
      </trkpt>
      <trkpt lat="44.57671" lon="2.55692">
        <ele>672</ele>
        <time>2012-09-15T12:12:30Z</time>
      </trkpt>
      <trkpt lat="44.57676" lon="2.55672">
        <ele>677</ele>
        <time>2012-09-15T12:12:41Z</time>
      </trkpt>
      <trkpt lat="44.57678" lon="2.55654">
        <ele>669</ele>
        <time>2012-09-15T12:12:52Z</time>
      </trkpt>
      <trkpt lat="44.5768" lon="2.55636">
        <ele>677</ele>
        <time>2012-09-15T12:13:04Z</time>
      </trkpt>
      <trkpt lat="44.57675" lon="2.55617">
        <ele>667</ele>
        <time>2012-09-15T12:13:15Z</time>
      </trkpt>
      <trkpt lat="44.57673" lon="2.55599">
        <ele>671</ele>
        <time>2012-09-15T12:13:26Z</time>
      </trkpt>
      <trkpt lat="44.57669" lon="2.55578">
        <ele>669</ele>
        <time>2012-09-15T12:13:38Z</time>
      </trkpt>
      <trkpt lat="44.57669" lon="2.5556">
        <ele>670</ele>
        <time>2012-09-15T12:13:49Z</time>
      </trkpt>
      <trkpt lat="44.57668" lon="2.5554">
        <ele>673</ele>
        <time>2012-09-15T12:14:01Z</time>
      </trkpt>
      <trkpt lat="44.57665" lon="2.55522">
        <ele>672</ele>
        <time>2012-09-15T12:14:11Z</time>
      </trkpt>
      <trkpt lat="44.57661" lon="2.555">
        <ele>675</ele>
        <time>2012-09-15T12:14:24Z</time>
      </trkpt>
      <trkpt lat="44.57657" lon="2.55482">
        <ele>668</ele>
        <time>2012-09-15T12:14:35Z</time>
      </trkpt>
      <trkpt lat="44.57653" lon="2.5547">
        <ele>667</ele>
        <time>2012-09-15T12:14:47Z</time>
      </trkpt>
      <trkpt lat="44.57655" lon="2.55453">
        <ele>664</ele>
        <time>2012-09-15T12:14:58Z</time>
      </trkpt>
      <trkpt lat="44.57659" lon="2.55436">
        <ele>668</ele>
        <time>2012-09-15T12:15:09Z</time>
      </trkpt>
      <trkpt lat="44.57661" lon="2.55413">
        <ele>670</ele>
        <time>2012-09-15T12:15:21Z</time>
      </trkpt>
      <trkpt lat="44.57663" lon="2.55396">
        <ele>678</ele>
        <time>2012-09-15T12:15:31Z</time>
      </trkpt>
      <trkpt lat="44.57668" lon="2.55374">
        <ele>678</ele>
        <time>2012-09-15T12:15:44Z</time>
      </trkpt>
      <trkpt lat="44.57672" lon="2.55352">
        <ele>677</ele>
        <time>2012-09-15T12:15:56Z</time>
      </trkpt>
      <trkpt lat="44.57674" lon="2.55328">
        <ele>670</ele>
        <time>2012-09-15T12:16:08Z</time>
      </trkpt>
      <trkpt lat="44.5768" lon="2.55313">
        <ele>663</ele>
        <time>2012-09-15T12:16:20Z</time>
      </trkpt>
      <trkpt lat="44.5769" lon="2.55302">
        <ele>678</ele>
        <time>2012-09-15T12:16:32Z</time>
      </trkpt>
      <trkpt lat="44.57701" lon="2.55288">
        <ele>681</ele>
        <time>2012-09-15T12:16:44Z</time>
      </trkpt>
      <trkpt lat="44.57706" lon="2.55272">
        <ele>684</ele>
        <time>2012-09-15T12:16:57Z</time>
      </trkpt>
      <trkpt lat="44.57711" lon="2.55257">
        <ele>683</ele>
        <time>2012-09-15T12:17:08Z</time>
      </trkpt>
      <trkpt lat="44.57712" lon="2.55239">
        <ele>675</ele>
        <time>2012-09-15T12:17:18Z</time>
      </trkpt>
      <trkpt lat="44.5772" lon="2.55225">
        <ele>678</ele>
        <time>2012-09-15T12:17:29Z</time>
      </trkpt>
      <trkpt lat="44.57721" lon="2.55212">
        <ele>681</ele>
        <time>2012-09-15T12:17:48Z</time>
      </trkpt>
      <trkpt lat="44.57725" lon="2.55204">
        <ele>678</ele>
        <time>2012-09-15T12:18:00Z</time>
      </trkpt>
      <trkpt lat="44.57731" lon="2.55186">
        <ele>678</ele>
        <time>2012-09-15T12:18:12Z</time>
      </trkpt>
      <trkpt lat="44.57737" lon="2.55169">
        <ele>678</ele>
        <time>2012-09-15T12:18:23Z</time>
      </trkpt>
      <trkpt lat="44.57748" lon="2.55159">
        <ele>675</ele>
        <time>2012-09-15T12:18:35Z</time>
      </trkpt>
      <trkpt lat="44.57752" lon="2.5516">
        <ele>669</ele>
        <time>2012-09-15T12:19:38Z</time>
      </trkpt>
      <trkpt lat="44.57751" lon="2.55164">
        <ele>676</ele>
        <time>2012-09-15T12:20:22Z</time>
      </trkpt>
      <trkpt lat="44.57759" lon="2.55171">
        <ele>666</ele>
        <time>2012-09-15T12:20:33Z</time>
      </trkpt>
      <trkpt lat="44.57765" lon="2.55173">
        <ele>671</ele>
        <time>2012-09-15T12:20:43Z</time>
      </trkpt>
      <trkpt lat="44.57775" lon="2.55175">
        <ele>670</ele>
        <time>2012-09-15T12:20:53Z</time>
      </trkpt>
      <trkpt lat="44.57786" lon="2.55181">
        <ele>665</ele>
        <time>2012-09-15T12:21:03Z</time>
      </trkpt>
      <trkpt lat="44.57801" lon="2.55188">
        <ele>668</ele>
        <time>2012-09-15T12:21:16Z</time>
      </trkpt>
      <trkpt lat="44.57804" lon="2.5519">
        <ele>668</ele>
        <time>2012-09-15T12:22:15Z</time>
      </trkpt>
      <trkpt lat="44.57817" lon="2.55191">
        <ele>669</ele>
        <time>2012-09-15T12:22:28Z</time>
      </trkpt>
      <trkpt lat="44.5783" lon="2.55189">
        <ele>667</ele>
        <time>2012-09-15T12:22:38Z</time>
      </trkpt>
      <trkpt lat="44.57844" lon="2.55186">
        <ele>665</ele>
        <time>2012-09-15T12:22:50Z</time>
      </trkpt>
      <trkpt lat="44.57856" lon="2.5518">
        <ele>664</ele>
        <time>2012-09-15T12:23:01Z</time>
      </trkpt>
      <trkpt lat="44.57866" lon="2.55178">
        <ele>662</ele>
        <time>2012-09-15T12:23:11Z</time>
      </trkpt>
      <trkpt lat="44.57882" lon="2.55173">
        <ele>668</ele>
        <time>2012-09-15T12:23:24Z</time>
      </trkpt>
      <trkpt lat="44.57895" lon="2.55171">
        <ele>666</ele>
        <time>2012-09-15T12:23:37Z</time>
      </trkpt>
      <trkpt lat="44.57911" lon="2.55169">
        <ele>666</ele>
        <time>2012-09-15T12:23:49Z</time>
      </trkpt>
      <trkpt lat="44.57923" lon="2.55167">
        <ele>662</ele>
        <time>2012-09-15T12:24:03Z</time>
      </trkpt>
      <trkpt lat="44.57932" lon="2.55166">
        <ele>658</ele>
        <time>2012-09-15T12:24:13Z</time>
      </trkpt>
      <trkpt lat="44.57946" lon="2.5516">
        <ele>668</ele>
        <time>2012-09-15T12:24:25Z</time>
      </trkpt>
      <trkpt lat="44.57959" lon="2.5516">
        <ele>668</ele>
        <time>2012-09-15T12:24:37Z</time>
      </trkpt>
      <trkpt lat="44.57972" lon="2.55162">
        <ele>665</ele>
        <time>2012-09-15T12:24:49Z</time>
      </trkpt>
      <trkpt lat="44.57976" lon="2.55162">
        <ele>669</ele>
        <time>2012-09-15T12:25:03Z</time>
      </trkpt>
      <trkpt lat="44.57987" lon="2.55171">
        <ele>668</ele>
        <time>2012-09-15T12:25:15Z</time>
      </trkpt>
      <trkpt lat="44.57993" lon="2.55173">
        <ele>666</ele>
        <time>2012-09-15T12:25:26Z</time>
      </trkpt>
      <trkpt lat="44.58008" lon="2.55182">
        <ele>667</ele>
        <time>2012-09-15T12:25:38Z</time>
      </trkpt>
      <trkpt lat="44.5802" lon="2.5519">
        <ele>666</ele>
        <time>2012-09-15T12:25:49Z</time>
      </trkpt>
      <trkpt lat="44.58031" lon="2.552">
        <ele>668</ele>
        <time>2012-09-15T12:25:59Z</time>
      </trkpt>
      <trkpt lat="44.58044" lon="2.5521">
        <ele>663</ele>
        <time>2012-09-15T12:26:11Z</time>
      </trkpt>
      <trkpt lat="44.58055" lon="2.5522">
        <ele>666</ele>
        <time>2012-09-15T12:26:22Z</time>
      </trkpt>
      <trkpt lat="44.5807" lon="2.55223">
        <ele>668</ele>
        <time>2012-09-15T12:26:34Z</time>
      </trkpt>
      <trkpt lat="44.58083" lon="2.55214">
        <ele>670</ele>
        <time>2012-09-15T12:26:46Z</time>
      </trkpt>
      <trkpt lat="44.58097" lon="2.55202">
        <ele>664</ele>
        <time>2012-09-15T12:26:58Z</time>
      </trkpt>
      <trkpt lat="44.58108" lon="2.55191">
        <ele>662</ele>
        <time>2012-09-15T12:27:10Z</time>
      </trkpt>
      <trkpt lat="44.58121" lon="2.55182">
        <ele>662</ele>
        <time>2012-09-15T12:27:21Z</time>
      </trkpt>
      <trkpt lat="44.58133" lon="2.55173">
        <ele>662</ele>
        <time>2012-09-15T12:27:32Z</time>
      </trkpt>
      <trkpt lat="44.58144" lon="2.55163">
        <ele>662</ele>
        <time>2012-09-15T12:27:43Z</time>
      </trkpt>
      <trkpt lat="44.58155" lon="2.55155">
        <ele>665</ele>
        <time>2012-09-15T12:27:55Z</time>
      </trkpt>
      <trkpt lat="44.58171" lon="2.55145">
        <ele>663</ele>
        <time>2012-09-15T12:28:08Z</time>
      </trkpt>
      <trkpt lat="44.58175" lon="2.55149">
        <ele>665</ele>
        <time>2012-09-15T12:28:19Z</time>
      </trkpt>
      <trkpt lat="44.58188" lon="2.5515">
        <ele>670</ele>
        <time>2012-09-15T12:28:32Z</time>
      </trkpt>
      <trkpt lat="44.58201" lon="2.55151">
        <ele>675</ele>
        <time>2012-09-15T12:28:44Z</time>
      </trkpt>
      <trkpt lat="44.58212" lon="2.55156">
        <ele>685</ele>
        <time>2012-09-15T12:28:56Z</time>
      </trkpt>
      <trkpt lat="44.58221" lon="2.5516">
        <ele>676</ele>
        <time>2012-09-15T12:29:07Z</time>
      </trkpt>
      <trkpt lat="44.58233" lon="2.55164">
        <ele>672</ele>
        <time>2012-09-15T12:29:19Z</time>
      </trkpt>
      <trkpt lat="44.58245" lon="2.55169">
        <ele>665</ele>
        <time>2012-09-15T12:29:30Z</time>
      </trkpt>
      <trkpt lat="44.58255" lon="2.55179">
        <ele>669</ele>
        <time>2012-09-15T12:29:41Z</time>
      </trkpt>
      <trkpt lat="44.58266" lon="2.55192">
        <ele>668</ele>
        <time>2012-09-15T12:29:53Z</time>
      </trkpt>
      <trkpt lat="44.58277" lon="2.55201">
        <ele>675</ele>
        <time>2012-09-15T12:30:03Z</time>
      </trkpt>
      <trkpt lat="44.5829" lon="2.55204">
        <ele>673</ele>
        <time>2012-09-15T12:30:14Z</time>
      </trkpt>
      <trkpt lat="44.583" lon="2.55201">
        <ele>670</ele>
        <time>2012-09-15T12:30:24Z</time>
      </trkpt>
      <trkpt lat="44.58312" lon="2.55199">
        <ele>668</ele>
        <time>2012-09-15T12:30:35Z</time>
      </trkpt>
      <trkpt lat="44.58325" lon="2.55196">
        <ele>667</ele>
        <time>2012-09-15T12:30:48Z</time>
      </trkpt>
      <trkpt lat="44.58331" lon="2.55194">
        <ele>654</ele>
        <time>2012-09-15T12:30:58Z</time>
      </trkpt>
      <trkpt lat="44.58337" lon="2.55195">
        <ele>660</ele>
        <time>2012-09-15T12:31:12Z</time>
      </trkpt>
      <trkpt lat="44.58338" lon="2.55192">
        <ele>664</ele>
        <time>2012-09-15T12:31:47Z</time>
      </trkpt>
      <trkpt lat="44.58345" lon="2.55191">
        <ele>665</ele>
        <time>2012-09-15T12:31:57Z</time>
      </trkpt>
      <trkpt lat="44.58344" lon="2.55191">
        <ele>665</ele>
        <time>2012-09-15T12:32:16Z</time>
      </trkpt>
      <trkpt lat="44.58342" lon="2.55192">
        <ele>662</ele>
        <time>2012-09-15T12:32:27Z</time>
      </trkpt>
      <trkpt lat="44.58347" lon="2.55187">
        <ele>663</ele>
        <time>2012-09-15T12:32:37Z</time>
      </trkpt>
      <trkpt lat="44.5835" lon="2.55187">
        <ele>670</ele>
        <time>2012-09-15T12:33:00Z</time>
      </trkpt>
      <trkpt lat="44.58362" lon="2.55178">
        <ele>670</ele>
        <time>2012-09-15T12:33:10Z</time>
      </trkpt>
      <trkpt lat="44.58365" lon="2.55165">
        <ele>664</ele>
        <time>2012-09-15T12:33:22Z</time>
      </trkpt>
      <trkpt lat="44.5837" lon="2.55154">
        <ele>666</ele>
        <time>2012-09-15T12:33:33Z</time>
      </trkpt>
      <trkpt lat="44.58374" lon="2.5514">
        <ele>667</ele>
        <time>2012-09-15T12:33:45Z</time>
      </trkpt>
      <trkpt lat="44.58382" lon="2.55125">
        <ele>673</ele>
        <time>2012-09-15T12:33:55Z</time>
      </trkpt>
      <trkpt lat="44.58387" lon="2.55109">
        <ele>671</ele>
        <time>2012-09-15T12:34:08Z</time>
      </trkpt>
      <trkpt lat="44.58397" lon="2.55091">
        <ele>666</ele>
        <time>2012-09-15T12:34:21Z</time>
      </trkpt>
      <trkpt lat="44.58404" lon="2.55076">
        <ele>659</ele>
        <time>2012-09-15T12:34:32Z</time>
      </trkpt>
      <trkpt lat="44.58412" lon="2.5506">
        <ele>663</ele>
        <time>2012-09-15T12:34:44Z</time>
      </trkpt>
      <trkpt lat="44.58421" lon="2.55046">
        <ele>653</ele>
        <time>2012-09-15T12:34:57Z</time>
      </trkpt>
      <trkpt lat="44.58428" lon="2.55037">
        <ele>664</ele>
        <time>2012-09-15T12:35:07Z</time>
      </trkpt>
      <trkpt lat="44.58434" lon="2.55019">
        <ele>670</ele>
        <time>2012-09-15T12:35:19Z</time>
      </trkpt>
      <trkpt lat="44.58438" lon="2.54998">
        <ele>659</ele>
        <time>2012-09-15T12:35:30Z</time>
      </trkpt>
      <trkpt lat="44.58441" lon="2.54981">
        <ele>669</ele>
        <time>2012-09-15T12:35:40Z</time>
      </trkpt>
      <trkpt lat="44.58449" lon="2.54966">
        <ele>664</ele>
        <time>2012-09-15T12:35:50Z</time>
      </trkpt>
      <trkpt lat="44.5846" lon="2.54955">
        <ele>662</ele>
        <time>2012-09-15T12:36:02Z</time>
      </trkpt>
      <trkpt lat="44.58475" lon="2.54944">
        <ele>666</ele>
        <time>2012-09-15T12:36:14Z</time>
      </trkpt>
      <trkpt lat="44.58488" lon="2.5494">
        <ele>663</ele>
        <time>2012-09-15T12:36:24Z</time>
      </trkpt>
      <trkpt lat="44.58501" lon="2.54939">
        <ele>669</ele>
        <time>2012-09-15T12:36:35Z</time>
      </trkpt>
      <trkpt lat="44.58515" lon="2.54939">
        <ele>669</ele>
        <time>2012-09-15T12:36:47Z</time>
      </trkpt>
      <trkpt lat="44.58527" lon="2.54943">
        <ele>658</ele>
        <time>2012-09-15T12:36:59Z</time>
      </trkpt>
      <trkpt lat="44.58533" lon="2.54959">
        <ele>661</ele>
        <time>2012-09-15T12:37:13Z</time>
      </trkpt>
      <trkpt lat="44.58543" lon="2.54971">
        <ele>665</ele>
        <time>2012-09-15T12:37:25Z</time>
      </trkpt>
      <trkpt lat="44.58556" lon="2.54975">
        <ele>667</ele>
        <time>2012-09-15T12:37:35Z</time>
      </trkpt>
      <trkpt lat="44.58566" lon="2.54975">
        <ele>666</ele>
        <time>2012-09-15T12:37:45Z</time>
      </trkpt>
      <trkpt lat="44.58578" lon="2.54977">
        <ele>667</ele>
        <time>2012-09-15T12:37:57Z</time>
      </trkpt>
      <trkpt lat="44.58592" lon="2.54977">
        <ele>664</ele>
        <time>2012-09-15T12:38:11Z</time>
      </trkpt>
      <trkpt lat="44.58605" lon="2.54979">
        <ele>663</ele>
        <time>2012-09-15T12:38:23Z</time>
      </trkpt>
      <trkpt lat="44.58617" lon="2.54982">
        <ele>660</ele>
        <time>2012-09-15T12:38:36Z</time>
      </trkpt>
      <trkpt lat="44.58625" lon="2.54981">
        <ele>661</ele>
        <time>2012-09-15T12:38:51Z</time>
      </trkpt>
      <trkpt lat="44.58622" lon="2.54982">
        <ele>672</ele>
        <time>2012-09-15T12:39:10Z</time>
      </trkpt>
      <trkpt lat="44.58623" lon="2.54985">
        <ele>667</ele>
        <time>2012-09-15T12:39:29Z</time>
      </trkpt>
      <trkpt lat="44.58631" lon="2.5498">
        <ele>657</ele>
        <time>2012-09-15T12:39:41Z</time>
      </trkpt>
      <trkpt lat="44.58645" lon="2.54965">
        <ele>653</ele>
        <time>2012-09-15T12:39:54Z</time>
      </trkpt>
      <trkpt lat="44.58656" lon="2.5496">
        <ele>659</ele>
        <time>2012-09-15T12:40:06Z</time>
      </trkpt>
      <trkpt lat="44.58666" lon="2.54956">
        <ele>673</ele>
        <time>2012-09-15T12:40:19Z</time>
      </trkpt>
      <trkpt lat="44.58676" lon="2.54948">
        <ele>676</ele>
        <time>2012-09-15T12:40:29Z</time>
      </trkpt>
      <trkpt lat="44.58686" lon="2.54929">
        <ele>661</ele>
        <time>2012-09-15T12:40:40Z</time>
      </trkpt>
      <trkpt lat="44.58692" lon="2.54915">
        <ele>660</ele>
        <time>2012-09-15T12:40:51Z</time>
      </trkpt>
      <trkpt lat="44.5869" lon="2.54911">
        <ele>664</ele>
        <time>2012-09-15T12:41:05Z</time>
      </trkpt>
      <trkpt lat="44.58696" lon="2.54903">
        <ele>667</ele>
        <time>2012-09-15T12:41:29Z</time>
      </trkpt>
      <trkpt lat="44.58699" lon="2.54904">
        <ele>670</ele>
        <time>2012-09-15T12:42:34Z</time>
      </trkpt>
      <trkpt lat="44.58703" lon="2.54907">
        <ele>662</ele>
        <time>2012-09-15T12:43:27Z</time>
      </trkpt>
      <trkpt lat="44.58717" lon="2.54897">
        <ele>664</ele>
        <time>2012-09-15T12:43:40Z</time>
      </trkpt>
      <trkpt lat="44.58728" lon="2.5489">
        <ele>660</ele>
        <time>2012-09-15T12:43:52Z</time>
      </trkpt>
      <trkpt lat="44.58741" lon="2.54884">
        <ele>660</ele>
        <time>2012-09-15T12:44:05Z</time>
      </trkpt>
      <trkpt lat="44.58752" lon="2.54873">
        <ele>663</ele>
        <time>2012-09-15T12:44:17Z</time>
      </trkpt>
      <trkpt lat="44.58765" lon="2.54865">
        <ele>667</ele>
        <time>2012-09-15T12:44:28Z</time>
      </trkpt>
      <trkpt lat="44.58777" lon="2.54858">
        <ele>658</ele>
        <time>2012-09-15T12:44:39Z</time>
      </trkpt>
      <trkpt lat="44.5879" lon="2.54852">
        <ele>663</ele>
        <time>2012-09-15T12:44:51Z</time>
      </trkpt>
      <trkpt lat="44.58802" lon="2.54847">
        <ele>667</ele>
        <time>2012-09-15T12:45:03Z</time>
      </trkpt>
      <trkpt lat="44.58816" lon="2.54844">
        <ele>667</ele>
        <time>2012-09-15T12:45:16Z</time>
      </trkpt>
      <trkpt lat="44.58828" lon="2.5484">
        <ele>668</ele>
        <time>2012-09-15T12:45:28Z</time>
      </trkpt>
      <trkpt lat="44.58841" lon="2.54836">
        <ele>670</ele>
        <time>2012-09-15T12:45:41Z</time>
      </trkpt>
      <trkpt lat="44.5885" lon="2.54832">
        <ele>672</ele>
        <time>2012-09-15T12:45:51Z</time>
      </trkpt>
      <trkpt lat="44.58862" lon="2.54826">
        <ele>671</ele>
        <time>2012-09-15T12:46:03Z</time>
      </trkpt>
      <trkpt lat="44.58875" lon="2.54821">
        <ele>671</ele>
        <time>2012-09-15T12:46:15Z</time>
      </trkpt>
      <trkpt lat="44.58885" lon="2.54816">
        <ele>669</ele>
        <time>2012-09-15T12:46:25Z</time>
      </trkpt>
      <trkpt lat="44.58898" lon="2.5481">
        <ele>669</ele>
        <time>2012-09-15T12:46:37Z</time>
      </trkpt>
      <trkpt lat="44.5891" lon="2.54804">
        <ele>673</ele>
        <time>2012-09-15T12:46:49Z</time>
      </trkpt>
      <trkpt lat="44.58921" lon="2.54797">
        <ele>666</ele>
        <time>2012-09-15T12:47:00Z</time>
      </trkpt>
      <trkpt lat="44.58934" lon="2.54792">
        <ele>669</ele>
        <time>2012-09-15T12:47:12Z</time>
      </trkpt>
      <trkpt lat="44.58937" lon="2.5479">
        <ele>662</ele>
        <time>2012-09-15T12:47:30Z</time>
      </trkpt>
      <trkpt lat="44.5895" lon="2.54796">
        <ele>681</ele>
        <time>2012-09-15T12:47:42Z</time>
      </trkpt>
      <trkpt lat="44.58961" lon="2.54802">
        <ele>680</ele>
        <time>2012-09-15T12:48:18Z</time>
      </trkpt>
      <trkpt lat="44.58965" lon="2.54814">
        <ele>678</ele>
        <time>2012-09-15T12:48:29Z</time>
      </trkpt>
      <trkpt lat="44.58977" lon="2.5482">
        <ele>678</ele>
        <time>2012-09-15T12:48:40Z</time>
      </trkpt>
      <trkpt lat="44.58986" lon="2.54827">
        <ele>683</ele>
        <time>2012-09-15T12:48:50Z</time>
      </trkpt>
      <trkpt lat="44.58999" lon="2.54831">
        <ele>684</ele>
        <time>2012-09-15T12:49:02Z</time>
      </trkpt>
      <trkpt lat="44.59009" lon="2.54832">
        <ele>683</ele>
        <time>2012-09-15T12:49:14Z</time>
      </trkpt>
      <trkpt lat="44.59019" lon="2.54828">
        <ele>683</ele>
        <time>2012-09-15T12:49:24Z</time>
      </trkpt>
      <trkpt lat="44.59031" lon="2.54821">
        <ele>687</ele>
        <time>2012-09-15T12:49:35Z</time>
      </trkpt>
      <trkpt lat="44.59044" lon="2.5481">
        <ele>688</ele>
        <time>2012-09-15T12:49:47Z</time>
      </trkpt>
      <trkpt lat="44.59055" lon="2.548">
        <ele>687</ele>
        <time>2012-09-15T12:49:58Z</time>
      </trkpt>
      <trkpt lat="44.59066" lon="2.54789">
        <ele>680</ele>
        <time>2012-09-15T12:50:09Z</time>
      </trkpt>
      <trkpt lat="44.59077" lon="2.54778">
        <ele>674</ele>
        <time>2012-09-15T12:50:20Z</time>
      </trkpt>
      <trkpt lat="44.59088" lon="2.54768">
        <ele>680</ele>
        <time>2012-09-15T12:50:32Z</time>
      </trkpt>
      <trkpt lat="44.59097" lon="2.54766">
        <ele>685</ele>
        <time>2012-09-15T12:50:43Z</time>
      </trkpt>
      <trkpt lat="44.591" lon="2.54769">
        <ele>685</ele>
        <time>2012-09-15T12:51:05Z</time>
      </trkpt>
      <trkpt lat="44.59109" lon="2.54768">
        <ele>686</ele>
        <time>2012-09-15T12:51:15Z</time>
      </trkpt>
      <trkpt lat="44.59121" lon="2.54762">
        <ele>692</ele>
        <time>2012-09-15T12:51:28Z</time>
      </trkpt>
      <trkpt lat="44.59135" lon="2.54764">
        <ele>691</ele>
        <time>2012-09-15T12:51:40Z</time>
      </trkpt>
      <trkpt lat="44.59148" lon="2.54767">
        <ele>703</ele>
        <time>2012-09-15T12:51:52Z</time>
      </trkpt>
      <trkpt lat="44.59158" lon="2.54769">
        <ele>693</ele>
        <time>2012-09-15T12:52:03Z</time>
      </trkpt>
      <trkpt lat="44.5917" lon="2.54771">
        <ele>691</ele>
        <time>2012-09-15T12:52:15Z</time>
      </trkpt>
      <trkpt lat="44.59184" lon="2.54776">
        <ele>690</ele>
        <time>2012-09-15T12:52:26Z</time>
      </trkpt>
      <trkpt lat="44.59196" lon="2.54784">
        <ele>696</ele>
        <time>2012-09-15T12:52:38Z</time>
      </trkpt>
      <trkpt lat="44.59209" lon="2.54795">
        <ele>685</ele>
        <time>2012-09-15T12:52:51Z</time>
      </trkpt>
      <trkpt lat="44.59217" lon="2.54808">
        <ele>693</ele>
        <time>2012-09-15T12:53:01Z</time>
      </trkpt>
      <trkpt lat="44.59225" lon="2.54822">
        <ele>693</ele>
        <time>2012-09-15T12:53:12Z</time>
      </trkpt>
      <trkpt lat="44.59233" lon="2.54836">
        <ele>696</ele>
        <time>2012-09-15T12:53:23Z</time>
      </trkpt>
      <trkpt lat="44.59245" lon="2.54844">
        <ele>694</ele>
        <time>2012-09-15T12:53:36Z</time>
      </trkpt>
      <trkpt lat="44.59251" lon="2.54842">
        <ele>692</ele>
        <time>2012-09-15T12:53:47Z</time>
      </trkpt>
      <trkpt lat="44.59264" lon="2.54839">
        <ele>694</ele>
        <time>2012-09-15T12:53:59Z</time>
      </trkpt>
      <trkpt lat="44.59277" lon="2.54835">
        <ele>696</ele>
        <time>2012-09-15T12:54:10Z</time>
      </trkpt>
      <trkpt lat="44.5929" lon="2.54831">
        <ele>691</ele>
        <time>2012-09-15T12:54:22Z</time>
      </trkpt>
      <trkpt lat="44.59305" lon="2.54835">
        <ele>690</ele>
        <time>2012-09-15T12:54:34Z</time>
      </trkpt>
      <trkpt lat="44.59313" lon="2.54843">
        <ele>688</ele>
        <time>2012-09-15T12:54:44Z</time>
      </trkpt>
      <trkpt lat="44.59322" lon="2.54862">
        <ele>702</ele>
        <time>2012-09-15T12:54:57Z</time>
      </trkpt>
      <trkpt lat="44.59328" lon="2.54868">
        <ele>702</ele>
        <time>2012-09-15T12:55:14Z</time>
      </trkpt>
      <trkpt lat="44.59327" lon="2.54873">
        <ele>699</ele>
        <time>2012-09-15T12:56:22Z</time>
      </trkpt>
      <trkpt lat="44.5933" lon="2.54888">
        <ele>701</ele>
        <time>2012-09-15T12:56:39Z</time>
      </trkpt>
      <trkpt lat="44.59339" lon="2.54874">
        <ele>696</ele>
        <time>2012-09-15T12:56:51Z</time>
      </trkpt>
      <trkpt lat="44.59344" lon="2.54872">
        <ele>694</ele>
        <time>2012-09-15T12:57:02Z</time>
      </trkpt>
      <trkpt lat="44.59352" lon="2.54863">
        <ele>692</ele>
        <time>2012-09-15T12:57:14Z</time>
      </trkpt>
      <trkpt lat="44.59362" lon="2.5485">
        <ele>694</ele>
        <time>2012-09-15T12:57:26Z</time>
      </trkpt>
      <trkpt lat="44.59368" lon="2.54841">
        <ele>691</ele>
        <time>2012-09-15T12:58:00Z</time>
      </trkpt>
      <trkpt lat="44.59376" lon="2.54834">
        <ele>690</ele>
        <time>2012-09-15T12:58:13Z</time>
      </trkpt>
      <trkpt lat="44.59389" lon="2.54819">
        <ele>688</ele>
        <time>2012-09-15T12:58:26Z</time>
      </trkpt>
      <trkpt lat="44.59399" lon="2.5481">
        <ele>688</ele>
        <time>2012-09-15T12:58:38Z</time>
      </trkpt>
      <trkpt lat="44.59408" lon="2.54803">
        <ele>689</ele>
        <time>2012-09-15T12:58:48Z</time>
      </trkpt>
      <trkpt lat="44.59418" lon="2.54792">
        <ele>688</ele>
        <time>2012-09-15T12:59:00Z</time>
      </trkpt>
      <trkpt lat="44.59427" lon="2.54776">
        <ele>683</ele>
        <time>2012-09-15T12:59:11Z</time>
      </trkpt>
      <trkpt lat="44.59435" lon="2.54761">
        <ele>679</ele>
        <time>2012-09-15T12:59:23Z</time>
      </trkpt>
      <trkpt lat="44.59443" lon="2.54747">
        <ele>683</ele>
        <time>2012-09-15T12:59:35Z</time>
      </trkpt>
      <trkpt lat="44.59453" lon="2.54733">
        <ele>688</ele>
        <time>2012-09-15T13:00:07Z</time>
      </trkpt>
      <trkpt lat="44.59457" lon="2.54722">
        <ele>684</ele>
        <time>2012-09-15T13:00:23Z</time>
      </trkpt>
      <trkpt lat="44.59465" lon="2.54706">
        <ele>681</ele>
        <time>2012-09-15T13:00:36Z</time>
      </trkpt>
      <trkpt lat="44.59476" lon="2.54693">
        <ele>683</ele>
        <time>2012-09-15T13:00:48Z</time>
      </trkpt>
      <trkpt lat="44.5948" lon="2.54675">
        <ele>680</ele>
        <time>2012-09-15T13:00:58Z</time>
      </trkpt>
      <trkpt lat="44.59486" lon="2.54658">
        <ele>681</ele>
        <time>2012-09-15T13:01:11Z</time>
      </trkpt>
      <trkpt lat="44.59492" lon="2.54642">
        <ele>690</ele>
        <time>2012-09-15T13:01:23Z</time>
      </trkpt>
      <trkpt lat="44.59494" lon="2.54624">
        <ele>683</ele>
        <time>2012-09-15T13:01:35Z</time>
      </trkpt>
      <trkpt lat="44.59497" lon="2.54603">
        <ele>686</ele>
        <time>2012-09-15T13:01:47Z</time>
      </trkpt>
      <trkpt lat="44.59498" lon="2.54583">
        <ele>683</ele>
        <time>2012-09-15T13:01:59Z</time>
      </trkpt>
      <trkpt lat="44.59503" lon="2.54565">
        <ele>684</ele>
        <time>2012-09-15T13:02:11Z</time>
      </trkpt>
      <trkpt lat="44.59508" lon="2.5455">
        <ele>688</ele>
        <time>2012-09-15T13:02:21Z</time>
      </trkpt>
      <trkpt lat="44.59514" lon="2.54533">
        <ele>684</ele>
        <time>2012-09-15T13:02:31Z</time>
      </trkpt>
      <trkpt lat="44.59521" lon="2.54518">
        <ele>675</ele>
        <time>2012-09-15T13:02:41Z</time>
      </trkpt>
      <trkpt lat="44.59529" lon="2.54503">
        <ele>672</ele>
        <time>2012-09-15T13:02:52Z</time>
      </trkpt>
      <trkpt lat="44.59536" lon="2.54487">
        <ele>670</ele>
        <time>2012-09-15T13:03:04Z</time>
      </trkpt>
      <trkpt lat="44.59541" lon="2.5447">
        <ele>679</ele>
        <time>2012-09-15T13:03:16Z</time>
      </trkpt>
      <trkpt lat="44.59547" lon="2.54454">
        <ele>684</ele>
        <time>2012-09-15T13:03:27Z</time>
      </trkpt>
      <trkpt lat="44.5955" lon="2.54439">
        <ele>678</ele>
        <time>2012-09-15T13:03:37Z</time>
      </trkpt>
      <trkpt lat="44.59554" lon="2.5442">
        <ele>685</ele>
        <time>2012-09-15T13:03:49Z</time>
      </trkpt>
      <trkpt lat="44.59555" lon="2.54402">
        <ele>692</ele>
        <time>2012-09-15T13:04:00Z</time>
      </trkpt>
      <trkpt lat="44.59561" lon="2.54384">
        <ele>690</ele>
        <time>2012-09-15T13:04:11Z</time>
      </trkpt>
      <trkpt lat="44.59563" lon="2.54375">
        <ele>693</ele>
        <time>2012-09-15T13:04:22Z</time>
      </trkpt>
      <trkpt lat="44.59568" lon="2.54362">
        <ele>686</ele>
        <time>2012-09-15T13:04:41Z</time>
      </trkpt>
      <trkpt lat="44.59574" lon="2.54349">
        <ele>689</ele>
        <time>2012-09-15T13:04:51Z</time>
      </trkpt>
      <trkpt lat="44.59576" lon="2.54346">
        <ele>682</ele>
        <time>2012-09-15T13:05:02Z</time>
      </trkpt>
      <trkpt lat="44.59589" lon="2.54332">
        <ele>681</ele>
        <time>2012-09-15T13:05:15Z</time>
      </trkpt>
      <trkpt lat="44.59598" lon="2.5432">
        <ele>677</ele>
        <time>2012-09-15T13:05:28Z</time>
      </trkpt>
      <trkpt lat="44.59608" lon="2.54302">
        <ele>676</ele>
        <time>2012-09-15T13:05:41Z</time>
      </trkpt>
      <trkpt lat="44.59618" lon="2.54288">
        <ele>677</ele>
        <time>2012-09-15T13:05:54Z</time>
      </trkpt>
      <trkpt lat="44.59624" lon="2.54278">
        <ele>682</ele>
        <time>2012-09-15T13:06:04Z</time>
      </trkpt>
      <trkpt lat="44.59632" lon="2.54265">
        <ele>677</ele>
        <time>2012-09-15T13:06:15Z</time>
      </trkpt>
      <trkpt lat="44.5964" lon="2.54252">
        <ele>681</ele>
        <time>2012-09-15T13:06:28Z</time>
      </trkpt>
      <trkpt lat="44.59647" lon="2.54236">
        <ele>680</ele>
        <time>2012-09-15T13:06:40Z</time>
      </trkpt>
      <trkpt lat="44.59653" lon="2.54222">
        <ele>676</ele>
        <time>2012-09-15T13:06:51Z</time>
      </trkpt>
      <trkpt lat="44.59657" lon="2.54205">
        <ele>672</ele>
        <time>2012-09-15T13:07:04Z</time>
      </trkpt>
      <trkpt lat="44.59659" lon="2.54208">
        <ele>678</ele>
        <time>2012-09-15T13:07:30Z</time>
      </trkpt>
      <trkpt lat="44.5966" lon="2.54212">
        <ele>679</ele>
        <time>2012-09-15T13:07:46Z</time>
      </trkpt>
    </trkseg>
  </trk>
</gpx>